Darstellungsparameter: Aktuell verwendete Einstellungen:
Skalierung der Graphiken ... ?
xyx+y,   Skalierungsfaktor:      Skalierung: Modus: x, Faktor: 1
Darstellungszeitraum ... ?
Vom - - bis: - -   Zeitraum: 11.02.2009 - 10.05.2009
Min/Max/Avg-Anzeige ... ?
Zeige MMA aktuell
Zeige MMA Monat
Zeige MMA alles
Zeige --A aktuell
Zeige --A Monat
Zeige --A alles
Keine MMA-Anzeige
MMA:
Average (ber die Originaldaten)
MMA-Basis: 17.04.2019 - 19.05.2019
Quicknavigation für Darstellung... ?
Tage:      1T, 2T, 3T, 5T -1T -2T -3T -5T +1T +2T +3T +5T
Wochen: 1W, 2W, 3W -1W -2W -3W +1W +2W +3W
Monate: 1M, 3M, 6M -1M -3M -6M +1M +3M +6M
Jahre:    1J, 3J, 5J, 10J -1J -3J -5J -10J +1J +3J +5J +10J
Nutze für die Darstellung ... ?
Originaldaten oder Mittelwerte auf ...
Stundenbasis Tagesbasis Wochenbasis
Monatsbasis Jahresbasis      Datenbasis: Original-Daten
Darstellen als:
Statistik (Auto) Statistik J:M      Darstellung:
Zur Graphik,    zurück zur Übersicht aller Sensoren.
 
Tabellarische Datenbersicht: ?
 
Sensor: Nr:Datum:Temp:Abs-Feuchte:Windchill:Wind:
Aussen-T/F 1 11-02-2009 00:10:32 2.9 C 3.9 g/m*3 2.9 C 0 km/h
2 11-02-2009 00:22:32 2.8 C 3.81 g/m*3 2.8 C 0 km/h
3 11-02-2009 00:34:32 2.8 C 3.81 g/m*3 2.8 C 0 km/h
4 11-02-2009 00:46:32 2.8 C 3.81 g/m*3 2.8 C 0 km/h
5 11-02-2009 00:58:32 2.7 C 3.73 g/m*3 2.7 C 0 km/h
6 11-02-2009 01:10:33 2.7 C 3.67 g/m*3 2.7 C 0 km/h
7 11-02-2009 01:22:33 2.6 C 3.7 g/m*3 2.6 C 0 km/h
8 11-02-2009 01:34:33 2.5 C 3.62 g/m*3 2.5 C 0 km/h
9 11-02-2009 01:46:33 2.4 C 3.54 g/m*3 2.4 C 0 km/h
10 11-02-2009 01:58:33 2.5 C 3.62 g/m*3 2.5 C 0 km/h
11 11-02-2009 02:10:33 2.5 C 3.68 g/m*3 2.5 C 0 km/h
12 11-02-2009 02:22:33 2.5 C 3.79 g/m*3 2.5 C 0 km/h
13 11-02-2009 02:34:33 2.6 C 3.82 g/m*3 2.6 C 0 km/h
14 11-02-2009 02:46:33 2.5 C 3.74 g/m*3 2.5 C 0 km/h
15 11-02-2009 02:58:33 2.3 C 3.69 g/m*3 2.3 C 0 km/h
16 11-02-2009 03:10:33 2.3 C 3.74 g/m*3 2.3 C 0 km/h
17 11-02-2009 03:22:33 2.2 C 3.72 g/m*3 2.2 C 0 km/h
18 11-02-2009 03:34:33 2.3 C 3.86 g/m*3 2.3 C 0 km/h
19 11-02-2009 03:46:33 2.4 C 3.83 g/m*3 2.4 C 0 km/h
20 11-02-2009 03:58:33 2.5 C 3.85 g/m*3 2.5 C 0 km/h
21 11-02-2009 04:10:33 2.4 C 3.88 g/m*3 2.4 C 0 km/h
22 11-02-2009 04:22:33 2.3 C 3.91 g/m*3 2.3 C 0 km/h
23 11-02-2009 04:34:33 2.2 C 4 g/m*3 2.2 C 0 km/h
24 11-02-2009 04:46:33 2.2 C 4.06 g/m*3 2.2 C 0 km/h
25 11-02-2009 04:58:34 2.2 C 4.06 g/m*3 2.2 C 0 km/h
Sensor: Nr:Datum:Temp:Abs-Feuchte:Windchill:Wind:
Aussen-T/F 26 11-02-2009 05:10:34 2.2 C 4 g/m*3 2.2 C 0 km/h
27 11-02-2009 05:22:34 2.2 C 3.94 g/m*3 2.2 C 0 km/h
28 11-02-2009 05:34:34 2.1 C 3.92 g/m*3 2.1 C 0 km/h
29 11-02-2009 05:46:34 2.2 C 3.89 g/m*3 2.2 C 0 km/h
30 11-02-2009 05:58:34 2.1 C 3.86 g/m*3 2.1 C 0 km/h
31 11-02-2009 06:10:34 2.1 C 3.86 g/m*3 2.1 C 0 km/h
32 11-02-2009 06:22:34 2.2 C 3.77 g/m*3 2.2 C 0 km/h
33 11-02-2009 06:34:34 2.2 C 3.72 g/m*3 2.2 C 0 km/h
34 11-02-2009 06:46:34 2.1 C 3.75 g/m*3 2.1 C 0 km/h
35 11-02-2009 06:58:34 2.1 C 3.75 g/m*3 2.1 C 0 km/h
36 11-02-2009 07:10:32 2 C 3.72 g/m*3 2 C 0 km/h
37 11-02-2009 07:22:32 2.1 C 3.69 g/m*3 2.1 C 0 km/h
38 11-02-2009 07:34:32 2.1 C 3.64 g/m*3 2.1 C 0 km/h
39 11-02-2009 07:46:32 2 C 3.61 g/m*3 2 C 0 km/h
40 11-02-2009 07:58:32 2 C 3.61 g/m*3 2 C 0 km/h
41 11-02-2009 08:10:31 2 C 3.56 g/m*3 2 C 0 km/h
42 11-02-2009 08:22:32 2.1 C 3.64 g/m*3 2.1 C 0 km/h
43 11-02-2009 08:34:31 2 C 3.56 g/m*3 2 C 0 km/h
44 11-02-2009 08:46:31 1.7 C 3.59 g/m*3 1.7 C 0 km/h
45 11-02-2009 08:58:31 1.7 C 3.59 g/m*3 1.7 C 0 km/h
46 11-02-2009 09:10:31 1.9 C 3.7 g/m*3 1.9 C 0 km/h
47 11-02-2009 09:22:31 1.8 C 3.62 g/m*3 1.8 C 0 km/h
48 11-02-2009 09:34:31 1.8 C 3.62 g/m*3 1.8 C 0 km/h
49 11-02-2009 09:46:31 1.7 C 3.65 g/m*3 1.7 C 0 km/h
50 11-02-2009 09:58:31 2.4 C 3.71 g/m*3 2.4 C 0 km/h
Sensor: Nr:Datum:Temp:Abs-Feuchte:Windchill:Wind:
Aussen-T/F 51 11-02-2009 10:10:31 2.9 C 3.66 g/m*3 2.9 C 0 km/h
52 11-02-2009 10:22:30 3 C 3.51 g/m*3 3 C 0 km/h
53 11-02-2009 10:34:30 3.2 C 3.43 g/m*3 3.2 C 0 km/h
54 11-02-2009 10:46:30 3.2 C 3.37 g/m*3 3.2 C 0 km/h
55 11-02-2009 10:58:30 3.7 C 3.43 g/m*3 3.7 C 0 km/h
56 11-02-2009 11:10:30 3.8 C 3.32 g/m*3 3.8 C 0 km/h
57 11-02-2009 11:22:29 3.8 C 3.26 g/m*3 3.8 C 0 km/h
58 11-02-2009 11:34:30 4 C 3.05 g/m*3 4 C 0 km/h
59 11-02-2009 11:46:29 4.5 C 3.02 g/m*3 4.5 C 0 km/h
60 11-02-2009 11:58:29 4.6 C 2.85 g/m*3 4.6 C 0 km/h
61 11-02-2009 12:10:29 4.6 C 2.85 g/m*3 4.6 C 0 km/h
62 11-02-2009 12:22:29 4.5 C 2.76 g/m*3 4.5 C 0 km/h
63 11-02-2009 12:34:29 3.6 C 3.16 g/m*3 3.6 C 0 km/h
64 11-02-2009 12:46:29 3.7 C 3.49 g/m*3 3.7 C 0 km/h
65 11-02-2009 12:58:29 3.4 C 3.42 g/m*3 3.4 C 0 km/h
66 11-02-2009 13:10:28 3.3 C 3.64 g/m*3 3.3 C 0 km/h
67 11-02-2009 13:22:29 3.6 C 3.96 g/m*3 3.6 C 0 km/h
68 11-02-2009 13:34:28 3.7 C 3.93 g/m*3 3.7 C 0 km/h
69 11-02-2009 13:46:28 3.7 C 3.68 g/m*3 3.7 C 0 km/h
70 11-02-2009 13:58:28 4.4 C 3.66 g/m*3 4.4 C 0 km/h
71 11-02-2009 14:10:28 5.2 C 3.03 g/m*3 5.2 C 0 km/h
72 11-02-2009 14:22:28 6.5 C 2.7 g/m*3 6.5 C 0 km/h
73 11-02-2009 14:34:28 6.2 C 2.57 g/m*3 6.2 C 0 km/h
74 11-02-2009 14:46:28 5.9 C 2.31 g/m*3 5.9 C 0 km/h
75 11-02-2009 14:58:28 5.6 C 2.12 g/m*3 5.6 C 0 km/h
Sensor: Nr:Datum:Temp:Abs-Feuchte:Windchill:Wind:
Aussen-T/F 76 11-02-2009 15:10:28 5.6 C 2.26 g/m*3 5.6 C 0 km/h
77 11-02-2009 15:22:27 5.3 C 2.15 g/m*3 5.3 C 0 km/h
78 11-02-2009 15:34:27 5 C 2.45 g/m*3 5 C 0 km/h
79 11-02-2009 15:46:27 4.7 C 2.73 g/m*3 4.7 C 0 km/h
80 11-02-2009 15:58:27 4.6 C 2.71 g/m*3 4.6 C 0 km/h
81 11-02-2009 16:10:27 4.6 C 2.71 g/m*3 4.6 C 0 km/h
82 11-02-2009 16:22:26 4.3 C 2.72 g/m*3 4.3 C 0 km/h
83 11-02-2009 16:34:27 4.2 C 2.77 g/m*3 4.2 C 0 km/h
84 11-02-2009 16:46:26 4 C 2.86 g/m*3 4 C 0 km/h
85 11-02-2009 16:58:26 3.8 C 3.01 g/m*3 3.8 C 0 km/h
86 11-02-2009 17:10:26 3.7 C 3.12 g/m*3 3.7 C 0 km/h
87 11-02-2009 17:22:27 3.6 C 3.1 g/m*3 3.6 C 0 km/h
88 11-02-2009 17:34:26 3.5 C 3.2 g/m*3 3.5 C 0 km/h
89 11-02-2009 17:46:26 3.4 C 3.18 g/m*3 3.4 C 0 km/h
90 11-02-2009 17:58:26 3.4 C 3.24 g/m*3 3.4 C 0 km/h
91 11-02-2009 18:10:26 3.4 C 3.36 g/m*3 3.4 C 0 km/h
92 11-02-2009 18:22:26 3.2 C 3.37 g/m*3 3.2 C 0 km/h
93 11-02-2009 18:34:25 3.1 C 3.47 g/m*3 3.1 C 0 km/h
94 11-02-2009 18:46:26 3.1 C 3.47 g/m*3 3.1 C 0 km/h
95 11-02-2009 18:58:26 3 C 3.45 g/m*3 3 C 0 km/h
96 11-02-2009 19:10:25 2.9 C 3.54 g/m*3 2.9 C 0 km/h
97 11-02-2009 19:22:25 2.9 C 3.54 g/m*3 2.9 C 0 km/h
98 11-02-2009 19:34:25 3 C 3.45 g/m*3 3 C 0 km/h
99 11-02-2009 19:46:25 3 C 3.45 g/m*3 3 C 0 km/h
100 11-02-2009 19:58:25 3 C 3.45 g/m*3 3 C 0 km/h
Sensor: Nr:Datum:Temp:Abs-Feuchte:Windchill:Wind:
Aussen-T/F 101 11-02-2009 20:10:25 2.9 C 3.48 g/m*3 2.9 C 0 km/h
102 11-02-2009 20:22:24 2.9 C 3.54 g/m*3 2.9 C 0 km/h
103 11-02-2009 20:34:25 2.8 C 3.52 g/m*3 2.8 C 0 km/h
104 11-02-2009 20:46:24 2.8 C 3.58 g/m*3 2.8 C 0 km/h
105 11-02-2009 20:58:24 2.6 C 3.65 g/m*3 2.6 C 0 km/h
106 11-02-2009 21:10:24 2.4 C 3.88 g/m*3 2.4 C 0 km/h
107 11-02-2009 21:23:26 2.2 C 3.94 g/m*3 2.2 C 0 km/h
108 11-02-2009 21:35:26 2.1 C 3.97 g/m*3 2.1 C 0 km/h
109 11-02-2009 21:47:26 1.8 C 4.11 g/m*3 1.8 C 0 km/h
110 11-02-2009 21:59:26 1.6 C 4.27 g/m*3 1.6 C 0 km/h
111 11-02-2009 22:11:26 1.5 C 4.35 g/m*3 1.5 C 0 km/h
112 11-02-2009 22:23:26 1.1 C 4.39 g/m*3 1.1 C 0 km/h
113 11-02-2009 22:35:26 1.1 C 4.49 g/m*3 1.1 C 0 km/h
114 11-02-2009 22:47:26 1 C 4.52 g/m*3 1 C 0 km/h
115 11-02-2009 22:59:26 1.1 C 4.6 g/m*3 1.1 C 0 km/h
116 11-02-2009 23:11:26 1.3 C 4.72 g/m*3 1.3 C 0 km/h
117 11-02-2009 23:23:26 1.3 C 4.72 g/m*3 1.3 C 0 km/h
118 11-02-2009 23:35:26 1.3 C 4.66 g/m*3 1.3 C 0 km/h
119 11-02-2009 23:47:26 1.4 C 4.69 g/m*3 1.4 C 0 km/h
120 11-02-2009 23:59:26 1.4 C 4.59 g/m*3 1.4 C 0 km/h
121 12-02-2009 00:11:26 1.3 C 4.56 g/m*3 1.3 C 0 km/h
122 12-02-2009 00:23:26 1 C 4.46 g/m*3 1 C 0 km/h
123 12-02-2009 00:35:27 1.1 C 4.49 g/m*3 1.1 C 0 km/h
124 12-02-2009 00:47:27 1.2 C 4.47 g/m*3 1.2 C 0 km/h
125 12-02-2009 00:59:27 1.1 C 4.39 g/m*3 1.1 C 0 km/h
Sensor: Nr:Datum:Temp:Abs-Feuchte:Windchill:Wind:
Aussen-T/F 126 12-02-2009 01:11:27 1 C 4.36 g/m*3 1 C 0 km/h
127 12-02-2009 01:23:27 1 C 4.41 g/m*3 1 C 0 km/h
128 12-02-2009 01:35:27 1 C 4.36 g/m*3 1 C 0 km/h
129 12-02-2009 01:47:27 1.1 C 4.29 g/m*3 1.1 C 0 km/h
130 12-02-2009 01:59:27 1.2 C 4.21 g/m*3 1.2 C 0 km/h
131 12-02-2009 02:11:27 1.1 C 4.13 g/m*3 1.1 C 0 km/h
132 12-02-2009 02:23:27 1.1 C 4.13 g/m*3 1.1 C 0 km/h
133 12-02-2009 02:35:27 1.1 C 4.13 g/m*3 1.1 C 0 km/h
134 12-02-2009 02:47:27 1.1 C 4.13 g/m*3 1.1 C 0 km/h
135 12-02-2009 02:59:27 0.8 C 4.15 g/m*3 0.8 C 0 km/h
136 12-02-2009 03:11:27 0.8 C 4.2 g/m*3 0.8 C 0 km/h
137 12-02-2009 03:23:27 0.8 C 4.3 g/m*3 0.8 C 0 km/h
138 12-02-2009 03:35:27 0.8 C 4.3 g/m*3 0.8 C 0 km/h
139 12-02-2009 03:47:27 1 C 4.2 g/m*3 1 C 0 km/h
140 12-02-2009 03:59:27 1 C 4 g/m*3 1 C 0 km/h
141 12-02-2009 04:11:27 0.6 C 3.84 g/m*3 0.6 C 0 km/h
142 12-02-2009 04:23:27 0.5 C 3.81 g/m*3 0.5 C 0 km/h
143 12-02-2009 04:35:28 0.2 C 3.73 g/m*3 0.2 C 0 km/h
144 12-02-2009 04:47:28 -0.1 C 3.61 g/m*3 -0.1 C 0 km/h
145 12-02-2009 04:59:28 -0.4 C 3.58 g/m*3 -0.4 C 0 km/h
146 12-02-2009 05:11:28 -0.5 C 3.51 g/m*3 -0.5 C 0 km/h
147 12-02-2009 05:23:28 -0.6 C 3.49 g/m*3 -0.6 C 0 km/h
148 12-02-2009 05:35:28 -0.8 C 3.44 g/m*3 -0.8 C 0 km/h
149 12-02-2009 05:47:28 -0.7 C 3.46 g/m*3 -0.7 C 0 km/h
150 12-02-2009 05:59:28 -0.7 C 3.46 g/m*3 -0.7 C 0 km/h
Sensor: Nr:Datum:Temp:Abs-Feuchte:Windchill:Wind:
Aussen-T/F 151 12-02-2009 06:11:28 -0.5 C 3.42 g/m*3 -0.5 C 0 km/h
152 12-02-2009 06:23:28 -0.5 C 3.42 g/m*3 -0.5 C 0 km/h
153 12-02-2009 06:35:28 -0.4 C 3.44 g/m*3 -0.4 C 0 km/h
154 12-02-2009 06:47:26 -0.3 C 3.46 g/m*3 -0.3 C 0 km/h
155 12-02-2009 06:59:26 -0.4 C 3.44 g/m*3 -0.4 C 0 km/h
156 12-02-2009 07:11:25 -0.3 C 3.56 g/m*3 -0.3 C 0 km/h
157 12-02-2009 07:23:25 -0.2 C 3.63 g/m*3 -0.2 C 0 km/h
158 12-02-2009 07:35:24 -0.2 C 3.63 g/m*3 -0.2 C 0 km/h
159 12-02-2009 07:47:25 -0.2 C 3.54 g/m*3 -0.2 C 0 km/h
160 12-02-2009 07:59:25 -0.1 C 3.61 g/m*3 -0.1 C 0 km/h
161 12-02-2009 08:11:24 0 C 3.63 g/m*3 0 C 0 km/h
162 12-02-2009 08:23:24 0.1 C 3.66 g/m*3 0.1 C 0 km/h
163 12-02-2009 08:35:25 0.1 C 3.61 g/m*3 0.1 C 0 km/h
164 12-02-2009 08:47:24 0.1 C 3.61 g/m*3 0.1 C 0 km/h
165 12-02-2009 08:59:24 0.2 C 3.64 g/m*3 0.2 C 0 km/h
166 12-02-2009 09:11:24 0.4 C 3.64 g/m*3 0.4 C 0 km/h
167 12-02-2009 09:23:24 0.4 C 3.69 g/m*3 0.4 C 0 km/h
168 12-02-2009 09:35:24 0.6 C 3.74 g/m*3 0.6 C 0 km/h
169 12-02-2009 09:47:23 0.8 C 3.84 g/m*3 0.8 C 0 km/h
170 12-02-2009 09:59:23 1 C 3.79 g/m*3 1 C 0 km/h
171 12-02-2009 10:11:23 0.9 C 3.81 g/m*3 0.9 C 0 km/h
172 12-02-2009 10:23:23 1 C 3.84 g/m*3 1 C 0 km/h
173 12-02-2009 10:35:23 1.3 C 3.76 g/m*3 1.3 C 0 km/h
174 12-02-2009 10:47:22 1.4 C 3.73 g/m*3 1.4 C 0 km/h
175 12-02-2009 10:59:22 1.6 C 3.68 g/m*3 1.6 C 0 km/h
Sensor: Nr:Datum:Temp:Abs-Feuchte:Windchill:Wind:
Aussen-T/F 176 12-02-2009 11:11:23 1.8 C 3.62 g/m*3 1.8 C 0 km/h
177 12-02-2009 11:23:23 2.1 C 3.64 g/m*3 2.1 C 0 km/h
178 12-02-2009 11:35:22 1.7 C 3.59 g/m*3 1.7 C 0 km/h
179 12-02-2009 11:47:23 1.6 C 3.68 g/m*3 1.6 C 0 km/h
180 12-02-2009 11:59:23 2 C 3.5 g/m*3 2 C 0 km/h
181 12-02-2009 12:11:22 2.4 C 3.25 g/m*3 2.4 C 0 km/h
182 12-02-2009 12:23:22 2.5 C 3.39 g/m*3 2.5 C 0 km/h
183 12-02-2009 12:35:21 2.6 C 3.53 g/m*3 2.6 C 0 km/h
184 12-02-2009 12:47:22 2.9 C 3.37 g/m*3 2.9 C 0 km/h
185 12-02-2009 12:59:22 3 C 3.57 g/m*3 3 C 0 km/h
186 12-02-2009 13:11:21 3.6 C 3.59 g/m*3 3.6 C 0 km/h
187 12-02-2009 13:23:21 3.6 C 3.47 g/m*3 3.6 C 0 km/h
188 12-02-2009 13:35:22 2.7 C 3.38 g/m*3 2.7 C 0 km/h
189 12-02-2009 13:47:21 1.4 C 3.63 g/m*3 1.4 C 0 km/h
190 12-02-2009 13:59:21 1 C 3.89 g/m*3 1 C 0 km/h
191 12-02-2009 14:11:21 0.9 C 4.07 g/m*3 0.9 C 0 km/h
192 12-02-2009 14:23:21 1.9 C 4.36 g/m*3 1.9 C 0 km/h
193 12-02-2009 14:35:21 2.1 C 4.14 g/m*3 2.1 C 0 km/h
194 12-02-2009 14:47:20 2.5 C 4.14 g/m*3 2.5 C 0 km/h
195 12-02-2009 14:59:20 2.4 C 4.05 g/m*3 2.4 C 0 km/h
196 12-02-2009 15:11:21 2.2 C 3.94 g/m*3 2.2 C 0 km/h
197 12-02-2009 15:23:21 1.8 C 3.95 g/m*3 1.8 C 0 km/h
198 12-02-2009 15:35:20 2.6 C 4.17 g/m*3 2.6 C 0 km/h
199 12-02-2009 15:47:20 2.7 C 3.96 g/m*3 2.7 C 0 km/h
200 12-02-2009 15:59:20 2.6 C 3.88 g/m*3 2.6 C 0 km/h
Sensor: Nr:Datum:Temp:Abs-Feuchte:Windchill:Wind:
Aussen-T/F 201 12-02-2009 16:11:20 3.2 C 3.8 g/m*3 3.2 C 0 km/h
202 12-02-2009 16:23:20 3.1 C 3.65 g/m*3 3.1 C 0 km/h
203 12-02-2009 16:35:19 2.8 C 3.64 g/m*3 2.8 C 0 km/h
204 12-02-2009 16:47:20 2.3 C 3.63 g/m*3 2.3 C 0 km/h
205 12-02-2009 16:59:20 1.2 C 3.74 g/m*3 1.2 C 0 km/h
206 12-02-2009 17:11:19 0.9 C 3.92 g/m*3 0.9 C 0 km/h
207 12-02-2009 17:23:19 0.8 C 3.99 g/m*3 0.8 C 0 km/h
208 12-02-2009 17:35:19 0.6 C 4.04 g/m*3 0.6 C 0 km/h
209 12-02-2009 17:47:19 0.3 C 4.06 g/m*3 0.3 C 0 km/h
210 12-02-2009 17:59:19 0.2 C 4.13 g/m*3 0.2 C 0 km/h
211 12-02-2009 18:11:19 0.1 C 4.15 g/m*3 0.1 C 0 km/h
212 12-02-2009 18:23:18 0.1 C 4.15 g/m*3 0.1 C 0 km/h
213 12-02-2009 18:35:19 0.1 C 4.15 g/m*3 0.1 C 0 km/h
214 12-02-2009 18:47:18 0 C 4.12 g/m*3 0 C 0 km/h
215 12-02-2009 18:59:18 0 C 4.17 g/m*3 0 C 0 km/h
216 12-02-2009 19:11:18 0.1 C 4.2 g/m*3 0.1 C 0 km/h
217 12-02-2009 19:23:18 0.1 C 4.2 g/m*3 0.1 C 0 km/h
218 12-02-2009 19:35:18 0.2 C 4.27 g/m*3 0.2 C 0 km/h
219 12-02-2009 19:47:17 0.1 C 4.24 g/m*3 0.1 C 0 km/h
220 12-02-2009 19:59:17 -0.2 C 4.16 g/m*3 -0.2 C 0 km/h
221 12-02-2009 20:11:18 -0.3 C 4.13 g/m*3 -0.3 C 0 km/h
222 12-02-2009 20:23:18 -0.4 C 4.1 g/m*3 -0.4 C 0 km/h
223 12-02-2009 20:35:17 -0.6 C 4.04 g/m*3 -0.6 C 0 km/h
224 12-02-2009 20:47:18 -0.5 C 4.03 g/m*3 -0.5 C 0 km/h
225 12-02-2009 20:59:18 -0.4 C 4.05 g/m*3 -0.4 C 0 km/h
Sensor: Nr:Datum:Temp:Abs-Feuchte:Windchill:Wind:
Aussen-T/F 226 12-02-2009 21:11:17 -0.5 C 4.03 g/m*3 -0.5 C 0 km/h
227 12-02-2009 21:23:17 -0.6 C 4 g/m*3 -0.6 C 0 km/h
228 12-02-2009 21:35:16 -0.7 C 3.97 g/m*3 -0.7 C 0 km/h
229 12-02-2009 21:47:17 -0.7 C 3.97 g/m*3 -0.7 C 0 km/h
230 12-02-2009 21:59:17 -0.6 C 4.04 g/m*3 -0.6 C 0 km/h
231 12-02-2009 22:11:16 -0.6 C 4.04 g/m*3 -0.6 C 0 km/h
232 12-02-2009 22:23:16 -0.5 C 4.07 g/m*3 -0.5 C 0 km/h
233 12-02-2009 22:36:17 -0.7 C 4.02 g/m*3 -0.7 C 0 km/h
234 12-02-2009 22:48:17 -1 C 3.93 g/m*3 -1 C 0 km/h
235 12-02-2009 23:00:17 -1.3 C 3.81 g/m*3 -1.3 C 0 km/h
236 12-02-2009 23:12:17 -1.5 C 3.8 g/m*3 -1.5 C 0 km/h
237 12-02-2009 23:24:17 -1.6 C 3.77 g/m*3 -1.6 C 0 km/h
238 12-02-2009 23:36:17 -1.5 C 3.8 g/m*3 -1.5 C 0 km/h
239 12-02-2009 23:48:17 -1.5 C 3.84 g/m*3 -1.5 C 0 km/h
240 13-02-2009 00:00:17 -1.5 C 3.84 g/m*3 -1.5 C 0 km/h
241 13-02-2009 00:12:17 -1.6 C 3.81 g/m*3 -1.6 C 0 km/h
242 13-02-2009 00:24:17 -1.2 C 3.97 g/m*3 -1.2 C 0 km/h
243 13-02-2009 00:36:17 -1.1 C 4 g/m*3 -1.1 C 0 km/h
244 13-02-2009 00:48:18 -1 C 4.02 g/m*3 -1 C 0 km/h
245 13-02-2009 01:00:18 -0.9 C 4.05 g/m*3 -0.9 C 0 km/h
246 13-02-2009 01:12:18 -0.7 C 4.11 g/m*3 -0.7 C 0 km/h
247 13-02-2009 01:24:18 -0.5 C 4.17 g/m*3 -0.5 C 0 km/h
248 13-02-2009 01:36:18 -0.4 C 4.19 g/m*3 -0.4 C 0 km/h
249 13-02-2009 01:48:18 -0.4 C 4.19 g/m*3 -0.4 C 0 km/h
250 13-02-2009 02:00:18 -0.4 C 4.19 g/m*3 -0.4 C 0 km/h
Sensor: Nr:Datum:Temp:Abs-Feuchte:Windchill:Wind:
Aussen-T/F 251 13-02-2009 02:12:18 -0.3 C 4.22 g/m*3 -0.3 C 0 km/h
252 13-02-2009 02:24:18 -0.3 C 4.22 g/m*3 -0.3 C 0 km/h
253 13-02-2009 02:36:18 -0.3 C 4.22 g/m*3 -0.3 C 0 km/h
254 13-02-2009 02:48:18 -0.2 C 4.25 g/m*3 -0.2 C 0 km/h
255 13-02-2009 03:00:18 -0.3 C 4.18 g/m*3 -0.3 C 0 km/h
256 13-02-2009 03:12:18 -0.3 C 4.18 g/m*3 -0.3 C 0 km/h
257 13-02-2009 03:24:18 -0.3 C 4.18 g/m*3 -0.3 C 0 km/h
258 13-02-2009 03:36:18 -0.3 C 4.18 g/m*3 -0.3 C 0 km/h
259 13-02-2009 03:48:18 -0.3 C 4.18 g/m*3 -0.3 C 0 km/h
260 13-02-2009 04:00:18 -0.3 C 4.18 g/m*3 -0.3 C 0 km/h
261 13-02-2009 04:12:18 -0.3 C 4.18 g/m*3 -0.3 C 0 km/h
262 13-02-2009 04:24:18 -0.4 C 4.1 g/m*3 -0.4 C 0 km/h
263 13-02-2009 04:36:19 -0.4 C 4.1 g/m*3 -0.4 C 0 km/h
264 13-02-2009 04:48:19 -0.4 C 4.1 g/m*3 -0.4 C 0 km/h
265 13-02-2009 05:00:19 -0.4 C 4.1 g/m*3 -0.4 C 0 km/h
266 13-02-2009 05:12:19 -0.5 C 4.03 g/m*3 -0.5 C 0 km/h
267 13-02-2009 05:24:19 -0.6 C 4 g/m*3 -0.6 C 0 km/h
268 13-02-2009 05:36:19 -0.6 C 3.95 g/m*3 -0.6 C 0 km/h
269 13-02-2009 05:48:19 -0.5 C 3.98 g/m*3 -0.5 C 0 km/h
270 13-02-2009 06:00:19 -0.4 C 3.96 g/m*3 -0.4 C 0 km/h
271 13-02-2009 06:12:19 -0.4 C 3.96 g/m*3 -0.4 C 0 km/h
272 13-02-2009 06:24:19 -0.3 C 3.94 g/m*3 -0.3 C 0 km/h
273 13-02-2009 06:36:19 -0.4 C 3.91 g/m*3 -0.4 C 0 km/h
274 13-02-2009 06:48:19 -0.4 C 3.86 g/m*3 -0.4 C 0 km/h
275 13-02-2009 07:00:08 -0.4 C 3.86 g/m*3 -0.4 C 0 km/h
Sensor: Nr:Datum:Temp:Abs-Feuchte:Windchill:Wind:
Aussen-T/F 276 13-02-2009 07:12:17 -0.5 C 3.84 g/m*3 -0.5 C 0 km/h
277 13-02-2009 07:24:18 -0.5 C 3.84 g/m*3 -0.5 C 0 km/h
278 13-02-2009 07:36:17 -0.5 C 3.88 g/m*3 -0.5 C 0 km/h
279 13-02-2009 07:48:17 -0.5 C 3.84 g/m*3 -0.5 C 0 km/h
280 13-02-2009 08:00:16 -0.5 C 3.84 g/m*3 -0.5 C 0 km/h
281 13-02-2009 08:12:16 -0.5 C 3.84 g/m*3 -0.5 C 0 km/h
282 13-02-2009 08:24:17 -0.5 C 3.84 g/m*3 -0.5 C 0 km/h
283 13-02-2009 08:36:16 -0.5 C 3.84 g/m*3 -0.5 C 0 km/h
284 13-02-2009 08:48:16 -0.4 C 3.86 g/m*3 -0.4 C 0 km/h
285 13-02-2009 09:00:16 -0.4 C 3.86 g/m*3 -0.4 C 0 km/h
286 13-02-2009 09:12:16 -0.3 C 3.84 g/m*3 -0.3 C 0 km/h
287 13-02-2009 09:24:16 -0.1 C 3.9 g/m*3 -0.1 C 0 km/h
288 13-02-2009 09:36:16 0.1 C 3.9 g/m*3 0.1 C 0 km/h
289 13-02-2009 09:48:16 0.1 C 3.9 g/m*3 0.1 C 0 km/h
290 13-02-2009 10:00:15 0.1 C 3.85 g/m*3 0.1 C 0 km/h
291 13-02-2009 10:12:15 0.2 C 3.88 g/m*3 0.2 C 0 km/h
292 13-02-2009 10:24:16 0.4 C 3.93 g/m*3 0.4 C 0 km/h
293 13-02-2009 10:36:15 0.4 C 3.88 g/m*3 0.4 C 0 km/h
294 13-02-2009 10:48:15 0.5 C 3.91 g/m*3 0.5 C 0 km/h
295 13-02-2009 11:00:15 0.6 C 3.94 g/m*3 0.6 C 0 km/h
296 13-02-2009 11:12:15 0.7 C 3.97 g/m*3 0.7 C 0 km/h
297 13-02-2009 11:24:15 0.9 C 4.02 g/m*3 0.9 C 0 km/h
298 13-02-2009 11:36:15 1.1 C 4.02 g/m*3 1.1 C 0 km/h
299 13-02-2009 11:48:15 1.2 C 4 g/m*3 1.2 C 0 km/h
300 13-02-2009 12:00:15 1.3 C 4.08 g/m*3 1.3 C 0 km/h
Sensor: Nr:Datum:Temp:Abs-Feuchte:Windchill:Wind:
Aussen-T/F 301 13-02-2009 12:12:15 1.4 C 4.11 g/m*3 1.4 C 0 km/h
302 13-02-2009 12:24:14 1.6 C 4.11 g/m*3 1.6 C 0 km/h
303 13-02-2009 12:36:14 1.8 C 4.11 g/m*3 1.8 C 0 km/h
304 13-02-2009 12:48:14 1.8 C 4.06 g/m*3 1.8 C 0 km/h
305 13-02-2009 13:00:14 1.8 C 4.11 g/m*3 1.8 C 0 km/h
306 13-02-2009 13:12:14 1.7 C 4.14 g/m*3 1.7 C 0 km/h
307 13-02-2009 13:24:13 1.5 C 4.19 g/m*3 1.5 C 0 km/h
308 13-02-2009 13:36:14 1.7 C 4.3 g/m*3 1.7 C 0 km/h
309 13-02-2009 13:48:13 1.8 C 4.28 g/m*3 1.8 C 0 km/h
310 13-02-2009 14:00:13 2.1 C 4.25 g/m*3 2.1 C 0 km/h
311 13-02-2009 14:12:13 2.3 C 4.25 g/m*3 2.3 C 0 km/h
312 13-02-2009 14:24:14 2.3 C 4.25 g/m*3 2.3 C 0 km/h
313 13-02-2009 14:36:13 2.3 C 4.25 g/m*3 2.3 C 0 km/h
314 13-02-2009 14:48:13 2.4 C 4.28 g/m*3 2.4 C 0 km/h
315 13-02-2009 15:00:12 2.2 C 4.28 g/m*3 2.2 C 0 km/h
316 13-02-2009 15:12:12 2.2 C 4.34 g/m*3 2.2 C 0 km/h
317 13-02-2009 15:24:13 2 C 4.28 g/m*3 2 C 0 km/h
318 13-02-2009 15:36:12 2 C 4.39 g/m*3 2 C 0 km/h
319 13-02-2009 15:48:12 2 C 4.39 g/m*3 2 C 0 km/h
320 13-02-2009 16:00:12 1.8 C 4.33 g/m*3 1.8 C 0 km/h
321 13-02-2009 16:12:12 1.7 C 4.3 g/m*3 1.7 C 0 km/h
322 13-02-2009 16:24:12 1.7 C 4.3 g/m*3 1.7 C 0 km/h
323 13-02-2009 16:36:12 1.5 C 4.24 g/m*3 1.5 C 0 km/h
324 13-02-2009 16:48:12 1.4 C 4.27 g/m*3 1.4 C 0 km/h
325 13-02-2009 17:00:12 1.4 C 4.32 g/m*3 1.4 C 0 km/h
Sensor: Nr:Datum:Temp:Abs-Feuchte:Windchill:Wind:
Aussen-T/F 326 13-02-2009 17:12:12 1.4 C 4.27 g/m*3 1.4 C 0 km/h
327 13-02-2009 17:24:11 1.4 C 4.27 g/m*3 1.4 C 0 km/h
328 13-02-2009 17:36:12 1.2 C 4.16 g/m*3 1.2 C 0 km/h
329 13-02-2009 17:48:11 1.2 C 4.16 g/m*3 1.2 C 0 km/h
330 13-02-2009 18:00:11 1.2 C 4.1 g/m*3 1.2 C 0 km/h
331 13-02-2009 18:12:11 1.2 C 4.05 g/m*3 1.2 C 0 km/h
332 13-02-2009 18:24:11 1.2 C 4.05 g/m*3 1.2 C 0 km/h
333 13-02-2009 18:36:11 1.2 C 4 g/m*3 1.2 C 0 km/h
334 13-02-2009 18:48:10 1.3 C 3.92 g/m*3 1.3 C 0 km/h
335 13-02-2009 19:00:10 1.4 C 3.84 g/m*3 1.4 C 0 km/h
336 13-02-2009 19:12:10 1.4 C 3.84 g/m*3 1.4 C 0 km/h
337 13-02-2009 19:24:11 1.2 C 3.74 g/m*3 1.2 C 0 km/h
338 13-02-2009 19:36:10 1.3 C 3.66 g/m*3 1.3 C 0 km/h
339 13-02-2009 19:48:10 1.2 C 3.58 g/m*3 1.2 C 0 km/h
340 13-02-2009 20:00:10 1.2 C 3.58 g/m*3 1.2 C 0 km/h
341 13-02-2009 20:12:10 1.1 C 3.61 g/m*3 1.1 C 0 km/h
342 13-02-2009 20:24:10 1 C 3.63 g/m*3 1 C 0 km/h
343 13-02-2009 20:36:10 1 C 3.74 g/m*3 1 C 0 km/h
344 13-02-2009 20:48:09 0.9 C 3.81 g/m*3 0.9 C 0 km/h
345 13-02-2009 21:00:09 0.9 C 3.76 g/m*3 0.9 C 0 km/h
346 13-02-2009 21:12:09 1 C 3.74 g/m*3 1 C 0 km/h
347 13-02-2009 21:24:09 0.9 C 3.81 g/m*3 0.9 C 0 km/h
348 13-02-2009 21:36:09 0.7 C 3.97 g/m*3 0.7 C 0 km/h
349 13-02-2009 21:48:08 0.6 C 4.04 g/m*3 0.6 C 0 km/h
350 13-02-2009 22:01:09 0.6 C 4.09 g/m*3 0.6 C 0 km/h
Sensor: Nr:Datum:Temp:Abs-Feuchte:Windchill:Wind:
Aussen-T/F 351 13-02-2009 22:13:09 0.6 C 4.14 g/m*3 0.6 C 0 km/h
352 13-02-2009 22:25:09 0.4 C 4.13 g/m*3 0.4 C 0 km/h
353 13-02-2009 22:37:09 0.4 C 4.23 g/m*3 0.4 C 0 km/h
354 13-02-2009 22:49:09 0.4 C 4.23 g/m*3 0.4 C 0 km/h
355 13-02-2009 23:01:10 0.4 C 4.28 g/m*3 0.4 C 0 km/h
356 13-02-2009 23:13:10 0.4 C 4.28 g/m*3 0.4 C 0 km/h
357 13-02-2009 23:25:10 0.4 C 4.28 g/m*3 0.4 C 0 km/h
358 13-02-2009 23:37:10 0.5 C 4.31 g/m*3 0.5 C 0 km/h
359 13-02-2009 23:49:10 0.6 C 4.29 g/m*3 0.6 C 0 km/h
360 14-02-2009 00:01:10 0.4 C 4.18 g/m*3 0.4 C 0 km/h
361 14-02-2009 00:13:10 0.4 C 4.18 g/m*3 0.4 C 0 km/h
362 14-02-2009 00:25:10 0.5 C 4.21 g/m*3 0.5 C 0 km/h
363 14-02-2009 00:37:10 0.6 C 4.19 g/m*3 0.6 C 0 km/h
364 14-02-2009 00:49:10 0.5 C 4.16 g/m*3 0.5 C 0 km/h
365 14-02-2009 01:01:10 0.5 C 4.16 g/m*3 0.5 C 0 km/h
366 14-02-2009 01:13:10 0.5 C 4.16 g/m*3 0.5 C 0 km/h
367 14-02-2009 01:25:10 0.4 C 4.13 g/m*3 0.4 C 0 km/h
368 14-02-2009 01:37:10 0.5 C 4.11 g/m*3 0.5 C 0 km/h
369 14-02-2009 01:49:10 0.5 C 4.06 g/m*3 0.5 C 0 km/h
370 14-02-2009 02:01:10 0.6 C 4.04 g/m*3 0.6 C 0 km/h
371 14-02-2009 02:13:10 0.5 C 3.96 g/m*3 0.5 C 0 km/h
372 14-02-2009 02:25:10 0.3 C 4.01 g/m*3 0.3 C 0 km/h
373 14-02-2009 02:37:10 0.2 C 4.08 g/m*3 0.2 C 0 km/h
374 14-02-2009 02:49:11 0.2 C 4.18 g/m*3 0.2 C 0 km/h
375 14-02-2009 03:01:11 0.2 C 4.18 g/m*3 0.2 C 0 km/h
Sensor: Nr:Datum:Temp:Abs-Feuchte:Windchill:Wind:
Aussen-T/F 376 14-02-2009 03:13:11 0.3 C 4.2 g/m*3 0.3 C 0 km/h
377 14-02-2009 03:25:11 0.2 C 4.18 g/m*3 0.2 C 0 km/h
378 14-02-2009 03:37:11 0.1 C 4.15 g/m*3 0.1 C 0 km/h
379 14-02-2009 03:49:11 0.1 C 4.2 g/m*3 0.1 C 0 km/h
380 14-02-2009 04:01:11 0.2 C 4.22 g/m*3 0.2 C 0 km/h
381 14-02-2009 04:13:11 0.2 C 4.27 g/m*3 0.2 C 0 km/h
382 14-02-2009 04:25:11 0.2 C 4.27 g/m*3 0.2 C 0 km/h
383 14-02-2009 04:37:11 0.2 C 4.32 g/m*3 0.2 C 0 km/h
384 14-02-2009 04:49:11 0.2 C 4.32 g/m*3 0.2 C 0 km/h
385 14-02-2009 05:01:11 0.2 C 4.32 g/m*3 0.2 C 0 km/h
386 14-02-2009 05:13:11 0.1 C 4.29 g/m*3 0.1 C 0 km/h
387 14-02-2009 05:25:11 0.2 C 4.32 g/m*3 0.2 C 0 km/h
388 14-02-2009 05:37:11 0.2 C 4.32 g/m*3 0.2 C 0 km/h
389 14-02-2009 05:49:11 0.2 C 4.32 g/m*3 0.2 C 0 km/h
390 14-02-2009 06:01:11 0.2 C 4.32 g/m*3 0.2 C 0 km/h
391 14-02-2009 06:13:11 0.2 C 4.27 g/m*3 0.2 C 0 km/h
392 14-02-2009 06:25:11 0.2 C 4.27 g/m*3 0.2 C 0 km/h
393 14-02-2009 06:37:12 0.2 C 4.22 g/m*3 0.2 C 0 km/h
394 14-02-2009 06:49:12 0.2 C 4.22 g/m*3 0.2 C 0 km/h
395 14-02-2009 07:01:12 0.2 C 4.22 g/m*3 0.2 C 0 km/h
396 14-02-2009 07:13:12 0.1 C 4.2 g/m*3 0.1 C 0 km/h
397 14-02-2009 07:25:12 0.1 C 4.2 g/m*3 0.1 C 0 km/h
398 14-02-2009 07:37:12 0.2 C 4.22 g/m*3 0.2 C 0 km/h
399 14-02-2009 07:49:10 0.3 C 4.25 g/m*3 0.3 C 0 km/h
400 14-02-2009 08:01:09 0.4 C 4.23 g/m*3 0.4 C 0 km/h
Sensor: Nr:Datum:Temp:Abs-Feuchte:Windchill:Wind:
Aussen-T/F 401 14-02-2009 08:13:09 0.5 C 4.16 g/m*3 0.5 C 0 km/h
402 14-02-2009 08:25:09 0.4 C 4.08 g/m*3 0.4 C 0 km/h
403 14-02-2009 08:37:09 0.3 C 3.96 g/m*3 0.3 C 0 km/h
404 14-02-2009 08:49:09 0.2 C 3.88 g/m*3 0.2 C 0 km/h
405 14-02-2009 09:01:08 0.2 C 3.83 g/m*3 0.2 C 0 km/h
406 14-02-2009 09:13:08 0.2 C 3.83 g/m*3 0.2 C 0 km/h
407 14-02-2009 09:25:08 0.4 C 3.88 g/m*3 0.4 C 0 km/h
408 14-02-2009 09:37:09 0.3 C 3.86 g/m*3 0.3 C 0 km/h
409 14-02-2009 09:49:08 0.3 C 3.86 g/m*3 0.3 C 0 km/h
410 14-02-2009 10:01:08 0.4 C 3.84 g/m*3 0.4 C 0 km/h
411 14-02-2009 10:13:08 0.2 C 3.68 g/m*3 0.2 C 0 km/h
412 14-02-2009 10:25:08 0.1 C 3.61 g/m*3 0.1 C 0 km/h
413 14-02-2009 10:37:08 0.3 C 3.56 g/m*3 0.3 C 0 km/h
414 14-02-2009 10:49:07 0.6 C 3.53 g/m*3 0.6 C 0 km/h
415 14-02-2009 11:01:08 0.8 C 3.38 g/m*3 0.8 C 0 km/h
416 14-02-2009 11:13:08 0.6 C 3.38 g/m*3 0.6 C 0 km/h
417 14-02-2009 11:25:07 0.9 C 3.45 g/m*3 0.9 C 0 km/h
418 14-02-2009 11:37:07 0.8 C 3.28 g/m*3 0.8 C 0 km/h
419 14-02-2009 11:49:07 0.8 C 3.23 g/m*3 0.8 C 0 km/h
420 14-02-2009 12:01:07 0.9 C 3.14 g/m*3 0.9 C 0 km/h
421 14-02-2009 12:13:07 0.9 C 3.2 g/m*3 0.9 C 0 km/h
422 14-02-2009 12:25:07 1.4 C 3.15 g/m*3 1.4 C 0 km/h
423 14-02-2009 12:37:06 1.5 C 3.06 g/m*3 1.5 C 0 km/h
424 14-02-2009 12:49:07 2 C 3.06 g/m*3 2 C 0 km/h
425 14-02-2009 13:01:06 1.8 C 2.85 g/m*3 1.8 C 0 km/h
Sensor: Nr:Datum:Temp:Abs-Feuchte:Windchill:Wind:
Aussen-T/F 426 14-02-2009 13:13:06 2.4 C 2.91 g/m*3 2.4 C 0 km/h
427 14-02-2009 13:25:06 2.6 C 2.84 g/m*3 2.6 C 0 km/h
428 14-02-2009 13:37:06 2.9 C 2.72 g/m*3 2.9 C 0 km/h
429 14-02-2009 13:49:06 3.1 C 2.63 g/m*3 3.1 C 0 km/h
430 14-02-2009 14:01:05 3.4 C 2.57 g/m*3 3.4 C 0 km/h
431 14-02-2009 14:13:05 3.7 C 2.55 g/m*3 3.7 C 0 km/h
432 14-02-2009 14:25:06 3.7 C 2.62 g/m*3 3.7 C 0 km/h
433 14-02-2009 14:37:06 3.8 C 2.7 g/m*3 3.8 C 0 km/h
434 14-02-2009 14:49:05 3.6 C 2.72 g/m*3 3.6 C 0 km/h
435 14-02-2009 15:01:06 4.1 C 2.69 g/m*3 4.1 C 0 km/h
436 14-02-2009 15:13:06 4.2 C 2.58 g/m*3 4.2 C 0 km/h
437 14-02-2009 15:25:05 3.6 C 2.66 g/m*3 3.6 C 0 km/h
438 14-02-2009 15:37:05 3.3 C 2.67 g/m*3 3.3 C 0 km/h
439 14-02-2009 15:49:05 2.9 C 2.66 g/m*3 2.9 C 0 km/h
440 14-02-2009 16:01:05 2.9 C 2.66 g/m*3 2.9 C 0 km/h
441 14-02-2009 16:13:05 3.2 C 2.65 g/m*3 3.2 C 0 km/h
442 14-02-2009 16:25:04 3.3 C 2.49 g/m*3 3.3 C 0 km/h
443 14-02-2009 16:37:04 3.9 C 2.65 g/m*3 3.9 C 0 km/h
444 14-02-2009 16:49:04 3.9 C 2.46 g/m*3 3.9 C 0 km/h
445 14-02-2009 17:01:04 3.3 C 2.43 g/m*3 3.3 C 0 km/h
446 14-02-2009 17:13:04 2.6 C 2.55 g/m*3 2.6 C 0 km/h
447 14-02-2009 17:25:04 2.2 C 2.59 g/m*3 2.2 C 0 km/h
448 14-02-2009 17:37:04 1.5 C 2.52 g/m*3 1.5 C 0 km/h
449 14-02-2009 17:49:04 0.8 C 2.51 g/m*3 0.8 C 0 km/h
450 14-02-2009 18:01:03 0.4 C 2.59 g/m*3 0.4 C 0 km/h
Sensor: Nr:Datum:Temp:Abs-Feuchte:Windchill:Wind:
Aussen-T/F 451 14-02-2009 18:13:03 0.2 C 2.55 g/m*3 0.2 C 0 km/h
452 14-02-2009 18:25:04 0.2 C 2.46 g/m*3 0.2 C 0 km/h
453 14-02-2009 18:37:03 -0.1 C 2.41 g/m*3 -0.1 C 0 km/h
454 14-02-2009 18:49:03 -0.3 C 2.42 g/m*3 -0.3 C 0 km/h
455 14-02-2009 19:01:03 -0.3 C 2.42 g/m*3 -0.3 C 0 km/h
456 14-02-2009 19:13:03 -0.8 C 2.48 g/m*3 -0.8 C 0 km/h
457 14-02-2009 19:25:03 -0.9 C 2.55 g/m*3 -0.9 C 0 km/h
458 14-02-2009 19:37:03 -1 C 2.67 g/m*3 -1 C 0 km/h
459 14-02-2009 19:49:03 -1.2 C 2.67 g/m*3 -1.2 C 0 km/h
460 14-02-2009 20:01:03 -1.3 C 2.74 g/m*3 -1.3 C 0 km/h
461 14-02-2009 20:13:03 -1.4 C 2.77 g/m*3 -1.4 C 0 km/h
462 14-02-2009 20:25:02 -1.6 C 2.77 g/m*3 -1.6 C 0 km/h
463 14-02-2009 20:37:02 -1.8 C 2.78 g/m*3 -1.8 C 0 km/h
464 14-02-2009 20:49:02 -2 C 2.78 g/m*3 -2 C 0 km/h
465 14-02-2009 21:01:01 -2.1 C 2.76 g/m*3 -2.1 C 0 km/h
466 14-02-2009 21:13:01 -2.3 C 2.72 g/m*3 -2.3 C 0 km/h
467 14-02-2009 21:25:02 -2.4 C 2.75 g/m*3 -2.4 C 0 km/h
468 14-02-2009 21:37:02 -2.6 C 2.75 g/m*3 -2.6 C 0 km/h
469 14-02-2009 21:49:01 -2.3 C 2.89 g/m*3 -2.3 C 0 km/h
470 14-02-2009 22:01:02 -2.2 C 2.91 g/m*3 -2.2 C 0 km/h
471 14-02-2009 22:13:02 -2.3 C 2.89 g/m*3 -2.3 C 0 km/h
472 14-02-2009 22:25:01 -2.4 C 2.87 g/m*3 -2.4 C 0 km/h
473 14-02-2009 22:37:01 -2.3 C 2.93 g/m*3 -2.3 C 0 km/h
474 14-02-2009 22:49:01 -2.3 C 2.89 g/m*3 -2.3 C 0 km/h
475 14-02-2009 23:01:01 -2.2 C 2.91 g/m*3 -2.2 C 0 km/h
Sensor: Nr:Datum:Temp:Abs-Feuchte:Windchill:Wind:
Aussen-T/F 476 14-02-2009 23:13:02 -2.5 C 2.85 g/m*3 -2.5 C 0 km/h
477 14-02-2009 23:25:00 -2.6 C 2.83 g/m*3 -2.6 C 0 km/h
478 14-02-2009 23:37:00 -2.8 C 2.83 g/m*3 -2.8 C 0 km/h
479 14-02-2009 23:49:00 -2.9 C 2.81 g/m*3 -2.9 C 0 km/h
480 15-02-2009 00:01:00 -2.9 C 2.85 g/m*3 -2.9 C 0 km/h
481 15-02-2009 00:13:00 -3.1 C 2.81 g/m*3 -3.1 C 0 km/h
482 15-02-2009 00:25:00 -3.3 C 2.77 g/m*3 -3.3 C 0 km/h
483 15-02-2009 00:37:00 -3.5 C 2.73 g/m*3 -3.5 C 0 km/h
484 15-02-2009 00:49:59 -3.5 C 2.77 g/m*3 -3.5 C 0 km/h
485 15-02-2009 01:12:59 -3.6 C 2.79 g/m*3 -3.6 C 0 km/h
486 15-02-2009 01:13:00 -3.7 C 2.77 g/m*3 -3.7 C 0 km/h
487 15-02-2009 01:25:00 -3.8 C 2.75 g/m*3 -3.8 C 0 km/h
488 15-02-2009 01:37:59 -3.9 C 2.76 g/m*3 -3.9 C 0 km/h
489 15-02-2009 01:49:59 -4 C 2.74 g/m*3 -4 C 0 km/h
490 15-02-2009 02:01:59 -4 C 2.78 g/m*3 -4 C 0 km/h
491 15-02-2009 02:13:59 -4.1 C 2.76 g/m*3 -4.1 C 0 km/h
492 15-02-2009 02:26:00 -4.2 C 2.78 g/m*3 -4.2 C 0 km/h
493 15-02-2009 02:37:58 -4.2 C 2.78 g/m*3 -4.2 C 0 km/h
494 15-02-2009 02:51:01 -4.4 C 2.74 g/m*3 -4.4 C 0 km/h
495 15-02-2009 03:03:01 -4.5 C 2.72 g/m*3 -4.5 C 0 km/h
496 15-02-2009 03:15:01 -4.6 C 2.73 g/m*3 -4.6 C 0 km/h
497 15-02-2009 03:27:01 -4.7 C 2.71 g/m*3 -4.7 C 0 km/h
498 15-02-2009 03:39:01 -4.7 C 2.71 g/m*3 -4.7 C 0 km/h
499 15-02-2009 03:51:01 -4.8 C 2.69 g/m*3 -4.8 C 0 km/h
500 15-02-2009 04:03:02 -4.9 C 2.68 g/m*3 -4.9 C 0 km/h
Sensor: Nr:Datum:Temp:Abs-Feuchte:Windchill:Wind:
Aussen-T/F 501 15-02-2009 04:15:01 -5 C 2.66 g/m*3 -5 C 0 km/h
502 15-02-2009 04:27:01 -5.2 C 2.62 g/m*3 -5.2 C 0 km/h
503 15-02-2009 04:39:02 -5.2 C 2.62 g/m*3 -5.2 C 0 km/h
504 15-02-2009 04:51:02 -5.5 C 2.56 g/m*3 -5.5 C 0 km/h
505 15-02-2009 05:02:59 -5.6 C 2.54 g/m*3 -5.6 C 0 km/h
506 15-02-2009 05:14:59 -5.4 C 2.58 g/m*3 -5.4 C 0 km/h
507 15-02-2009 05:26:59 -5.5 C 2.59 g/m*3 -5.5 C 0 km/h
508 15-02-2009 05:38:58 -5.6 C 2.54 g/m*3 -5.6 C 0 km/h
509 15-02-2009 05:50:58 -5.7 C 2.52 g/m*3 -5.7 C 0 km/h
510 15-02-2009 06:02:59 -5.7 C 2.56 g/m*3 -5.7 C 0 km/h
511 15-02-2009 06:14:59 -5.8 C 2.54 g/m*3 -5.8 C 0 km/h
512 15-02-2009 06:26:59 -5.8 C 2.54 g/m*3 -5.8 C 0 km/h
513 15-02-2009 06:38:58 -6 C 2.5 g/m*3 -6 C 0 km/h
514 15-02-2009 06:50:59 -6 C 2.5 g/m*3 -6 C 0 km/h
515 15-02-2009 07:02:58 -6.1 C 2.48 g/m*3 -6.1 C 0 km/h
516 15-02-2009 07:14:58 -6.1 C 2.48 g/m*3 -6.1 C 0 km/h
517 15-02-2009 07:26:59 -6.2 C 2.47 g/m*3 -6.2 C 0 km/h
518 15-02-2009 07:38:57 -6.3 C 2.45 g/m*3 -6.3 C 0 km/h
519 15-02-2009 07:50:58 -6.3 C 2.45 g/m*3 -6.3 C 0 km/h
520 15-02-2009 08:02:57 -6.3 C 2.45 g/m*3 -6.3 C 0 km/h
521 15-02-2009 08:14:57 -6.2 C 2.47 g/m*3 -6.2 C 0 km/h
522 15-02-2009 08:26:57 -6 C 2.5 g/m*3 -6 C 0 km/h
523 15-02-2009 08:38:58 -5.9 C 2.52 g/m*3 -5.9 C 0 km/h
524 15-02-2009 08:50:57 -5.6 C 2.58 g/m*3 -5.6 C 0 km/h
525 15-02-2009 09:02:57 -5.3 C 2.63 g/m*3 -5.3 C 0 km/h
Sensor: Nr:Datum:Temp:Abs-Feuchte:Windchill:Wind:
Aussen-T/F 526 15-02-2009 09:14:57 -5 C 2.69 g/m*3 -5 C 0 km/h
527 15-02-2009 09:26:57 -4.8 C 2.69 g/m*3 -4.8 C 0 km/h
528 15-02-2009 09:38:57 -4.6 C 2.7 g/m*3 -4.6 C 0 km/h
529 15-02-2009 09:50:56 -4.4 C 2.7 g/m*3 -4.4 C 0 km/h
530 15-02-2009 10:02:57 -4.2 C 2.7 g/m*3 -4.2 C 0 km/h
531 15-02-2009 10:14:56 -3.9 C 2.76 g/m*3 -3.9 C 0 km/h
532 15-02-2009 10:26:56 -3.5 C 2.77 g/m*3 -3.5 C 0 km/h
533 15-02-2009 10:38:56 -3.1 C 2.77 g/m*3 -3.1 C 0 km/h
534 15-02-2009 10:50:55 -2.9 C 2.77 g/m*3 -2.9 C 0 km/h
535 15-02-2009 11:02:56 -2.5 C 2.81 g/m*3 -2.5 C 0 km/h
536 15-02-2009 11:14:56 -2 C 2.82 g/m*3 -2 C 0 km/h
537 15-02-2009 11:26:56 -1.6 C 2.82 g/m*3 -1.6 C 0 km/h
538 15-02-2009 11:38:55 -1.2 C 2.85 g/m*3 -1.2 C 0 km/h
539 15-02-2009 11:50:56 -0.9 C 2.87 g/m*3 -0.9 C 0 km/h
540 15-02-2009 12:02:55 -0.4 C 2.92 g/m*3 -0.4 C 0 km/h
541 15-02-2009 12:14:55 -0.1 C 2.89 g/m*3 -0.1 C 0 km/h
542 15-02-2009 12:26:55 0.3 C 2.92 g/m*3 0.3 C 0 km/h
543 15-02-2009 12:38:55 0.8 C 3.02 g/m*3 0.8 C 0 km/h
544 15-02-2009 12:50:55 1 C 2.85 g/m*3 1 C 0 km/h
545 15-02-2009 13:02:55 1.5 C 2.79 g/m*3 1.5 C 0 km/h
546 15-02-2009 13:14:54 1.8 C 2.69 g/m*3 1.8 C 0 km/h
547 15-02-2009 13:26:54 1.8 C 2.58 g/m*3 1.8 C 0 km/h
548 15-02-2009 13:38:55 2 C 2.56 g/m*3 2 C 0 km/h
549 15-02-2009 13:50:54 1.8 C 2.52 g/m*3 1.8 C 0 km/h
550 15-02-2009 14:02:54 2 C 2.5 g/m*3 2 C 0 km/h
Sensor: Nr:Datum:Temp:Abs-Feuchte:Windchill:Wind:
Aussen-T/F 551 15-02-2009 14:14:54 2.1 C 2.52 g/m*3 2.1 C 0 km/h
552 15-02-2009 14:26:54 2.1 C 2.52 g/m*3 2.1 C 0 km/h
553 15-02-2009 14:38:54 2.2 C 2.53 g/m*3 2.2 C 0 km/h
554 15-02-2009 14:50:53 2.2 C 2.53 g/m*3 2.2 C 0 km/h
555 15-02-2009 15:02:54 2.3 C 2.5 g/m*3 2.3 C 0 km/h
556 15-02-2009 15:14:53 2.4 C 2.51 g/m*3 2.4 C 0 km/h
557 15-02-2009 15:26:53 2.4 C 2.57 g/m*3 2.4 C 0 km/h
558 15-02-2009 15:38:54 2.5 C 2.59 g/m*3 2.5 C 0 km/h
559 15-02-2009 15:50:53 2.4 C 2.57 g/m*3 2.4 C 0 km/h
560 15-02-2009 16:02:53 2.4 C 2.57 g/m*3 2.4 C 0 km/h
561 15-02-2009 16:14:53 2.3 C 2.55 g/m*3 2.3 C 0 km/h
562 15-02-2009 16:26:54 2.2 C 2.59 g/m*3 2.2 C 0 km/h
563 15-02-2009 16:38:52 2.1 C 2.63 g/m*3 2.1 C 0 km/h
564 15-02-2009 16:50:53 2 C 2.67 g/m*3 2 C 0 km/h
565 15-02-2009 17:02:52 1.8 C 2.74 g/m*3 1.8 C 0 km/h
566 15-02-2009 17:14:52 1.6 C 2.7 g/m*3 1.6 C 0 km/h
567 15-02-2009 17:26:52 1.6 C 2.7 g/m*3 1.6 C 0 km/h
568 15-02-2009 17:38:52 1.4 C 2.67 g/m*3 1.4 C 0 km/h
569 15-02-2009 17:50:52 1.2 C 2.68 g/m*3 1.2 C 0 km/h
570 15-02-2009 18:02:52 1.2 C 2.68 g/m*3 1.2 C 0 km/h
571 15-02-2009 18:14:51 1.1 C 2.67 g/m*3 1.1 C 0 km/h
572 15-02-2009 18:26:51 0.9 C 2.73 g/m*3 0.9 C 0 km/h
573 15-02-2009 18:38:52 0.7 C 2.75 g/m*3 0.7 C 0 km/h
574 15-02-2009 18:50:51 0.7 C 2.75 g/m*3 0.7 C 0 km/h
575 15-02-2009 19:02:51 0.7 C 2.69 g/m*3 0.7 C 0 km/h
Sensor: Nr:Datum:Temp:Abs-Feuchte:Windchill:Wind:
Aussen-T/F 576 15-02-2009 19:14:51 0.8 C 2.76 g/m*3 0.8 C 0 km/h
577 15-02-2009 19:26:51 1 C 2.7 g/m*3 1 C 0 km/h
578 15-02-2009 19:38:51 1.1 C 2.67 g/m*3 1.1 C 0 km/h
579 15-02-2009 19:50:50 1.2 C 2.68 g/m*3 1.2 C 0 km/h
580 15-02-2009 20:02:51 1.3 C 2.65 g/m*3 1.3 C 0 km/h
581 15-02-2009 20:14:51 1.4 C 2.67 g/m*3 1.4 C 0 km/h
582 15-02-2009 20:26:51 1.4 C 2.67 g/m*3 1.4 C 0 km/h
583 15-02-2009 20:38:50 1.4 C 2.67 g/m*3 1.4 C 0 km/h
584 15-02-2009 20:50:51 1.4 C 2.72 g/m*3 1.4 C 0 km/h
585 15-02-2009 21:02:50 1.3 C 2.86 g/m*3 1.3 C 0 km/h
586 15-02-2009 21:14:50 1.2 C 3 g/m*3 1.2 C 0 km/h
587 15-02-2009 21:26:50 1 C 3.11 g/m*3 1 C 0 km/h
588 15-02-2009 21:38:49 0.8 C 3.28 g/m*3 0.8 C 0 km/h
589 15-02-2009 21:50:00 0.8 C 3.33 g/m*3 0.8 C 0 km/h
590 15-02-2009 22:03:51 0.6 C 3.43 g/m*3 0.6 C 0 km/h
591 15-02-2009 22:15:51 0.5 C 3.51 g/m*3 0.5 C 0 km/h
592 15-02-2009 22:27:51 0.5 C 3.61 g/m*3 0.5 C 0 km/h
593 15-02-2009 22:39:51 0.5 C 3.61 g/m*3 0.5 C 0 km/h
594 15-02-2009 22:51:51 0.4 C 3.64 g/m*3 0.4 C 0 km/h
595 15-02-2009 23:03:51 0.4 C 3.74 g/m*3 0.4 C 0 km/h
596 15-02-2009 23:15:51 0.3 C 3.76 g/m*3 0.3 C 0 km/h
597 15-02-2009 23:27:51 0.3 C 3.81 g/m*3 0.3 C 0 km/h
598 15-02-2009 23:39:51 0.2 C 3.83 g/m*3 0.2 C 0 km/h
599 15-02-2009 23:51:51 0.2 C 3.83 g/m*3 0.2 C 0 km/h
600 16-02-2009 00:03:51 0.2 C 3.83 g/m*3 0.2 C 0 km/h
Sensor: Nr:Datum:Temp:Abs-Feuchte:Windchill:Wind:
Aussen-T/F 601 16-02-2009 00:15:51 0.2 C 3.88 g/m*3 0.2 C 0 km/h
602 16-02-2009 00:27:51 0.1 C 3.9 g/m*3 0.1 C 0 km/h
603 16-02-2009 00:39:51 0.1 C 4 g/m*3 0.1 C 0 km/h
604 16-02-2009 00:51:51 0 C 4.02 g/m*3 0 C 0 km/h
605 16-02-2009 01:03:51 0 C 4.02 g/m*3 0 C 0 km/h
606 16-02-2009 01:15:51 0 C 4.02 g/m*3 0 C 0 km/h
607 16-02-2009 01:27:51 0 C 4.02 g/m*3 0 C 0 km/h
608 16-02-2009 01:39:52 0 C 4.02 g/m*3 0 C 0 km/h
609 16-02-2009 01:51:52 0 C 4.02 g/m*3 0 C 0 km/h
610 16-02-2009 02:03:52 0 C 4.02 g/m*3 0 C 0 km/h
611 16-02-2009 02:15:52 0.1 C 4 g/m*3 0.1 C 0 km/h
612 16-02-2009 02:27:52 0.1 C 3.95 g/m*3 0.1 C 0 km/h
613 16-02-2009 02:39:52 0.2 C 3.98 g/m*3 0.2 C 0 km/h
614 16-02-2009 02:51:52 0.2 C 3.93 g/m*3 0.2 C 0 km/h
615 16-02-2009 03:03:52 0.2 C 3.93 g/m*3 0.2 C 0 km/h
616 16-02-2009 03:15:52 0.2 C 3.93 g/m*3 0.2 C 0 km/h
617 16-02-2009 03:27:52 0.2 C 3.93 g/m*3 0.2 C 0 km/h
618 16-02-2009 03:39:52 0.3 C 3.96 g/m*3 0.3 C 0 km/h
619 16-02-2009 03:51:52 0.3 C 3.91 g/m*3 0.3 C 0 km/h
620 16-02-2009 04:03:52 0.3 C 3.86 g/m*3 0.3 C 0 km/h
621 16-02-2009 04:15:52 0.4 C 3.88 g/m*3 0.4 C 0 km/h
622 16-02-2009 04:27:52 0.4 C 3.88 g/m*3 0.4 C 0 km/h
623 16-02-2009 04:39:52 0.4 C 3.88 g/m*3 0.4 C 0 km/h
624 16-02-2009 04:51:52 0.4 C 3.88 g/m*3 0.4 C 0 km/h
625 16-02-2009 05:03:52 0.5 C 3.91 g/m*3 0.5 C 0 km/h
Sensor: Nr:Datum:Temp:Abs-Feuchte:Windchill:Wind:
Aussen-T/F 626 16-02-2009 05:15:52 0.5 C 3.91 g/m*3 0.5 C 0 km/h
627 16-02-2009 05:27:52 0.5 C 3.91 g/m*3 0.5 C 0 km/h
628 16-02-2009 05:39:53 0.5 C 3.91 g/m*3 0.5 C 0 km/h
629 16-02-2009 05:51:53 0.4 C 3.88 g/m*3 0.4 C 0 km/h
630 16-02-2009 06:03:53 0.4 C 3.93 g/m*3 0.4 C 0 km/h
631 16-02-2009 06:15:53 0.4 C 4.03 g/m*3 0.4 C 0 km/h
632 16-02-2009 06:27:53 0.3 C 4.06 g/m*3 0.3 C 0 km/h
633 16-02-2009 06:39:53 0.4 C 4.13 g/m*3 0.4 C 0 km/h
634 16-02-2009 06:51:53 0.4 C 4.13 g/m*3 0.4 C 0 km/h
635 16-02-2009 07:03:51 0.4 C 4.18 g/m*3 0.4 C 0 km/h
636 16-02-2009 07:15:50 0.4 C 4.23 g/m*3 0.4 C 0 km/h
637 16-02-2009 07:27:50 0.4 C 4.23 g/m*3 0.4 C 0 km/h
638 16-02-2009 07:39:51 0.4 C 4.23 g/m*3 0.4 C 0 km/h
639 16-02-2009 07:51:50 0.5 C 4.26 g/m*3 0.5 C 0 km/h
640 16-02-2009 08:03:50 0.5 C 4.26 g/m*3 0.5 C 0 km/h
641 16-02-2009 08:15:50 0.5 C 4.26 g/m*3 0.5 C 0 km/h
642 16-02-2009 08:27:50 0.5 C 4.26 g/m*3 0.5 C 0 km/h
643 16-02-2009 08:39:50 0.6 C 4.29 g/m*3 0.6 C 0 km/h
644 16-02-2009 08:51:49 0.7 C 4.32 g/m*3 0.7 C 0 km/h
645 16-02-2009 09:03:50 0.8 C 4.35 g/m*3 0.8 C 0 km/h
646 16-02-2009 09:15:50 1 C 4.31 g/m*3 1 C 0 km/h
647 16-02-2009 09:27:50 1.1 C 4.34 g/m*3 1.1 C 0 km/h
648 16-02-2009 09:39:49 1.2 C 4.31 g/m*3 1.2 C 0 km/h
649 16-02-2009 09:51:50 1.3 C 4.29 g/m*3 1.3 C 0 km/h
650 16-02-2009 10:03:49 1.3 C 4.24 g/m*3 1.3 C 0 km/h
Sensor: Nr:Datum:Temp:Abs-Feuchte:Windchill:Wind:
Aussen-T/F 651 16-02-2009 10:15:49 1.3 C 4.24 g/m*3 1.3 C 0 km/h
652 16-02-2009 10:27:49 1.5 C 4.4 g/m*3 1.5 C 0 km/h
653 16-02-2009 10:39:48 1.5 C 4.46 g/m*3 1.5 C 0 km/h
654 16-02-2009 10:51:49 1.4 C 4.48 g/m*3 1.4 C 0 km/h
655 16-02-2009 11:03:48 1.2 C 4.47 g/m*3 1.2 C 0 km/h
656 16-02-2009 11:15:48 1.5 C 4.62 g/m*3 1.5 C 0 km/h
657 16-02-2009 11:27:48 1.6 C 4.7 g/m*3 1.6 C 0 km/h
658 16-02-2009 11:39:48 1.7 C 4.68 g/m*3 1.7 C 0 km/h
659 16-02-2009 11:51:48 1.8 C 4.71 g/m*3 1.8 C 0 km/h
660 16-02-2009 12:03:48 1.9 C 4.8 g/m*3 1.9 C 0 km/h
661 16-02-2009 12:15:47 2.1 C 4.81 g/m*3 2.1 C 0 km/h
662 16-02-2009 12:27:47 2.3 C 4.88 g/m*3 2.3 C 0 km/h
663 16-02-2009 12:39:48 2.6 C 4.86 g/m*3 2.6 C 0 km/h
664 16-02-2009 12:51:47 2.7 C 4.84 g/m*3 2.7 C 0 km/h
665 16-02-2009 13:03:47 2.8 C 4.81 g/m*3 2.8 C 0 km/h
666 16-02-2009 13:15:47 3 C 4.82 g/m*3 3 C 0 km/h
667 16-02-2009 13:27:47 3.4 C 4.89 g/m*3 3.4 C 0 km/h
668 16-02-2009 13:39:47 3.8 C 4.89 g/m*3 3.8 C 0 km/h
669 16-02-2009 13:51:46 3.8 C 4.89 g/m*3 3.8 C 0 km/h
670 16-02-2009 14:03:47 3.9 C 4.86 g/m*3 3.9 C 0 km/h
671 16-02-2009 14:15:47 4 C 4.83 g/m*3 4 C 0 km/h
672 16-02-2009 14:27:47 3.8 C 4.83 g/m*3 3.8 C 0 km/h
673 16-02-2009 14:39:46 3.8 C 4.89 g/m*3 3.8 C 0 km/h
674 16-02-2009 14:51:47 3.6 C 4.83 g/m*3 3.6 C 0 km/h
675 16-02-2009 15:03:46 3.5 C 4.86 g/m*3 3.5 C 0 km/h
Sensor: Nr:Datum:Temp:Abs-Feuchte:Windchill:Wind:
Aussen-T/F 676 16-02-2009 15:15:46 3.4 C 4.95 g/m*3 3.4 C 0 km/h
677 16-02-2009 15:27:46 3.4 C 5.01 g/m*3 3.4 C 0 km/h
678 16-02-2009 15:39:45 3.4 C 5.07 g/m*3 3.4 C 0 km/h
679 16-02-2009 15:51:46 3.4 C 5.13 g/m*3 3.4 C 0 km/h
680 16-02-2009 16:03:45 3.4 C 5.19 g/m*3 3.4 C 0 km/h
681 16-02-2009 16:15:45 3.4 C 5.19 g/m*3 3.4 C 0 km/h
682 16-02-2009 16:27:45 3.4 C 5.25 g/m*3 3.4 C 0 km/h
683 16-02-2009 16:39:46 3.3 C 5.22 g/m*3 3.3 C 0 km/h
684 16-02-2009 16:51:45 3.3 C 5.28 g/m*3 3.3 C 0 km/h
685 16-02-2009 17:03:45 3.3 C 5.28 g/m*3 3.3 C 0 km/h
686 16-02-2009 17:15:45 3.3 C 5.34 g/m*3 3.3 C 0 km/h
687 16-02-2009 17:27:45 3.2 C 5.3 g/m*3 3.2 C 0 km/h
688 16-02-2009 17:39:45 3.2 C 5.3 g/m*3 3.2 C 0 km/h
689 16-02-2009 17:51:44 3.2 C 5.36 g/m*3 3.2 C 0 km/h
690 16-02-2009 18:03:45 3.2 C 5.36 g/m*3 3.2 C 0 km/h
691 16-02-2009 18:15:44 3.3 C 5.46 g/m*3 3.3 C 0 km/h
692 16-02-2009 18:27:44 3.3 C 5.46 g/m*3 3.3 C 0 km/h
693 16-02-2009 18:39:44 3.3 C 5.46 g/m*3 3.3 C 0 km/h
694 16-02-2009 18:51:44 3.3 C 5.46 g/m*3 3.3 C 0 km/h
695 16-02-2009 19:03:44 3.4 C 5.56 g/m*3 3.4 C 0 km/h
696 16-02-2009 19:15:44 3.4 C 5.56 g/m*3 3.4 C 0 km/h
697 16-02-2009 19:27:44 3.5 C 5.6 g/m*3 3.5 C 0 km/h
698 16-02-2009 19:39:43 3.4 C 5.56 g/m*3 3.4 C 0 km/h
699 16-02-2009 19:51:44 3.4 C 5.56 g/m*3 3.4 C 0 km/h
700 16-02-2009 20:03:43 3.4 C 5.56 g/m*3 3.4 C 0 km/h
Sensor: Nr:Datum:Temp:Abs-Feuchte:Windchill:Wind:
Aussen-T/F 701 16-02-2009 20:15:43 3.6 C 5.63 g/m*3 3.6 C 0 km/h
702 16-02-2009 20:27:43 3.6 C 5.63 g/m*3 3.6 C 0 km/h
703 16-02-2009 20:39:43 3.5 C 5.6 g/m*3 3.5 C 0 km/h
704 16-02-2009 20:51:43 3.5 C 5.6 g/m*3 3.5 C 0 km/h
705 16-02-2009 21:03:43 3.5 C 5.6 g/m*3 3.5 C 0 km/h
706 16-02-2009 21:15:43 3.5 C 5.6 g/m*3 3.5 C 0 km/h
707 16-02-2009 21:27:43 3.6 C 5.63 g/m*3 3.6 C 0 km/h
708 16-02-2009 21:39:42 3.4 C 5.56 g/m*3 3.4 C 0 km/h
709 16-02-2009 21:52:59 3.5 C 5.6 g/m*3 3.5 C 0 km/h
710 16-02-2009 22:04:59 3.3 C 5.52 g/m*3 3.3 C 0 km/h
711 16-02-2009 22:16:59 3.3 C 5.58 g/m*3 3.3 C 0 km/h
712 16-02-2009 22:28:59 3.3 C 5.58 g/m*3 3.3 C 0 km/h
713 16-02-2009 22:40:59 3.4 C 5.62 g/m*3 3.4 C 0 km/h
714 16-02-2009 22:52:59 3.4 C 5.68 g/m*3 3.4 C 0 km/h
715 16-02-2009 23:04:59 3.5 C 5.72 g/m*3 3.5 C 0 km/h
716 16-02-2009 23:16:59 3.8 C 5.83 g/m*3 3.8 C 0 km/h
717 16-02-2009 23:28:59 3.9 C 5.87 g/m*3 3.9 C 0 km/h
718 16-02-2009 23:40:59 3.9 C 5.81 g/m*3 3.9 C 0 km/h
719 16-02-2009 23:52:59 4 C 5.79 g/m*3 4 C 0 km/h
720 17-02-2009 00:04:59 4 C 5.79 g/m*3 4 C 0 km/h
721 17-02-2009 00:16:59 4 C 5.79 g/m*3 4 C 0 km/h
722 17-02-2009 00:28:59 3.9 C 5.75 g/m*3 3.9 C 0 km/h
723 17-02-2009 00:40:59 3.9 C 5.81 g/m*3 3.9 C 0 km/h
724 17-02-2009 00:51:59 3.9 C 5.81 g/m*3 3.9 C 0 km/h
725 17-02-2009 01:04:00 3.9 C 5.81 g/m*3 3.9 C 0 km/h
Sensor: Nr:Datum:Temp:Abs-Feuchte:Windchill:Wind:
Aussen-T/F 726 17-02-2009 01:16:00 3.9 C 5.81 g/m*3 3.9 C 0 km/h
727 17-02-2009 01:28:00 3.9 C 5.81 g/m*3 3.9 C 0 km/h
728 17-02-2009 01:40:00 4 C 5.85 g/m*3 4 C 0 km/h
729 17-02-2009 01:52:00 3.9 C 5.87 g/m*3 3.9 C 0 km/h
730 17-02-2009 02:04:00 3.9 C 5.87 g/m*3 3.9 C 0 km/h
731 17-02-2009 02:16:00 3.9 C 5.87 g/m*3 3.9 C 0 km/h
732 17-02-2009 02:28:00 3.9 C 5.87 g/m*3 3.9 C 0 km/h
733 17-02-2009 02:40:00 3.9 C 5.87 g/m*3 3.9 C 0 km/h
734 17-02-2009 02:52:00 3.9 C 5.87 g/m*3 3.9 C 0 km/h
735 17-02-2009 03:04:00 4 C 5.91 g/m*3 4 C 0 km/h
736 17-02-2009 03:16:00 4 C 5.91 g/m*3 4 C 0 km/h
737 17-02-2009 03:28:00 4 C 5.91 g/m*3 4 C 0 km/h
738 17-02-2009 03:40:00 4 C 5.91 g/m*3 4 C 0 km/h
739 17-02-2009 03:52:00 4 C 5.91 g/m*3 4 C 0 km/h
740 17-02-2009 04:04:00 4 C 5.91 g/m*3 4 C 0 km/h
741 17-02-2009 04:16:00 4.1 C 6.02 g/m*3 4.1 C 0 km/h
742 17-02-2009 04:28:00 4.2 C 6.06 g/m*3 4.2 C 0 km/h
743 17-02-2009 04:40:00 4.2 C 6.06 g/m*3 4.2 C 0 km/h
744 17-02-2009 04:52:00 4.3 C 6.1 g/m*3 4.3 C 0 km/h
745 17-02-2009 05:04:00 4.3 C 6.1 g/m*3 4.3 C 0 km/h
746 17-02-2009 05:16:01 4.3 C 6.1 g/m*3 4.3 C 0 km/h
747 17-02-2009 05:28:01 4.4 C 6.14 g/m*3 4.4 C 0 km/h
748 17-02-2009 05:40:01 4.4 C 6.14 g/m*3 4.4 C 0 km/h
749 17-02-2009 05:52:01 4.4 C 6.14 g/m*3 4.4 C 0 km/h
750 17-02-2009 06:04:01 4.5 C 6.18 g/m*3 4.5 C 0 km/h
Sensor: Nr:Datum:Temp:Abs-Feuchte:Windchill:Wind:
Aussen-T/F 751 17-02-2009 06:16:01 4.4 C 6.14 g/m*3 4.4 C 0 km/h
752 17-02-2009 06:28:01 4.4 C 6.14 g/m*3 4.4 C 0 km/h
753 17-02-2009 06:40:01 4.4 C 6.14 g/m*3 4.4 C 0 km/h
754 17-02-2009 06:52:01 4.5 C 6.18 g/m*3 4.5 C 0 km/h
755 17-02-2009 07:04:43 4.5 C 6.18 g/m*3 4.5 C 0 km/h
756 17-02-2009 07:16:43 4.7 C 6.33 g/m*3 4.7 C 0 km/h
757 17-02-2009 07:28:43 4.7 C 6.33 g/m*3 4.7 C 0 km/h
758 17-02-2009 07:40:43 4.6 C 6.29 g/m*3 4.6 C 0 km/h
759 17-02-2009 07:52:43 4.7 C 6.33 g/m*3 4.7 C 0 km/h
760 17-02-2009 08:04:42 4.6 C 6.29 g/m*3 4.6 C 0 km/h
761 17-02-2009 08:16:43 4.6 C 6.29 g/m*3 4.6 C 0 km/h
762 17-02-2009 08:28:44 4.8 C 6.37 g/m*3 4.8 C 0 km/h
763 17-02-2009 08:40:42 5 C 6.46 g/m*3 5 C 0 km/h
764 17-02-2009 08:52:42 5.1 C 6.5 g/m*3 5.1 C 0 km/h
765 17-02-2009 09:04:42 5.3 C 6.58 g/m*3 5.3 C 0 km/h
766 17-02-2009 09:16:42 5.5 C 6.67 g/m*3 5.5 C 0 km/h
767 17-02-2009 09:28:42 5.5 C 6.67 g/m*3 5.5 C 0 km/h
768 17-02-2009 09:40:42 5.6 C 6.72 g/m*3 5.6 C 0 km/h
769 17-02-2009 09:52:42 5.6 C 6.65 g/m*3 5.6 C 0 km/h
770 17-02-2009 10:04:42 5.7 C 6.69 g/m*3 5.7 C 0 km/h
771 17-02-2009 10:16:41 5.7 C 6.69 g/m*3 5.7 C 0 km/h
772 17-02-2009 10:28:41 5.7 C 6.62 g/m*3 5.7 C 0 km/h
773 17-02-2009 10:40:41 6 C 6.68 g/m*3 6 C 0 km/h
774 17-02-2009 10:52:41 6 C 6.68 g/m*3 6 C 0 km/h
775 17-02-2009 11:04:41 5.9 C 6.71 g/m*3 5.9 C 0 km/h
Sensor: Nr:Datum:Temp:Abs-Feuchte:Windchill:Wind:
Aussen-T/F 776 17-02-2009 11:16:40 5.9 C 6.71 g/m*3 5.9 C 0 km/h
777 17-02-2009 11:28:40 6 C 6.68 g/m*3 6 C 0 km/h
778 17-02-2009 11:40:41 6 C 6.68 g/m*3 6 C 0 km/h
779 17-02-2009 11:52:41 6 C 6.68 g/m*3 6 C 0 km/h
780 17-02-2009 12:04:40 6.1 C 6.72 g/m*3 6.1 C 0 km/h
781 17-02-2009 12:16:41 6.3 C 6.88 g/m*3 6.3 C 0 km/h
782 17-02-2009 12:28:41 6.3 C 6.88 g/m*3 6.3 C 0 km/h
783 17-02-2009 12:40:40 6.3 C 6.88 g/m*3 6.3 C 0 km/h
784 17-02-2009 12:52:40 6.6 C 7.02 g/m*3 6.6 C 0 km/h
785 17-02-2009 13:04:39 6.7 C 7.07 g/m*3 6.7 C 0 km/h
786 17-02-2009 13:16:40 6.7 C 6.99 g/m*3 6.7 C 0 km/h
787 17-02-2009 13:28:40 6.5 C 6.9 g/m*3 6.5 C 0 km/h
788 17-02-2009 13:40:39 6.5 C 6.9 g/m*3 6.5 C 0 km/h
789 17-02-2009 13:52:39 6.4 C 6.71 g/m*3 6.4 C 0 km/h
790 17-02-2009 14:04:40 6.4 C 6.71 g/m*3 6.4 C 0 km/h
791 17-02-2009 14:16:39 6.5 C 6.6 g/m*3 6.5 C 0 km/h
792 17-02-2009 14:28:39 6.7 C 6.53 g/m*3 6.7 C 0 km/h
793 17-02-2009 14:40:39 6.8 C 6.35 g/m*3 6.8 C 0 km/h
794 17-02-2009 14:52:39 7 C 6.2 g/m*3 7 C 0 km/h
795 17-02-2009 15:04:39 6.9 C 6.16 g/m*3 6.9 C 0 km/h
796 17-02-2009 15:16:38 6.9 C 6.08 g/m*3 6.9 C 0 km/h
797 17-02-2009 15:28:38 7 C 5.81 g/m*3 7 C 0 km/h
798 17-02-2009 15:40:38 6.9 C 5.93 g/m*3 6.9 C 0 km/h
799 17-02-2009 15:52:38 6.8 C 5.58 g/m*3 6.8 C 0 km/h
800 17-02-2009 16:04:38 5.9 C 5.19 g/m*3 5.9 C 0 km/h
Sensor: Nr:Datum:Temp:Abs-Feuchte:Windchill:Wind:
Aussen-T/F 801 17-02-2009 16:16:38 5.5 C 5.06 g/m*3 5.5 C 0 km/h
802 17-02-2009 16:28:38 5.1 C 4.99 g/m*3 5.1 C 0 km/h
803 17-02-2009 16:40:38 4.9 C 5 g/m*3 4.9 C 0 km/h
804 17-02-2009 16:52:38 4.6 C 4.76 g/m*3 4.6 C 0 km/h
805 17-02-2009 17:04:37 4.4 C 4.7 g/m*3 4.4 C 0 km/h
806 17-02-2009 17:16:38 4 C 4.51 g/m*3 4 C 0 km/h
807 17-02-2009 17:28:38 3.7 C 4.42 g/m*3 3.7 C 0 km/h
808 17-02-2009 17:40:37 3.6 C 4.33 g/m*3 3.6 C 0 km/h
809 17-02-2009 17:52:37 3.4 C 4.15 g/m*3 3.4 C 0 km/h
810 17-02-2009 18:04:37 3.1 C 4.07 g/m*3 3.1 C 0 km/h
811 17-02-2009 18:16:37 2.9 C 4.02 g/m*3 2.9 C 0 km/h
812 17-02-2009 18:28:37 2.8 C 4.05 g/m*3 2.8 C 0 km/h
813 17-02-2009 18:40:37 2.5 C 3.97 g/m*3 2.5 C 0 km/h
814 17-02-2009 18:52:37 2.3 C 3.74 g/m*3 2.3 C 0 km/h
815 17-02-2009 19:04:37 2.1 C 3.41 g/m*3 2.1 C 0 km/h
816 17-02-2009 19:16:36 2.1 C 3.3 g/m*3 2.1 C 0 km/h
817 17-02-2009 19:28:36 1.9 C 3.09 g/m*3 1.9 C 0 km/h
818 17-02-2009 19:40:36 1.6 C 2.97 g/m*3 1.6 C 0 km/h
819 17-02-2009 19:52:36 1.1 C 2.98 g/m*3 1.1 C 0 km/h
820 17-02-2009 20:04:36 0.7 C 2.85 g/m*3 0.7 C 0 km/h
821 17-02-2009 20:16:35 0.3 C 2.67 g/m*3 0.3 C 0 km/h
822 17-02-2009 20:28:35 0 C 2.66 g/m*3 0 C 0 km/h
823 17-02-2009 20:40:36 -0.3 C 2.66 g/m*3 -0.3 C 0 km/h
824 17-02-2009 20:52:35 -0.4 C 2.54 g/m*3 -0.4 C 0 km/h
825 17-02-2009 21:04:36 -0.5 C 2.57 g/m*3 -0.5 C 0 km/h
Sensor: Nr:Datum:Temp:Abs-Feuchte:Windchill:Wind:
Aussen-T/F 826 17-02-2009 21:16:35 -0.7 C 2.45 g/m*3 -0.7 C 0 km/h
827 17-02-2009 21:28:35 -0.9 C 2.46 g/m*3 -0.9 C 0 km/h
828 17-02-2009 21:41:36 -1 C 2.44 g/m*3 -1 C 0 km/h
829 17-02-2009 21:53:36 -1.2 C 2.41 g/m*3 -1.2 C 0 km/h
830 17-02-2009 22:05:36 -1.3 C 2.39 g/m*3 -1.3 C 0 km/h
831 17-02-2009 22:17:36 -1.5 C 2.49 g/m*3 -1.5 C 0 km/h
832 17-02-2009 22:29:36 -1.7 C 2.5 g/m*3 -1.7 C 0 km/h
833 17-02-2009 22:41:36 -1.9 C 2.55 g/m*3 -1.9 C 0 km/h
834 17-02-2009 22:53:36 -2 C 2.49 g/m*3 -2 C 0 km/h
835 17-02-2009 23:05:36 -2.2 C 2.49 g/m*3 -2.2 C 0 km/h
836 17-02-2009 23:17:36 -2.3 C 2.48 g/m*3 -2.3 C 0 km/h
837 17-02-2009 23:29:36 -2.4 C 2.5 g/m*3 -2.4 C 0 km/h
838 17-02-2009 23:41:36 -2.6 C 2.51 g/m*3 -2.6 C 0 km/h
839 17-02-2009 23:53:36 -2.6 C 2.51 g/m*3 -2.6 C 0 km/h
840 18-02-2009 00:05:36 -2.8 C 2.51 g/m*3 -2.8 C 0 km/h
841 18-02-2009 00:17:36 -2.9 C 2.53 g/m*3 -2.9 C 0 km/h
842 18-02-2009 00:29:37 -2.9 C 2.57 g/m*3 -2.9 C 0 km/h
843 18-02-2009 00:41:37 -3 C 2.59 g/m*3 -3 C 0 km/h
844 18-02-2009 00:53:37 -3.2 C 2.52 g/m*3 -3.2 C 0 km/h
845 18-02-2009 01:05:37 -3.3 C 2.5 g/m*3 -3.3 C 0 km/h
846 18-02-2009 01:17:37 -3.4 C 2.48 g/m*3 -3.4 C 0 km/h
847 18-02-2009 01:29:37 -3.5 C 2.5 g/m*3 -3.5 C 0 km/h
848 18-02-2009 01:41:37 -3.5 C 2.5 g/m*3 -3.5 C 0 km/h
849 18-02-2009 01:53:37 -3.6 C 2.48 g/m*3 -3.6 C 0 km/h
850 18-02-2009 02:05:37 -3.7 C 2.47 g/m*3 -3.7 C 0 km/h
Sensor: Nr:Datum:Temp:Abs-Feuchte:Windchill:Wind:
Aussen-T/F 851 18-02-2009 02:17:37 -3.7 C 2.5 g/m*3 -3.7 C 0 km/h
852 18-02-2009 02:29:37 -3.7 C 2.54 g/m*3 -3.7 C 0 km/h
853 18-02-2009 02:41:37 -3.8 C 2.52 g/m*3 -3.8 C 0 km/h
854 18-02-2009 02:53:37 -4 C 2.49 g/m*3 -4 C 0 km/h
855 18-02-2009 03:05:37 -4 C 2.52 g/m*3 -4 C 0 km/h
856 18-02-2009 03:17:37 -4.1 C 2.51 g/m*3 -4.1 C 0 km/h
857 18-02-2009 03:29:37 -4.3 C 2.47 g/m*3 -4.3 C 0 km/h
858 18-02-2009 03:41:37 -4.3 C 2.51 g/m*3 -4.3 C 0 km/h
859 18-02-2009 03:53:37 -4.5 C 2.47 g/m*3 -4.5 C 0 km/h
860 18-02-2009 04:05:37 -4.5 C 2.47 g/m*3 -4.5 C 0 km/h
861 18-02-2009 04:17:37 -4.7 C 2.44 g/m*3 -4.7 C 0 km/h
862 18-02-2009 04:29:37 -4.8 C 2.42 g/m*3 -4.8 C 0 km/h
863 18-02-2009 04:41:38 -4.8 C 2.42 g/m*3 -4.8 C 0 km/h
864 18-02-2009 04:53:38 -4.9 C 2.4 g/m*3 -4.9 C 0 km/h
865 18-02-2009 05:05:38 -4.9 C 2.4 g/m*3 -4.9 C 0 km/h
866 18-02-2009 05:17:38 -5.1 C 2.4 g/m*3 -5.1 C 0 km/h
867 18-02-2009 05:29:38 -5 C 2.45 g/m*3 -5 C 0 km/h
868 18-02-2009 05:41:38 -5.1 C 2.43 g/m*3 -5.1 C 0 km/h
869 18-02-2009 05:53:38 -5.4 C 2.38 g/m*3 -5.4 C 0 km/h
870 18-02-2009 06:05:38 -5.5 C 2.36 g/m*3 -5.5 C 0 km/h
871 18-02-2009 06:17:38 -5.6 C 2.35 g/m*3 -5.6 C 0 km/h
872 18-02-2009 06:29:38 -5.7 C 2.36 g/m*3 -5.7 C 0 km/h
873 18-02-2009 06:41:38 -5.5 C 2.4 g/m*3 -5.5 C 0 km/h
874 18-02-2009 06:53:38 -5.5 C 2.43 g/m*3 -5.5 C 0 km/h
875 18-02-2009 07:05:36 -5.7 C 2.4 g/m*3 -5.7 C 0 km/h
Sensor: Nr:Datum:Temp:Abs-Feuchte:Windchill:Wind:
Aussen-T/F 876 18-02-2009 07:17:35 -6.1 C 2.3 g/m*3 -6.1 C 0 km/h
877 18-02-2009 07:29:36 -6.2 C 2.28 g/m*3 -6.2 C 0 km/h
878 18-02-2009 07:41:36 -5.9 C 2.36 g/m*3 -5.9 C 0 km/h
879 18-02-2009 07:53:35 -5.8 C 2.41 g/m*3 -5.8 C 0 km/h
880 18-02-2009 08:05:35 -5.7 C 2.43 g/m*3 -5.7 C 0 km/h
881 18-02-2009 08:17:35 -5.6 C 2.48 g/m*3 -5.6 C 0 km/h
882 18-02-2009 08:29:35 -5.8 C 2.44 g/m*3 -5.8 C 0 km/h
883 18-02-2009 08:41:35 -5.9 C 2.42 g/m*3 -5.9 C 0 km/h
884 18-02-2009 08:53:34 -5.7 C 2.46 g/m*3 -5.7 C 0 km/h
885 18-02-2009 09:05:35 -5.7 C 2.46 g/m*3 -5.7 C 0 km/h
886 18-02-2009 09:17:35 -5.5 C 2.53 g/m*3 -5.5 C 0 km/h
887 18-02-2009 09:29:34 -5.4 C 2.55 g/m*3 -5.4 C 0 km/h
888 18-02-2009 09:41:34 -4.9 C 2.64 g/m*3 -4.9 C 0 km/h
889 18-02-2009 09:53:35 -4.7 C 2.68 g/m*3 -4.7 C 0 km/h
890 18-02-2009 10:05:34 -4.2 C 2.78 g/m*3 -4.2 C 0 km/h
891 18-02-2009 10:17:34 -3.5 C 2.84 g/m*3 -3.5 C 0 km/h
892 18-02-2009 10:29:34 -2.4 C 2.87 g/m*3 -2.4 C 0 km/h
893 18-02-2009 10:41:34 -1.7 C 2.67 g/m*3 -1.7 C 0 km/h
894 18-02-2009 10:53:34 -1.3 C 2.52 g/m*3 -1.3 C 0 km/h
895 18-02-2009 11:05:34 -1.5 C 2.36 g/m*3 -1.5 C 0 km/h
896 18-02-2009 11:17:33 -1.3 C 2.39 g/m*3 -1.3 C 0 km/h
897 18-02-2009 11:29:33 -1 C 2.35 g/m*3 -1 C 0 km/h
898 18-02-2009 11:41:33 -0.7 C 2.12 g/m*3 -0.7 C 0 km/h
899 18-02-2009 11:53:33 -0.3 C 2.28 g/m*3 -0.3 C 0 km/h
900 18-02-2009 12:05:33 0 C 2.33 g/m*3 0 C 0 km/h
Sensor: Nr:Datum:Temp:Abs-Feuchte:Windchill:Wind:
Aussen-T/F 901 18-02-2009 12:17:32 0.2 C 2.36 g/m*3 0.2 C 0 km/h
902 18-02-2009 12:29:33 0.5 C 2.31 g/m*3 0.5 C 0 km/h
903 18-02-2009 12:41:33 0.7 C 2.29 g/m*3 0.7 C 0 km/h
904 18-02-2009 12:53:32 1.1 C 2.09 g/m*3 1.1 C 0 km/h
905 18-02-2009 13:05:32 1.9 C 2.1 g/m*3 1.9 C 0 km/h
906 18-02-2009 13:17:33 2.3 C 2.04 g/m*3 2.3 C 0 km/h
907 18-02-2009 13:29:32 2.7 C 2.04 g/m*3 2.7 C 0 km/h
908 18-02-2009 13:41:32 2.8 C 1.82 g/m*3 2.8 C 0 km/h
909 18-02-2009 13:53:32 3.6 C 1.55 g/m*3 3.6 C 0 km/h
910 18-02-2009 14:05:32 3.6 C 1.55 g/m*3 3.6 C 0 km/h
911 18-02-2009 14:17:32 4.4 C 1.31 g/m*3 4.4 C 0 km/h
912 18-02-2009 14:29:31 4.8 C 1.34 g/m*3 4.8 C 0 km/h
913 18-02-2009 14:41:31 5.5 C 1.4 g/m*3 5.5 C 0 km/h
914 18-02-2009 14:53:32 5.7 C 1.42 g/m*3 5.7 C 0 km/h
915 18-02-2009 15:05:31 5.9 C 1.44 g/m*3 5.9 C 0 km/h
916 18-02-2009 15:17:31 5.5 C 1.4 g/m*3 5.5 C 0 km/h
917 18-02-2009 15:29:31 5.7 C 1.42 g/m*3 5.7 C 0 km/h
918 18-02-2009 15:41:31 6 C 1.45 g/m*3 6 C 0 km/h
919 18-02-2009 15:53:31 6 C 1.45 g/m*3 6 C 0 km/h
920 18-02-2009 16:05:31 6.7 C 1.52 g/m*3 6.7 C 0 km/h
921 18-02-2009 16:17:30 6.9 C 1.54 g/m*3 6.9 C 0 km/h
922 18-02-2009 16:29:31 5.1 C 1.37 g/m*3 5.1 C 0 km/h
923 18-02-2009 16:41:31 5.5 C 1.4 g/m*3 5.5 C 0 km/h
924 18-02-2009 16:53:30 5.7 C 1.42 g/m*3 5.7 C 0 km/h
925 18-02-2009 17:05:30 5.4 C 1.4 g/m*3 5.4 C 0 km/h
Sensor: Nr:Datum:Temp:Abs-Feuchte:Windchill:Wind:
Aussen-T/F 926 18-02-2009 17:17:30 4.7 C 1.67 g/m*3 4.7 C 0 km/h
927 18-02-2009 17:29:30 3.2 C 1.81 g/m*3 3.2 C 0 km/h
928 18-02-2009 17:41:30 1.9 C 2.04 g/m*3 1.9 C 0 km/h
929 18-02-2009 17:53:30 1 C 2.13 g/m*3 1 C 0 km/h
930 18-02-2009 18:05:29 0.4 C 2.14 g/m*3 0.4 C 0 km/h
931 18-02-2009 18:17:29 -0.1 C 2.21 g/m*3 -0.1 C 0 km/h
932 18-02-2009 18:29:30 -0.4 C 2.26 g/m*3 -0.4 C 0 km/h
933 18-02-2009 18:41:30 -0.6 C 2.28 g/m*3 -0.6 C 0 km/h
934 18-02-2009 18:53:29 -0.9 C 2.37 g/m*3 -0.9 C 0 km/h
935 18-02-2009 19:05:29 -1 C 2.26 g/m*3 -1 C 0 km/h
936 18-02-2009 19:17:29 -1.2 C 2.27 g/m*3 -1.2 C 0 km/h
937 18-02-2009 19:29:29 -1.3 C 2.26 g/m*3 -1.3 C 0 km/h
938 18-02-2009 19:41:29 -1.4 C 2.33 g/m*3 -1.4 C 0 km/h
939 18-02-2009 19:53:28 -1.6 C 2.3 g/m*3 -1.6 C 0 km/h
940 18-02-2009 20:05:29 -1.7 C 2.32 g/m*3 -1.7 C 0 km/h
941 18-02-2009 20:17:28 -1.8 C 2.35 g/m*3 -1.8 C 0 km/h
942 18-02-2009 20:29:28 -1.9 C 2.33 g/m*3 -1.9 C 0 km/h
943 18-02-2009 20:41:28 -2 C 2.32 g/m*3 -2 C 0 km/h
944 18-02-2009 20:53:28 -2.1 C 2.22 g/m*3 -2.1 C 0 km/h
945 18-02-2009 21:05:28 -2.2 C 2.29 g/m*3 -2.2 C 0 km/h
946 18-02-2009 21:17:28 -2.3 C 2.27 g/m*3 -2.3 C 0 km/h
947 18-02-2009 21:29:27 -2.3 C 2.23 g/m*3 -2.3 C 0 km/h
948 18-02-2009 21:41:27 -2.4 C 2.17 g/m*3 -2.4 C 0 km/h
949 18-02-2009 21:53:28 -2.6 C 2.3 g/m*3 -2.6 C 0 km/h
950 18-02-2009 22:06:27 -2.7 C 2.33 g/m*3 -2.7 C 0 km/h
Sensor: Nr:Datum:Temp:Abs-Feuchte:Windchill:Wind:
Aussen-T/F 951 18-02-2009 22:18:27 -2.9 C 2.33 g/m*3 -2.9 C 0 km/h
952 18-02-2009 22:30:27 -2.9 C 2.37 g/m*3 -2.9 C 0 km/h
953 18-02-2009 22:42:27 -2.9 C 2.41 g/m*3 -2.9 C 0 km/h
954 18-02-2009 22:54:27 -3.1 C 2.38 g/m*3 -3.1 C 0 km/h
955 18-02-2009 23:06:27 -3.3 C 2.35 g/m*3 -3.3 C 0 km/h
956 18-02-2009 23:18:27 -3.2 C 2.4 g/m*3 -3.2 C 0 km/h
957 18-02-2009 23:30:27 -2.9 C 2.45 g/m*3 -2.9 C 0 km/h
958 18-02-2009 23:42:28 -2.7 C 2.45 g/m*3 -2.7 C 0 km/h
959 18-02-2009 23:54:28 -2.5 C 2.48 g/m*3 -2.5 C 0 km/h
960 19-02-2009 00:06:28 -2.5 C 2.56 g/m*3 -2.5 C 0 km/h
961 19-02-2009 00:18:28 -2.4 C 2.58 g/m*3 -2.4 C 0 km/h
962 19-02-2009 00:30:28 -2.3 C 2.6 g/m*3 -2.3 C 0 km/h
963 19-02-2009 00:42:28 -2.3 C 2.56 g/m*3 -2.3 C 0 km/h
964 19-02-2009 00:54:28 -2.2 C 2.58 g/m*3 -2.2 C 0 km/h
965 19-02-2009 01:06:28 -2.1 C 2.6 g/m*3 -2.1 C 0 km/h
966 19-02-2009 01:18:28 -2.1 C 2.6 g/m*3 -2.1 C 0 km/h
967 19-02-2009 01:30:28 -2.1 C 2.55 g/m*3 -2.1 C 0 km/h
968 19-02-2009 01:42:28 -2.1 C 2.55 g/m*3 -2.1 C 0 km/h
969 19-02-2009 01:54:28 -2.3 C 2.52 g/m*3 -2.3 C 0 km/h
970 19-02-2009 02:06:28 -2.1 C 2.6 g/m*3 -2.1 C 0 km/h
971 19-02-2009 02:18:28 -2 C 2.57 g/m*3 -2 C 0 km/h
972 19-02-2009 02:30:28 -2 C 2.57 g/m*3 -2 C 0 km/h
973 19-02-2009 02:42:28 -2 C 2.57 g/m*3 -2 C 0 km/h
974 19-02-2009 02:54:28 -2.1 C 2.55 g/m*3 -2.1 C 0 km/h
975 19-02-2009 03:06:28 -2.2 C 2.58 g/m*3 -2.2 C 0 km/h
Sensor: Nr:Datum:Temp:Abs-Feuchte:Windchill:Wind:
Aussen-T/F 976 19-02-2009 03:18:28 -2.3 C 2.56 g/m*3 -2.3 C 0 km/h
977 19-02-2009 03:30:29 -2.3 C 2.6 g/m*3 -2.3 C 0 km/h
978 19-02-2009 03:42:29 -2.1 C 2.64 g/m*3 -2.1 C 0 km/h
979 19-02-2009 03:54:29 -2.1 C 2.64 g/m*3 -2.1 C 0 km/h
980 19-02-2009 04:06:29 -2.1 C 2.64 g/m*3 -2.1 C 0 km/h
981 19-02-2009 04:18:29 -2.2 C 2.58 g/m*3 -2.2 C 0 km/h
982 19-02-2009 04:30:29 -2.1 C 2.64 g/m*3 -2.1 C 0 km/h
983 19-02-2009 04:42:29 -2.1 C 2.64 g/m*3 -2.1 C 0 km/h
984 19-02-2009 04:54:29 -2.1 C 2.64 g/m*3 -2.1 C 0 km/h
985 19-02-2009 05:06:29 -2.1 C 2.64 g/m*3 -2.1 C 0 km/h
986 19-02-2009 05:18:29 -2.1 C 2.64 g/m*3 -2.1 C 0 km/h
987 19-02-2009 05:30:27 -2.2 C 2.62 g/m*3 -2.2 C 0 km/h
988 19-02-2009 05:42:27 -2.3 C 2.6 g/m*3 -2.3 C 0 km/h
989 19-02-2009 05:54:27 -2.3 C 2.64 g/m*3 -2.3 C 0 km/h
990 19-02-2009 06:06:27 -2.3 C 2.64 g/m*3 -2.3 C 0 km/h
991 19-02-2009 06:18:27 -2.3 C 2.64 g/m*3 -2.3 C 0 km/h
992 19-02-2009 06:30:27 -2.2 C 2.66 g/m*3 -2.2 C 0 km/h
993 19-02-2009 06:42:27 -2.2 C 2.66 g/m*3 -2.2 C 0 km/h
994 19-02-2009 06:54:27 -2.1 C 2.64 g/m*3 -2.1 C 0 km/h
995 19-02-2009 07:06:27 -2.1 C 2.55 g/m*3 -2.1 C 0 km/h
996 19-02-2009 07:18:02 -2 C 2.57 g/m*3 -2 C 0 km/h
997 19-02-2009 07:30:02 -2 C 2.53 g/m*3 -2 C 0 km/h
998 19-02-2009 07:42:02 -2 C 2.57 g/m*3 -2 C 0 km/h
999 19-02-2009 07:54:01 -2 C 2.61 g/m*3 -2 C 0 km/h
1000 19-02-2009 08:06:01 -1.9 C 2.63 g/m*3 -1.9 C 0 km/h
Sensor: Nr:Datum:Temp:Abs-Feuchte:Windchill:Wind:
Aussen-T/F 1001 19-02-2009 08:18:02 -1.9 C 2.63 g/m*3 -1.9 C 0 km/h
1002 19-02-2009 08:30:02 -1.6 C 2.69 g/m*3 -1.6 C 0 km/h
1003 19-02-2009 08:42:01 -1.3 C 2.7 g/m*3 -1.3 C 0 km/h
1004 19-02-2009 08:54:01 -1 C 2.71 g/m*3 -1 C 0 km/h
1005 19-02-2009 09:06:01 -0.8 C 2.61 g/m*3 -0.8 C 0 km/h
1006 19-02-2009 09:18:01 -0.9 C 2.55 g/m*3 -0.9 C 0 km/h
1007 19-02-2009 09:30:01 -0.7 C 2.58 g/m*3 -0.7 C 0 km/h
1008 19-02-2009 09:42:00 -0.7 C 2.54 g/m*3 -0.7 C 0 km/h
1009 19-02-2009 09:54:01 -0.6 C 2.56 g/m*3 -0.6 C 0 km/h
1010 19-02-2009 10:06:01 -0.4 C 2.59 g/m*3 -0.4 C 0 km/h
1011 19-02-2009 10:18:00 -0.1 C 2.55 g/m*3 -0.1 C 0 km/h
1012 19-02-2009 10:30:00 0.1 C 2.54 g/m*3 0.1 C 0 km/h
1013 19-02-2009 10:42:00 0.5 C 2.56 g/m*3 0.5 C 0 km/h
1014 19-02-2009 10:54:00 0.5 C 2.46 g/m*3 0.5 C 0 km/h
1015 19-02-2009 11:06:00 0.8 C 2.51 g/m*3 0.8 C 0 km/h
1016 19-02-2009 11:18:59 1 C 2.44 g/m*3 1 C 0 km/h
1017 19-02-2009 11:29:59 0.9 C 2.47 g/m*3 0.9 C 0 km/h
1018 19-02-2009 11:41:59 1 C 2.44 g/m*3 1 C 0 km/h
1019 19-02-2009 11:54:59 1.1 C 2.4 g/m*3 1.1 C 0 km/h
1020 19-02-2009 12:06:59 1.2 C 2.42 g/m*3 1.2 C 0 km/h
1021 19-02-2009 12:29:59 1.6 C 2.38 g/m*3 1.6 C 0 km/h
1022 19-02-2009 12:30:59 2 C 2.22 g/m*3 2 C 0 km/h
1023 19-02-2009 12:42:59 2.4 C 2.11 g/m*3 2.4 C 0 km/h
1024 19-02-2009 12:54:59 3 C 1.96 g/m*3 3 C 0 km/h
1025 19-02-2009 13:06:58 3.5 C 1.91 g/m*3 3.5 C 0 km/h
Sensor: Nr:Datum:Temp:Abs-Feuchte:Windchill:Wind:
Aussen-T/F 1026 19-02-2009 13:18:59 3.9 C 1.96 g/m*3 3.9 C 0 km/h
1027 19-02-2009 13:30:58 4.5 C 1.84 g/m*3 4.5 C 0 km/h
1028 19-02-2009 13:42:58 4.2 C 1.8 g/m*3 4.2 C 0 km/h
1029 19-02-2009 13:54:58 4.3 C 1.82 g/m*3 4.3 C 0 km/h
1030 19-02-2009 14:06:59 4.9 C 1.82 g/m*3 4.9 C 0 km/h
1031 19-02-2009 14:18:58 5.7 C 1.78 g/m*3 5.7 C 0 km/h
1032 19-02-2009 14:30:58 5.8 C 1.43 g/m*3 5.8 C 0 km/h
1033 19-02-2009 14:42:58 6.5 C 1.5 g/m*3 6.5 C 0 km/h
1034 19-02-2009 14:54:58 6.8 C 1.53 g/m*3 6.8 C 0 km/h
1035 19-02-2009 15:06:58 7.1 C 1.56 g/m*3 7.1 C 0 km/h
1036 19-02-2009 15:18:57 6.6 C 1.51 g/m*3 6.6 C 0 km/h
1037 19-02-2009 15:30:57 6.3 C 1.48 g/m*3 6.3 C 0 km/h
1038 19-02-2009 15:42:57 6.7 C 1.52 g/m*3 6.7 C 0 km/h
1039 19-02-2009 15:54:57 7.1 C 1.56 g/m*3 7.1 C 0 km/h
1040 19-02-2009 16:06:57 7.1 C 1.56 g/m*3 7.1 C 0 km/h
1041 19-02-2009 16:18:57 7.4 C 1.59 g/m*3 7.4 C 0 km/h
1042 19-02-2009 16:30:54 7 C 1.55 g/m*3 7 C 0 km/h
1043 19-02-2009 16:42:54 6.5 C 1.72 g/m*3 6.5 C 0 km/h
1044 19-02-2009 16:54:57 5.8 C 1.79 g/m*3 5.8 C 0 km/h
1045 19-02-2009 17:06:02 5.4 C 2.09 g/m*3 5.4 C 0 km/h
1046 19-02-2009 17:18:02 4.8 C 2.08 g/m*3 4.8 C 0 km/h
1047 19-02-2009 17:30:02 4.4 C 2.15 g/m*3 4.4 C 0 km/h
1048 19-02-2009 17:42:02 4 C 2.29 g/m*3 4 C 0 km/h
1049 19-02-2009 17:54:02 3.7 C 2.43 g/m*3 3.7 C 0 km/h
1050 19-02-2009 18:06:02 3.5 C 2.46 g/m*3 3.5 C 0 km/h
Sensor: Nr:Datum:Temp:Abs-Feuchte:Windchill:Wind:
Aussen-T/F 1051 19-02-2009 18:18:02 3.4 C 2.5 g/m*3 3.4 C 0 km/h
1052 19-02-2009 18:30:02 3.3 C 2.43 g/m*3 3.3 C 0 km/h
1053 19-02-2009 18:42:01 3.2 C 2.47 g/m*3 3.2 C 0 km/h
1054 19-02-2009 18:54:01 3.1 C 2.45 g/m*3 3.1 C 0 km/h
1055 19-02-2009 19:06:01 2.9 C 2.48 g/m*3 2.9 C 0 km/h
1056 19-02-2009 19:18:01 2.9 C 2.6 g/m*3 2.9 C 0 km/h
1057 19-02-2009 19:30:01 3 C 2.5 g/m*3 3 C 0 km/h
1058 19-02-2009 19:42:01 2.9 C 2.6 g/m*3 2.9 C 0 km/h
1059 19-02-2009 19:54:00 2.8 C 2.64 g/m*3 2.8 C 0 km/h
1060 19-02-2009 20:06:01 2.7 C 2.68 g/m*3 2.7 C 0 km/h
1061 19-02-2009 20:18:01 2.9 C 2.66 g/m*3 2.9 C 0 km/h
1062 19-02-2009 20:30:01 2.5 C 2.99 g/m*3 2.5 C 0 km/h
1063 19-02-2009 20:42:00 2 C 3.39 g/m*3 2 C 0 km/h
1064 19-02-2009 20:54:01 1.9 C 3.59 g/m*3 1.9 C 0 km/h
1065 19-02-2009 21:06:00 1.8 C 3.73 g/m*3 1.8 C 0 km/h
1066 19-02-2009 21:18:00 1.7 C 3.81 g/m*3 1.7 C 0 km/h
1067 19-02-2009 21:30:00 1.6 C 3.89 g/m*3 1.6 C 0 km/h
1068 19-02-2009 21:42:00 1.5 C 3.97 g/m*3 1.5 C 0 km/h
1069 19-02-2009 21:54:00 1.3 C 3.97 g/m*3 1.3 C 0 km/h
1070 19-02-2009 22:06:59 1.3 C 4.03 g/m*3 1.3 C 0 km/h
1071 19-02-2009 22:29:59 1.3 C 4.08 g/m*3 1.3 C 0 km/h
1072 19-02-2009 22:30:59 1.3 C 4.13 g/m*3 1.3 C 0 km/h
1073 19-02-2009 22:42:59 1.3 C 4.13 g/m*3 1.3 C 0 km/h
1074 19-02-2009 22:54:59 1.3 C 4.13 g/m*3 1.3 C 0 km/h
1075 19-02-2009 23:06:58 1.2 C 4.1 g/m*3 1.2 C 0 km/h
Sensor: Nr:Datum:Temp:Abs-Feuchte:Windchill:Wind:
Aussen-T/F 1076 19-02-2009 23:18:59 1.3 C 4.13 g/m*3 1.3 C 0 km/h
1077 19-02-2009 23:30:59 1.3 C 4.13 g/m*3 1.3 C 0 km/h
1078 19-02-2009 23:42:59 1.3 C 4.08 g/m*3 1.3 C 0 km/h
1079 19-02-2009 23:54:58 1.4 C 4.05 g/m*3 1.4 C 0 km/h
1080 20-02-2009 00:06:59 1.6 C 4.11 g/m*3 1.6 C 0 km/h
1081 20-02-2009 00:18:59 1.6 C 4 g/m*3 1.6 C 0 km/h
1082 20-02-2009 00:30:58 1.6 C 4 g/m*3 1.6 C 0 km/h
1083 20-02-2009 00:42:58 1.6 C 4 g/m*3 1.6 C 0 km/h
1084 20-02-2009 00:54:58 1.7 C 4.03 g/m*3 1.7 C 0 km/h
1085 20-02-2009 01:06:58 1.7 C 4.03 g/m*3 1.7 C 0 km/h
1086 20-02-2009 01:18:58 1.7 C 4.03 g/m*3 1.7 C 0 km/h
1087 20-02-2009 01:30:57 1.7 C 4.03 g/m*3 1.7 C 0 km/h
1088 20-02-2009 01:42:57 1.6 C 4.11 g/m*3 1.6 C 0 km/h
1089 20-02-2009 01:54:57 1.5 C 4.14 g/m*3 1.5 C 0 km/h
1090 20-02-2009 02:06:57 1.5 C 4.19 g/m*3 1.5 C 0 km/h
1091 20-02-2009 02:18:57 1.5 C 4.24 g/m*3 1.5 C 0 km/h
1092 20-02-2009 02:30:57 1.5 C 4.35 g/m*3 1.5 C 0 km/h
1093 20-02-2009 02:42:57 1.5 C 4.3 g/m*3 1.5 C 0 km/h
1094 20-02-2009 02:55:01 1.6 C 4.27 g/m*3 1.6 C 0 km/h
1095 20-02-2009 03:07:01 1.7 C 4.25 g/m*3 1.7 C 0 km/h
1096 20-02-2009 03:19:01 1.8 C 4.28 g/m*3 1.8 C 0 km/h
1097 20-02-2009 03:31:01 1.7 C 4.19 g/m*3 1.7 C 0 km/h
1098 20-02-2009 03:43:01 1.7 C 4.19 g/m*3 1.7 C 0 km/h
1099 20-02-2009 03:55:02 1.8 C 4.28 g/m*3 1.8 C 0 km/h
1100 20-02-2009 04:07:01 1.7 C 4.25 g/m*3 1.7 C 0 km/h
Sensor: Nr:Datum:Temp:Abs-Feuchte:Windchill:Wind:
Aussen-T/F 1101 20-02-2009 04:19:01 1.7 C 4.25 g/m*3 1.7 C 0 km/h
1102 20-02-2009 04:31:02 1.8 C 4.28 g/m*3 1.8 C 0 km/h
1103 20-02-2009 04:43:02 1.9 C 4.3 g/m*3 1.9 C 0 km/h
1104 20-02-2009 04:55:02 1.9 C 4.25 g/m*3 1.9 C 0 km/h
1105 20-02-2009 05:07:01 1.9 C 4.25 g/m*3 1.9 C 0 km/h
1106 20-02-2009 05:19:01 1.9 C 4.19 g/m*3 1.9 C 0 km/h
1107 20-02-2009 05:31:02 2 C 4.17 g/m*3 2 C 0 km/h
1108 20-02-2009 05:43:02 2 C 4.17 g/m*3 2 C 0 km/h
1109 20-02-2009 05:55:01 2.1 C 4.2 g/m*3 2.1 C 0 km/h
1110 20-02-2009 06:07:01 2.1 C 4.2 g/m*3 2.1 C 0 km/h
1111 20-02-2009 06:19:02 2.1 C 4.25 g/m*3 2.1 C 0 km/h
1112 20-02-2009 06:31:01 2.1 C 4.25 g/m*3 2.1 C 0 km/h
1113 20-02-2009 06:43:01 2 C 4.28 g/m*3 2 C 0 km/h
1114 20-02-2009 06:55:02 1.8 C 4.49 g/m*3 1.8 C 0 km/h
1115 20-02-2009 07:07:01 1.8 C 4.6 g/m*3 1.8 C 0 km/h
1116 20-02-2009 07:19:02 1.8 C 4.66 g/m*3 1.8 C 0 km/h
1117 20-02-2009 07:31:01 1.8 C 4.71 g/m*3 1.8 C 0 km/h
1118 20-02-2009 07:43:01 1.8 C 4.71 g/m*3 1.8 C 0 km/h
1119 20-02-2009 07:55:02 1.9 C 4.75 g/m*3 1.9 C 0 km/h
1120 20-02-2009 08:07:01 1.9 C 4.75 g/m*3 1.9 C 0 km/h
1121 20-02-2009 08:19:01 2 C 4.67 g/m*3 2 C 0 km/h
1122 20-02-2009 08:31:02 2.3 C 4.71 g/m*3 2.3 C 0 km/h
1123 20-02-2009 08:43:02 2.4 C 4.68 g/m*3 2.4 C 0 km/h
1124 20-02-2009 08:55:01 2.4 C 4.68 g/m*3 2.4 C 0 km/h
1125 20-02-2009 09:07:02 2.3 C 4.71 g/m*3 2.3 C 0 km/h
Sensor: Nr:Datum:Temp:Abs-Feuchte:Windchill:Wind:
Aussen-T/F 1126 20-02-2009 09:19:01 2.3 C 4.76 g/m*3 2.3 C 0 km/h
1127 20-02-2009 09:31:02 2.4 C 4.85 g/m*3 2.4 C 0 km/h
1128 20-02-2009 09:43:02 2.5 C 4.94 g/m*3 2.5 C 0 km/h
1129 20-02-2009 09:55:01 2.8 C 4.99 g/m*3 2.8 C 0 km/h
1130 20-02-2009 10:07:02 2.8 C 4.93 g/m*3 2.8 C 0 km/h
1131 20-02-2009 10:19:01 3 C 4.93 g/m*3 3 C 0 km/h
1132 20-02-2009 10:31:01 3.2 C 4.94 g/m*3 3.2 C 0 km/h
1133 20-02-2009 10:43:01 3.2 C 4.88 g/m*3 3.2 C 0 km/h
1134 20-02-2009 10:55:01 3.3 C 4.91 g/m*3 3.3 C 0 km/h
1135 20-02-2009 11:07:01 3.4 C 4.89 g/m*3 3.4 C 0 km/h
1136 20-02-2009 11:19:02 3.5 C 4.92 g/m*3 3.5 C 0 km/h
1137 20-02-2009 11:31:01 3.5 C 4.98 g/m*3 3.5 C 0 km/h
1138 20-02-2009 11:43:01 3.4 C 5.01 g/m*3 3.4 C 0 km/h
1139 20-02-2009 11:55:02 3.4 C 5.07 g/m*3 3.4 C 0 km/h
1140 20-02-2009 12:07:01 3.3 C 5.04 g/m*3 3.3 C 0 km/h
1141 20-02-2009 12:19:02 3.3 C 5.1 g/m*3 3.3 C 0 km/h
1142 20-02-2009 12:31:01 3.5 C 5.29 g/m*3 3.5 C 0 km/h
1143 20-02-2009 12:43:01 3.7 C 5.36 g/m*3 3.7 C 0 km/h
1144 20-02-2009 12:55:02 3.8 C 5.4 g/m*3 3.8 C 0 km/h
1145 20-02-2009 13:07:01 4.1 C 5.44 g/m*3 4.1 C 0 km/h
1146 20-02-2009 13:19:01 4.4 C 5.48 g/m*3 4.4 C 0 km/h
1147 20-02-2009 13:31:02 4.5 C 5.46 g/m*3 4.5 C 0 km/h
1148 20-02-2009 13:43:02 4.7 C 5.53 g/m*3 4.7 C 0 km/h
1149 20-02-2009 13:55:01 4.9 C 5.54 g/m*3 4.9 C 0 km/h
1150 20-02-2009 14:07:02 5.2 C 5.51 g/m*3 5.2 C 0 km/h
Sensor: Nr:Datum:Temp:Abs-Feuchte:Windchill:Wind:
Aussen-T/F 1151 20-02-2009 14:19:01 5.4 C 5.37 g/m*3 5.4 C 0 km/h
1152 20-02-2009 14:31:02 5.5 C 5.34 g/m*3 5.5 C 0 km/h
1153 20-02-2009 14:43:02 5.7 C 5.27 g/m*3 5.7 C 0 km/h
1154 20-02-2009 14:55:01 5.7 C 5.19 g/m*3 5.7 C 0 km/h
1155 20-02-2009 15:07:02 5.8 C 5.23 g/m*3 5.8 C 0 km/h
1156 20-02-2009 15:19:01 5.7 C 5.12 g/m*3 5.7 C 0 km/h
1157 20-02-2009 15:31:01 5.5 C 4.99 g/m*3 5.5 C 0 km/h
1158 20-02-2009 15:43:01 5.4 C 5.09 g/m*3 5.4 C 0 km/h
1159 20-02-2009 15:55:01 5.5 C 5.13 g/m*3 5.5 C 0 km/h
1160 20-02-2009 16:07:01 5.6 C 5.3 g/m*3 5.6 C 0 km/h
1161 20-02-2009 16:19:01 5.6 C 5.3 g/m*3 5.6 C 0 km/h
1162 20-02-2009 16:31:01 5.4 C 5.23 g/m*3 5.4 C 0 km/h
1163 20-02-2009 16:43:01 5.3 C 5.34 g/m*3 5.3 C 0 km/h
1164 20-02-2009 16:55:01 5.1 C 5.4 g/m*3 5.1 C 0 km/h
1165 20-02-2009 17:07:01 5 C 5.5 g/m*3 5 C 0 km/h
1166 20-02-2009 17:19:01 4.9 C 5.67 g/m*3 4.9 C 0 km/h
1167 20-02-2009 17:31:01 4.8 C 5.77 g/m*3 4.8 C 0 km/h
1168 20-02-2009 17:43:01 4.7 C 5.8 g/m*3 4.7 C 0 km/h
1169 20-02-2009 17:55:01 4.7 C 5.86 g/m*3 4.7 C 0 km/h
1170 20-02-2009 18:07:01 4.6 C 5.76 g/m*3 4.6 C 0 km/h
1171 20-02-2009 18:19:02 4.6 C 5.76 g/m*3 4.6 C 0 km/h
1172 20-02-2009 18:31:01 4.6 C 5.76 g/m*3 4.6 C 0 km/h
1173 20-02-2009 18:43:01 4.7 C 5.8 g/m*3 4.7 C 0 km/h
1174 20-02-2009 18:55:02 4.6 C 5.82 g/m*3 4.6 C 0 km/h
1175 20-02-2009 19:07:01 4.6 C 5.82 g/m*3 4.6 C 0 km/h
Sensor: Nr:Datum:Temp:Abs-Feuchte:Windchill:Wind:
Aussen-T/F 1176 20-02-2009 19:19:02 4.5 C 5.85 g/m*3 4.5 C 0 km/h
1177 20-02-2009 19:31:01 4.5 C 5.85 g/m*3 4.5 C 0 km/h
1178 20-02-2009 19:43:01 4.6 C 5.96 g/m*3 4.6 C 0 km/h
1179 20-02-2009 19:54:01 4.5 C 5.92 g/m*3 4.5 C 0 km/h
1180 20-02-2009 20:06:02 4.5 C 5.92 g/m*3 4.5 C 0 km/h
1181 20-02-2009 20:18:01 4.6 C 6.02 g/m*3 4.6 C 0 km/h
1182 20-02-2009 20:30:01 4.6 C 6.02 g/m*3 4.6 C 0 km/h
1183 20-02-2009 20:42:02 4.6 C 6.02 g/m*3 4.6 C 0 km/h
1184 20-02-2009 20:54:01 4.6 C 6.02 g/m*3 4.6 C 0 km/h
1185 20-02-2009 21:06:01 4.7 C 6.06 g/m*3 4.7 C 0 km/h
1186 20-02-2009 21:18:01 4.8 C 6.04 g/m*3 4.8 C 0 km/h
1187 20-02-2009 21:30:01 4.8 C 6.04 g/m*3 4.8 C 0 km/h
1188 20-02-2009 21:42:01 4.8 C 5.97 g/m*3 4.8 C 0 km/h
1189 20-02-2009 21:54:01 4.7 C 5.86 g/m*3 4.7 C 0 km/h
1190 20-02-2009 22:06:01 4.6 C 5.82 g/m*3 4.6 C 0 km/h
1191 20-02-2009 22:19:03 4.6 C 5.82 g/m*3 4.6 C 0 km/h
1192 20-02-2009 22:31:03 4.5 C 5.78 g/m*3 4.5 C 0 km/h
1193 20-02-2009 22:43:03 4.5 C 5.78 g/m*3 4.5 C 0 km/h
1194 20-02-2009 22:55:03 4.5 C 5.78 g/m*3 4.5 C 0 km/h
1195 20-02-2009 23:07:03 4.4 C 5.75 g/m*3 4.4 C 0 km/h
1196 20-02-2009 23:19:03 4.4 C 5.75 g/m*3 4.4 C 0 km/h
1197 20-02-2009 23:31:03 4.3 C 5.71 g/m*3 4.3 C 0 km/h
1198 20-02-2009 23:43:03 4.3 C 5.71 g/m*3 4.3 C 0 km/h
1199 20-02-2009 23:55:03 4.3 C 5.71 g/m*3 4.3 C 0 km/h
1200 21-02-2009 00:07:03 4.2 C 5.67 g/m*3 4.2 C 0 km/h
Sensor: Nr:Datum:Temp:Abs-Feuchte:Windchill:Wind:
Aussen-T/F 1201 21-02-2009 00:19:03 4.2 C 5.61 g/m*3 4.2 C 0 km/h
1202 21-02-2009 00:31:03 4.1 C 5.57 g/m*3 4.1 C 0 km/h
1203 21-02-2009 00:43:03 4.1 C 5.5 g/m*3 4.1 C 0 km/h
1204 21-02-2009 00:55:03 4.1 C 5.44 g/m*3 4.1 C 0 km/h
1205 21-02-2009 01:07:03 4 C 5.4 g/m*3 4 C 0 km/h
1206 21-02-2009 01:19:03 4 C 5.4 g/m*3 4 C 0 km/h
1207 21-02-2009 01:31:03 4 C 5.34 g/m*3 4 C 0 km/h
1208 21-02-2009 01:43:04 4 C 5.34 g/m*3 4 C 0 km/h
1209 21-02-2009 01:55:04 4 C 5.34 g/m*3 4 C 0 km/h
1210 21-02-2009 02:07:04 4 C 5.28 g/m*3 4 C 0 km/h
1211 21-02-2009 02:19:04 4 C 5.28 g/m*3 4 C 0 km/h
1212 21-02-2009 02:31:04 4 C 5.28 g/m*3 4 C 0 km/h
1213 21-02-2009 02:43:04 3.9 C 5.31 g/m*3 3.9 C 0 km/h
1214 21-02-2009 02:55:04 3.9 C 5.31 g/m*3 3.9 C 0 km/h
1215 21-02-2009 03:07:04 3.9 C 5.31 g/m*3 3.9 C 0 km/h
1216 21-02-2009 03:19:04 3.8 C 5.27 g/m*3 3.8 C 0 km/h
1217 21-02-2009 03:31:04 3.8 C 5.27 g/m*3 3.8 C 0 km/h
1218 21-02-2009 03:43:04 3.8 C 5.27 g/m*3 3.8 C 0 km/h
1219 21-02-2009 03:55:04 3.8 C 5.27 g/m*3 3.8 C 0 km/h
1220 21-02-2009 04:07:04 3.8 C 5.27 g/m*3 3.8 C 0 km/h
1221 21-02-2009 04:19:04 3.8 C 5.27 g/m*3 3.8 C 0 km/h
1222 21-02-2009 04:31:04 3.7 C 5.23 g/m*3 3.7 C 0 km/h
1223 21-02-2009 04:43:04 3.7 C 5.23 g/m*3 3.7 C 0 km/h
1224 21-02-2009 04:55:04 3.7 C 5.3 g/m*3 3.7 C 0 km/h
1225 21-02-2009 05:07:04 3.6 C 5.26 g/m*3 3.6 C 0 km/h
Sensor: Nr:Datum:Temp:Abs-Feuchte:Windchill:Wind:
Aussen-T/F 1226 21-02-2009 05:19:04 3.6 C 5.26 g/m*3 3.6 C 0 km/h
1227 21-02-2009 05:31:04 3.7 C 5.36 g/m*3 3.7 C 0 km/h
1228 21-02-2009 05:43:05 3.8 C 5.4 g/m*3 3.8 C 0 km/h
1229 21-02-2009 05:55:05 3.7 C 5.36 g/m*3 3.7 C 0 km/h
1230 21-02-2009 06:07:05 3.7 C 5.36 g/m*3 3.7 C 0 km/h
1231 21-02-2009 06:19:05 3.7 C 5.42 g/m*3 3.7 C 0 km/h
1232 21-02-2009 06:31:05 3.8 C 5.46 g/m*3 3.8 C 0 km/h
1233 21-02-2009 06:43:05 3.8 C 5.46 g/m*3 3.8 C 0 km/h
1234 21-02-2009 06:55:05 3.8 C 5.46 g/m*3 3.8 C 0 km/h
1235 21-02-2009 07:07:05 3.8 C 5.52 g/m*3 3.8 C 0 km/h
1236 21-02-2009 07:19:05 3.7 C 5.48 g/m*3 3.7 C 0 km/h
1237 21-02-2009 07:31:05 3.7 C 5.48 g/m*3 3.7 C 0 km/h
1238 21-02-2009 07:43:05 3.7 C 5.48 g/m*3 3.7 C 0 km/h
1239 21-02-2009 07:55:05 3.6 C 5.45 g/m*3 3.6 C 0 km/h
1240 21-02-2009 08:07:03 3.6 C 5.45 g/m*3 3.6 C 0 km/h
1241 21-02-2009 08:19:03 3.6 C 5.45 g/m*3 3.6 C 0 km/h
1242 21-02-2009 08:31:02 3.6 C 5.45 g/m*3 3.6 C 0 km/h
1243 21-02-2009 08:43:02 3.8 C 5.52 g/m*3 3.8 C 0 km/h
1244 21-02-2009 08:55:03 3.9 C 5.56 g/m*3 3.9 C 0 km/h
1245 21-02-2009 09:07:02 4 C 5.59 g/m*3 4 C 0 km/h
1246 21-02-2009 09:19:02 4 C 5.53 g/m*3 4 C 0 km/h
1247 21-02-2009 09:31:02 4.1 C 5.57 g/m*3 4.1 C 0 km/h
1248 21-02-2009 09:43:02 4.4 C 5.68 g/m*3 4.4 C 0 km/h
1249 21-02-2009 09:55:02 4.4 C 5.62 g/m*3 4.4 C 0 km/h
1250 21-02-2009 10:07:01 4.5 C 5.52 g/m*3 4.5 C 0 km/h
Sensor: Nr:Datum:Temp:Abs-Feuchte:Windchill:Wind:
Aussen-T/F 1251 21-02-2009 10:19:02 4.7 C 5.46 g/m*3 4.7 C 0 km/h
1252 21-02-2009 10:31:02 5.1 C 5.47 g/m*3 5.1 C 0 km/h
1253 21-02-2009 10:43:02 5.3 C 5.41 g/m*3 5.3 C 0 km/h
1254 21-02-2009 10:55:01 5.5 C 5.2 g/m*3 5.5 C 0 km/h
1255 21-02-2009 11:07:02 5.5 C 5.13 g/m*3 5.5 C 0 km/h
1256 21-02-2009 11:19:01 5.7 C 5.12 g/m*3 5.7 C 0 km/h
1257 21-02-2009 11:31:01 6 C 5.01 g/m*3 6 C 0 km/h
1258 21-02-2009 11:43:01 6 C 4.94 g/m*3 6 C 0 km/h
1259 21-02-2009 11:55:01 6.4 C 4.92 g/m*3 6.4 C 0 km/h
1260 21-02-2009 12:07:01 6.7 C 4.86 g/m*3 6.7 C 0 km/h
1261 21-02-2009 12:19:00 6.2 C 4.49 g/m*3 6.2 C 0 km/h
1262 21-02-2009 12:31:00 6.4 C 4.62 g/m*3 6.4 C 0 km/h
1263 21-02-2009 12:43:00 6.4 C 4.62 g/m*3 6.4 C 0 km/h
1264 21-02-2009 12:55:00 6.4 C 4.55 g/m*3 6.4 C 0 km/h
1265 21-02-2009 13:07:00 6.5 C 4.42 g/m*3 6.5 C 0 km/h
1266 21-02-2009 13:19:00 6.6 C 4.23 g/m*3 6.6 C 0 km/h
1267 21-02-2009 13:31:00 6.8 C 4.28 g/m*3 6.8 C 0 km/h
1268 21-02-2009 13:43:00 6.7 C 4.1 g/m*3 6.7 C 0 km/h
1269 21-02-2009 13:55:59 6.5 C 4.05 g/m*3 6.5 C 0 km/h
1270 21-02-2009 14:07:00 6.5 C 4.05 g/m*3 6.5 C 0 km/h
1271 21-02-2009 14:19:00 6.5 C 4.05 g/m*3 6.5 C 0 km/h
1272 21-02-2009 14:31:59 6.8 C 4.05 g/m*3 6.8 C 0 km/h
1273 21-02-2009 14:43:59 6.7 C 4.03 g/m*3 6.7 C 0 km/h
1274 21-02-2009 14:54:59 6.5 C 3.97 g/m*3 6.5 C 0 km/h
1275 21-02-2009 15:07:59 6.5 C 3.97 g/m*3 6.5 C 0 km/h
Sensor: Nr:Datum:Temp:Abs-Feuchte:Windchill:Wind:
Aussen-T/F 1276 21-02-2009 15:19:59 6.4 C 3.87 g/m*3 6.4 C 0 km/h
1277 21-02-2009 15:31:59 6.3 C 3.78 g/m*3 6.3 C 0 km/h
1278 21-02-2009 15:43:59 6.2 C 3.75 g/m*3 6.2 C 0 km/h
1279 21-02-2009 15:55:59 6.2 C 3.9 g/m*3 6.2 C 0 km/h
1280 21-02-2009 16:07:59 6.1 C 4.02 g/m*3 6.1 C 0 km/h
1281 21-02-2009 16:19:58 6 C 4.06 g/m*3 6 C 0 km/h
1282 21-02-2009 16:31:58 5.8 C 4.15 g/m*3 5.8 C 0 km/h
1283 21-02-2009 16:43:58 5.8 C 4.15 g/m*3 5.8 C 0 km/h
1284 21-02-2009 16:55:58 5.7 C 4.2 g/m*3 5.7 C 0 km/h
1285 21-02-2009 17:07:58 5.7 C 4.2 g/m*3 5.7 C 0 km/h
1286 21-02-2009 17:19:57 5.7 C 4.13 g/m*3 5.7 C 0 km/h
1287 21-02-2009 17:31:58 5.6 C 4.24 g/m*3 5.6 C 0 km/h
1288 21-02-2009 17:43:58 5.4 C 4.26 g/m*3 5.4 C 0 km/h
1289 21-02-2009 17:55:57 5.3 C 4.23 g/m*3 5.3 C 0 km/h
1290 21-02-2009 18:07:57 5.1 C 4.24 g/m*3 5.1 C 0 km/h
1291 21-02-2009 18:19:58 4.9 C 4.39 g/m*3 4.9 C 0 km/h
1292 21-02-2009 18:31:57 4.7 C 4.46 g/m*3 4.7 C 0 km/h
1293 21-02-2009 18:43:57 4.6 C 4.43 g/m*3 4.6 C 0 km/h
1294 21-02-2009 18:55:57 4.5 C 4.4 g/m*3 4.5 C 0 km/h
1295 21-02-2009 19:07:57 4.4 C 4.44 g/m*3 4.4 C 0 km/h
1296 21-02-2009 19:19:57 4.2 C 4.32 g/m*3 4.2 C 0 km/h
1297 21-02-2009 19:31:56 4.1 C 4.29 g/m*3 4.1 C 0 km/h
1298 21-02-2009 19:43:56 4.2 C 4.32 g/m*3 4.2 C 0 km/h
1299 21-02-2009 19:55:57 4.3 C 4.35 g/m*3 4.3 C 0 km/h
1300 21-02-2009 20:07:56 4.3 C 4.41 g/m*3 4.3 C 0 km/h
Sensor: Nr:Datum:Temp:Abs-Feuchte:Windchill:Wind:
Aussen-T/F 1301 21-02-2009 20:19:56 4.3 C 4.41 g/m*3 4.3 C 0 km/h
1302 21-02-2009 20:31:56 4.3 C 4.41 g/m*3 4.3 C 0 km/h
1303 21-02-2009 20:43:56 4.3 C 4.41 g/m*3 4.3 C 0 km/h
1304 21-02-2009 20:55:56 4.2 C 4.38 g/m*3 4.2 C 0 km/h
1305 21-02-2009 21:07:55 4.2 C 4.45 g/m*3 4.2 C 0 km/h
1306 21-02-2009 21:19:56 4.2 C 4.45 g/m*3 4.2 C 0 km/h
1307 21-02-2009 21:31:56 4.3 C 4.48 g/m*3 4.3 C 0 km/h
1308 21-02-2009 21:43:56 4.3 C 4.48 g/m*3 4.3 C 0 km/h
1309 21-02-2009 21:55:55 4.3 C 4.48 g/m*3 4.3 C 0 km/h
1310 21-02-2009 22:07:56 4.3 C 4.48 g/m*3 4.3 C 0 km/h
1311 21-02-2009 22:19:55 4.2 C 4.45 g/m*3 4.2 C 0 km/h
1312 21-02-2009 22:31:55 4.2 C 4.45 g/m*3 4.2 C 0 km/h
1313 21-02-2009 22:43:56 4.2 C 4.45 g/m*3 4.2 C 0 km/h
1314 21-02-2009 22:56:57 4.2 C 4.45 g/m*3 4.2 C 0 km/h
1315 21-02-2009 23:08:57 4.4 C 4.37 g/m*3 4.4 C 0 km/h
1316 21-02-2009 23:20:57 4.5 C 4.4 g/m*3 4.5 C 0 km/h
1317 21-02-2009 23:32:57 4.6 C 4.37 g/m*3 4.6 C 0 km/h
1318 21-02-2009 23:44:57 4.6 C 4.37 g/m*3 4.6 C 0 km/h
1319 21-02-2009 23:56:57 4.6 C 4.37 g/m*3 4.6 C 0 km/h
1320 22-02-2009 00:08:57 4.4 C 4.44 g/m*3 4.4 C 0 km/h
1321 22-02-2009 00:20:57 4.2 C 4.45 g/m*3 4.2 C 0 km/h
1322 22-02-2009 00:32:57 4 C 4.58 g/m*3 4 C 0 km/h
1323 22-02-2009 00:44:57 3.7 C 4.74 g/m*3 3.7 C 0 km/h
1324 22-02-2009 00:56:57 3.7 C 4.86 g/m*3 3.7 C 0 km/h
1325 22-02-2009 01:08:57 3.7 C 4.86 g/m*3 3.7 C 0 km/h
Sensor: Nr:Datum:Temp:Abs-Feuchte:Windchill:Wind:
Aussen-T/F 1326 22-02-2009 01:20:57 3.7 C 4.86 g/m*3 3.7 C 0 km/h
1327 22-02-2009 01:32:57 3.8 C 4.96 g/m*3 3.8 C 0 km/h
1328 22-02-2009 01:44:58 3.6 C 4.95 g/m*3 3.6 C 0 km/h
1329 22-02-2009 01:56:58 3.6 C 4.95 g/m*3 3.6 C 0 km/h
1330 22-02-2009 02:08:58 3.5 C 5.04 g/m*3 3.5 C 0 km/h
1331 22-02-2009 02:20:58 3.4 C 5.01 g/m*3 3.4 C 0 km/h
1332 22-02-2009 02:32:58 3.4 C 5.07 g/m*3 3.4 C 0 km/h
1333 22-02-2009 02:44:58 3.5 C 5.16 g/m*3 3.5 C 0 km/h
1334 22-02-2009 02:56:58 3.5 C 5.16 g/m*3 3.5 C 0 km/h
1335 22-02-2009 03:08:58 3.5 C 5.16 g/m*3 3.5 C 0 km/h
1336 22-02-2009 03:20:58 3.4 C 5.13 g/m*3 3.4 C 0 km/h
1337 22-02-2009 03:32:58 3.3 C 5.16 g/m*3 3.3 C 0 km/h
1338 22-02-2009 03:44:58 3.3 C 5.22 g/m*3 3.3 C 0 km/h
1339 22-02-2009 03:56:58 3.3 C 5.28 g/m*3 3.3 C 0 km/h
1340 22-02-2009 04:08:58 3.2 C 5.24 g/m*3 3.2 C 0 km/h
1341 22-02-2009 04:20:58 3.2 C 5.3 g/m*3 3.2 C 0 km/h
1342 22-02-2009 04:32:58 3.3 C 5.4 g/m*3 3.3 C 0 km/h
1343 22-02-2009 04:44:58 3.3 C 5.4 g/m*3 3.3 C 0 km/h
1344 22-02-2009 04:56:58 3.3 C 5.4 g/m*3 3.3 C 0 km/h
1345 22-02-2009 05:08:58 3.3 C 5.4 g/m*3 3.3 C 0 km/h
1346 22-02-2009 05:20:58 3.4 C 5.44 g/m*3 3.4 C 0 km/h
1347 22-02-2009 05:32:59 3.5 C 5.53 g/m*3 3.5 C 0 km/h
1348 22-02-2009 05:44:59 3.5 C 5.47 g/m*3 3.5 C 0 km/h
1349 22-02-2009 05:56:59 3.6 C 5.51 g/m*3 3.6 C 0 km/h
1350 22-02-2009 06:08:59 3.7 C 5.55 g/m*3 3.7 C 0 km/h
Sensor: Nr:Datum:Temp:Abs-Feuchte:Windchill:Wind:
Aussen-T/F 1351 22-02-2009 06:20:59 3.7 C 5.55 g/m*3 3.7 C 0 km/h
1352 22-02-2009 06:32:59 3.8 C 5.58 g/m*3 3.8 C 0 km/h
1353 22-02-2009 06:44:59 3.8 C 5.58 g/m*3 3.8 C 0 km/h
1354 22-02-2009 06:56:59 3.8 C 5.58 g/m*3 3.8 C 0 km/h
1355 22-02-2009 07:08:56 3.9 C 5.56 g/m*3 3.9 C 0 km/h
1356 22-02-2009 07:20:56 4 C 5.59 g/m*3 4 C 0 km/h
1357 22-02-2009 07:32:56 4 C 5.59 g/m*3 4 C 0 km/h
1358 22-02-2009 07:44:56 4 C 5.59 g/m*3 4 C 0 km/h
1359 22-02-2009 07:56:56 4.1 C 5.63 g/m*3 4.1 C 0 km/h
1360 22-02-2009 08:08:56 4.1 C 5.63 g/m*3 4.1 C 0 km/h
1361 22-02-2009 08:20:55 4.2 C 5.67 g/m*3 4.2 C 0 km/h
1362 22-02-2009 08:32:55 4.3 C 5.71 g/m*3 4.3 C 0 km/h
1363 22-02-2009 08:44:55 4.3 C 5.64 g/m*3 4.3 C 0 km/h
1364 22-02-2009 08:56:55 4.3 C 5.64 g/m*3 4.3 C 0 km/h
1365 22-02-2009 09:08:55 4.5 C 5.72 g/m*3 4.5 C 0 km/h
1366 22-02-2009 09:20:55 4.5 C 5.72 g/m*3 4.5 C 0 km/h
1367 22-02-2009 09:32:55 4.6 C 5.76 g/m*3 4.6 C 0 km/h
1368 22-02-2009 09:44:55 4.6 C 5.69 g/m*3 4.6 C 0 km/h
1369 22-02-2009 09:56:55 4.6 C 5.76 g/m*3 4.6 C 0 km/h
1370 22-02-2009 10:08:54 4.7 C 5.8 g/m*3 4.7 C 0 km/h
1371 22-02-2009 10:20:55 4.8 C 5.83 g/m*3 4.8 C 0 km/h
1372 22-02-2009 10:32:54 4.9 C 5.87 g/m*3 4.9 C 0 km/h
1373 22-02-2009 10:44:55 5 C 5.84 g/m*3 5 C 0 km/h
1374 22-02-2009 10:56:55 5.1 C 5.81 g/m*3 5.1 C 0 km/h
1375 22-02-2009 11:08:54 5.2 C 5.85 g/m*3 5.2 C 0 km/h
Sensor: Nr:Datum:Temp:Abs-Feuchte:Windchill:Wind:
Aussen-T/F 1376 22-02-2009 11:20:55 5.4 C 6 g/m*3 5.4 C 0 km/h
1377 22-02-2009 11:32:54 5.4 C 6 g/m*3 5.4 C 0 km/h
1378 22-02-2009 11:44:54 5.8 C 6.09 g/m*3 5.8 C 0 km/h
1379 22-02-2009 11:56:54 6.1 C 6.14 g/m*3 6.1 C 0 km/h
1380 22-02-2009 12:08:54 6.2 C 6.18 g/m*3 6.2 C 0 km/h
1381 22-02-2009 12:20:54 6.2 C 6.18 g/m*3 6.2 C 0 km/h
1382 22-02-2009 12:32:54 6.3 C 6.22 g/m*3 6.3 C 0 km/h
1383 22-02-2009 12:44:54 6.5 C 6.22 g/m*3 6.5 C 0 km/h
1384 22-02-2009 12:56:54 6.9 C 6.16 g/m*3 6.9 C 0 km/h
1385 22-02-2009 13:08:54 7.1 C 5.93 g/m*3 7.1 C 0 km/h
1386 22-02-2009 13:20:53 7.1 C 5.85 g/m*3 7.1 C 0 km/h
1387 22-02-2009 13:32:53 7.2 C 5.73 g/m*3 7.2 C 0 km/h
1388 22-02-2009 13:44:53 7.2 C 5.73 g/m*3 7.2 C 0 km/h
1389 22-02-2009 13:56:53 7.3 C 5.69 g/m*3 7.3 C 0 km/h
1390 22-02-2009 14:08:53 7.5 C 5.68 g/m*3 7.5 C 0 km/h
1391 22-02-2009 14:20:52 7.6 C 5.64 g/m*3 7.6 C 0 km/h
1392 22-02-2009 14:32:53 7.5 C 5.52 g/m*3 7.5 C 0 km/h
1393 22-02-2009 14:44:52 7.5 C 5.6 g/m*3 7.5 C 0 km/h
1394 22-02-2009 14:56:52 7.4 C 5.65 g/m*3 7.4 C 0 km/h
1395 22-02-2009 15:08:52 7.3 C 5.77 g/m*3 7.3 C 0 km/h
1396 22-02-2009 15:20:53 7.1 C 6.01 g/m*3 7.1 C 0 km/h
1397 22-02-2009 15:32:52 7 C 6.28 g/m*3 7 C 0 km/h
1398 22-02-2009 15:44:52 7 C 6.43 g/m*3 7 C 0 km/h
1399 22-02-2009 15:56:52 6.9 C 6.54 g/m*3 6.9 C 0 km/h
1400 22-02-2009 16:08:52 6.9 C 6.7 g/m*3 6.9 C 0 km/h
Sensor: Nr:Datum:Temp:Abs-Feuchte:Windchill:Wind:
Aussen-T/F 1401 22-02-2009 16:20:52 6.8 C 6.65 g/m*3 6.8 C 0 km/h
1402 22-02-2009 16:32:52 6.8 C 6.73 g/m*3 6.8 C 0 km/h
1403 22-02-2009 16:44:51 6.8 C 6.73 g/m*3 6.8 C 0 km/h
1404 22-02-2009 16:56:51 6.7 C 6.69 g/m*3 6.7 C 0 km/h
1405 22-02-2009 17:08:51 6.7 C 6.76 g/m*3 6.7 C 0 km/h
1406 22-02-2009 17:20:51 6.7 C 6.76 g/m*3 6.7 C 0 km/h
1407 22-02-2009 17:32:51 6.6 C 6.64 g/m*3 6.6 C 0 km/h
1408 22-02-2009 17:44:51 6.6 C 6.57 g/m*3 6.6 C 0 km/h
1409 22-02-2009 17:56:51 6.6 C 6.49 g/m*3 6.6 C 0 km/h
1410 22-02-2009 18:08:51 6.6 C 6.49 g/m*3 6.6 C 0 km/h
1411 22-02-2009 18:20:50 6.6 C 6.42 g/m*3 6.6 C 0 km/h
1412 22-02-2009 18:32:51 6.5 C 6.3 g/m*3 6.5 C 0 km/h
1413 22-02-2009 18:44:50 6.6 C 6.27 g/m*3 6.6 C 0 km/h
1414 22-02-2009 18:56:50 6.4 C 6.18 g/m*3 6.4 C 0 km/h
1415 22-02-2009 19:08:50 6.3 C 6.22 g/m*3 6.3 C 0 km/h
1416 22-02-2009 19:20:50 6.2 C 6.32 g/m*3 6.2 C 0 km/h
1417 22-02-2009 19:32:50 6.1 C 6.28 g/m*3 6.1 C 0 km/h
1418 22-02-2009 19:44:49 6 C 6.24 g/m*3 6 C 0 km/h
1419 22-02-2009 19:56:49 5.9 C 6.2 g/m*3 5.9 C 0 km/h
1420 22-02-2009 20:08:50 5.9 C 6.13 g/m*3 5.9 C 0 km/h
1421 22-02-2009 20:20:50 5.9 C 6.06 g/m*3 5.9 C 0 km/h
1422 22-02-2009 20:32:49 5.9 C 6.06 g/m*3 5.9 C 0 km/h
1423 22-02-2009 20:44:50 6 C 5.95 g/m*3 6 C 0 km/h
1424 22-02-2009 20:56:50 6.2 C 5.88 g/m*3 6.2 C 0 km/h
1425 22-02-2009 21:08:49 6.1 C 5.77 g/m*3 6.1 C 0 km/h
Sensor: Nr:Datum:Temp:Abs-Feuchte:Windchill:Wind:
Aussen-T/F 1426 22-02-2009 21:20:49 6 C 5.81 g/m*3 6 C 0 km/h
1427 22-02-2009 21:32:49 5.9 C 5.84 g/m*3 5.9 C 0 km/h
1428 22-02-2009 21:44:49 5.9 C 5.91 g/m*3 5.9 C 0 km/h
1429 22-02-2009 21:56:49 5.9 C 5.91 g/m*3 5.9 C 0 km/h
1430 22-02-2009 22:08:48 5.9 C 5.98 g/m*3 5.9 C 0 km/h
1431 22-02-2009 22:20:49 5.9 C 5.98 g/m*3 5.9 C 0 km/h
1432 22-02-2009 22:33:49 5.8 C 6.02 g/m*3 5.8 C 0 km/h
1433 22-02-2009 22:45:49 5.7 C 6.05 g/m*3 5.7 C 0 km/h
1434 22-02-2009 22:57:49 5.7 C 6.05 g/m*3 5.7 C 0 km/h
1435 22-02-2009 23:09:49 5.6 C 6.01 g/m*3 5.6 C 0 km/h
1436 22-02-2009 23:21:49 5.6 C 5.94 g/m*3 5.6 C 0 km/h
1437 22-02-2009 23:33:50 5.7 C 5.84 g/m*3 5.7 C 0 km/h
1438 22-02-2009 23:45:50 5.7 C 5.76 g/m*3 5.7 C 0 km/h
1439 22-02-2009 23:57:50 5.8 C 5.73 g/m*3 5.8 C 0 km/h
1440 23-02-2009 00:09:50 5.8 C 5.59 g/m*3 5.8 C 0 km/h
1441 23-02-2009 00:21:50 5.9 C 5.48 g/m*3 5.9 C 0 km/h
1442 23-02-2009 00:33:50 5.8 C 5.37 g/m*3 5.8 C 0 km/h
1443 23-02-2009 00:45:50 5.8 C 5.3 g/m*3 5.8 C 0 km/h
1444 23-02-2009 00:57:50 5.6 C 5.09 g/m*3 5.6 C 0 km/h
1445 23-02-2009 01:09:50 5.2 C 4.96 g/m*3 5.2 C 0 km/h
1446 23-02-2009 01:21:50 5 C 4.89 g/m*3 5 C 0 km/h
1447 23-02-2009 01:33:50 5.1 C 4.79 g/m*3 5.1 C 0 km/h
1448 23-02-2009 01:45:50 5.2 C 4.68 g/m*3 5.2 C 0 km/h
1449 23-02-2009 01:57:50 5.2 C 4.61 g/m*3 5.2 C 0 km/h
1450 23-02-2009 02:09:50 5.2 C 4.54 g/m*3 5.2 C 0 km/h
Sensor: Nr:Datum:Temp:Abs-Feuchte:Windchill:Wind:
Aussen-T/F 1451 23-02-2009 02:21:50 5.2 C 4.48 g/m*3 5.2 C 0 km/h
1452 23-02-2009 02:33:50 5.3 C 4.44 g/m*3 5.3 C 0 km/h
1453 23-02-2009 02:45:50 5.3 C 4.37 g/m*3 5.3 C 0 km/h
1454 23-02-2009 02:57:50 5.3 C 4.3 g/m*3 5.3 C 0 km/h
1455 23-02-2009 03:09:50 5.4 C 4.26 g/m*3 5.4 C 0 km/h
1456 23-02-2009 03:21:51 5.6 C 4.03 g/m*3 5.6 C 0 km/h
1457 23-02-2009 03:33:51 5.4 C 3.98 g/m*3 5.4 C 0 km/h
1458 23-02-2009 03:45:51 5.3 C 4.02 g/m*3 5.3 C 0 km/h
1459 23-02-2009 03:57:51 5.3 C 4.02 g/m*3 5.3 C 0 km/h
1460 23-02-2009 04:09:51 5.3 C 3.95 g/m*3 5.3 C 0 km/h
1461 23-02-2009 04:21:51 5.2 C 3.86 g/m*3 5.2 C 0 km/h
1462 23-02-2009 04:33:51 5.2 C 3.86 g/m*3 5.2 C 0 km/h
1463 23-02-2009 04:45:51 5.2 C 3.92 g/m*3 5.2 C 0 km/h
1464 23-02-2009 04:57:51 5.3 C 3.88 g/m*3 5.3 C 0 km/h
1465 23-02-2009 05:09:51 5.4 C 4.05 g/m*3 5.4 C 0 km/h
1466 23-02-2009 05:21:51 5.4 C 4.12 g/m*3 5.4 C 0 km/h
1467 23-02-2009 05:33:51 5.4 C 4.12 g/m*3 5.4 C 0 km/h
1468 23-02-2009 05:45:51 5.3 C 4.09 g/m*3 5.3 C 0 km/h
1469 23-02-2009 05:57:51 5 C 4.21 g/m*3 5 C 0 km/h
1470 23-02-2009 06:09:51 4.2 C 4.64 g/m*3 4.2 C 0 km/h
1471 23-02-2009 06:21:51 4.2 C 4.9 g/m*3 4.2 C 0 km/h
1472 23-02-2009 06:33:51 4 C 5.02 g/m*3 4 C 0 km/h
1473 23-02-2009 06:45:51 3.9 C 5.18 g/m*3 3.9 C 0 km/h
1474 23-02-2009 06:57:51 3.8 C 5.21 g/m*3 3.8 C 0 km/h
1475 23-02-2009 07:09:52 3.9 C 5.31 g/m*3 3.9 C 0 km/h
Sensor: Nr:Datum:Temp:Abs-Feuchte:Windchill:Wind:
Aussen-T/F 1476 23-02-2009 07:21:52 4 C 5.28 g/m*3 4 C 0 km/h
1477 23-02-2009 07:33:52 4 C 5.28 g/m*3 4 C 0 km/h
1478 23-02-2009 07:45:52 4.3 C 5.25 g/m*3 4.3 C 0 km/h
1479 23-02-2009 07:57:52 4.7 C 5.13 g/m*3 4.7 C 0 km/h
1480 23-02-2009 08:09:52 4.8 C 4.96 g/m*3 4.8 C 0 km/h
1481 23-02-2009 08:21:52 4.9 C 4.93 g/m*3 4.9 C 0 km/h
1482 23-02-2009 08:33:52 5 C 4.82 g/m*3 5 C 0 km/h
1483 23-02-2009 08:45:52 5.1 C 4.79 g/m*3 5.1 C 0 km/h
1484 23-02-2009 08:57:52 5.2 C 4.75 g/m*3 5.2 C 0 km/h
1485 23-02-2009 09:09:52 5 C 4.89 g/m*3 5 C 0 km/h
1486 23-02-2009 09:21:52 4.9 C 5.06 g/m*3 4.9 C 0 km/h
1487 23-02-2009 09:33:49 5 C 5.03 g/m*3 5 C 0 km/h
1488 23-02-2009 09:45:48 5.2 C 4.89 g/m*3 5.2 C 0 km/h
1489 23-02-2009 09:57:48 5.2 C 4.89 g/m*3 5.2 C 0 km/h
1490 23-02-2009 10:09:49 5.3 C 4.85 g/m*3 5.3 C 0 km/h
1491 23-02-2009 10:21:49 5.6 C 4.81 g/m*3 5.6 C 0 km/h
1492 23-02-2009 10:33:48 5.8 C 4.87 g/m*3 5.8 C 0 km/h
1493 23-02-2009 10:45:48 6 C 4.79 g/m*3 6 C 0 km/h
1494 23-02-2009 10:57:48 6.3 C 4.81 g/m*3 6.3 C 0 km/h
1495 23-02-2009 11:09:48 6.7 C 4.79 g/m*3 6.7 C 0 km/h
1496 23-02-2009 11:21:48 6.6 C 4.68 g/m*3 6.6 C 0 km/h
1497 23-02-2009 11:33:48 6.6 C 4.68 g/m*3 6.6 C 0 km/h
1498 23-02-2009 11:45:47 6.6 C 4.68 g/m*3 6.6 C 0 km/h
1499 23-02-2009 11:57:47 6.7 C 4.64 g/m*3 6.7 C 0 km/h
1500 23-02-2009 12:09:48 6.7 C 4.71 g/m*3 6.7 C 0 km/h
Sensor: Nr:Datum:Temp:Abs-Feuchte:Windchill:Wind:
Aussen-T/F 1501 23-02-2009 12:21:47 6.8 C 4.67 g/m*3 6.8 C 0 km/h
1502 23-02-2009 12:33:47 6.9 C 4.62 g/m*3 6.9 C 0 km/h
1503 23-02-2009 12:45:47 7 C 4.57 g/m*3 7 C 0 km/h
1504 23-02-2009 12:57:47 7.3 C 4.58 g/m*3 7.3 C 0 km/h
1505 23-02-2009 13:09:47 7.3 C 4.66 g/m*3 7.3 C 0 km/h
1506 23-02-2009 13:21:47 6.4 C 4.92 g/m*3 6.4 C 0 km/h
1507 23-02-2009 13:33:47 5.9 C 5.34 g/m*3 5.9 C 0 km/h
1508 23-02-2009 13:45:47 5.9 C 5.41 g/m*3 5.9 C 0 km/h
1509 23-02-2009 13:57:47 6.1 C 5.48 g/m*3 6.1 C 0 km/h
1510 23-02-2009 14:09:46 6.2 C 5.37 g/m*3 6.2 C 0 km/h
1511 23-02-2009 14:21:47 6.4 C 5.44 g/m*3 6.4 C 0 km/h
1512 23-02-2009 14:33:46 6.3 C 5.18 g/m*3 6.3 C 0 km/h
1513 23-02-2009 14:45:46 5.9 C 5.26 g/m*3 5.9 C 0 km/h
1514 23-02-2009 14:57:46 5.7 C 5.48 g/m*3 5.7 C 0 km/h
1515 23-02-2009 15:09:46 5.8 C 5.59 g/m*3 5.8 C 0 km/h
1516 23-02-2009 15:21:46 6 C 5.59 g/m*3 6 C 0 km/h
1517 23-02-2009 15:33:46 6.5 C 5.47 g/m*3 6.5 C 0 km/h
1518 23-02-2009 15:45:45 6.9 C 5.47 g/m*3 6.9 C 0 km/h
1519 23-02-2009 15:57:45 6.8 C 4.89 g/m*3 6.8 C 0 km/h
1520 23-02-2009 16:09:46 6.3 C 4.96 g/m*3 6.3 C 0 km/h
1521 23-02-2009 16:21:45 6 C 5.08 g/m*3 6 C 0 km/h
1522 23-02-2009 16:33:45 5.8 C 5.16 g/m*3 5.8 C 0 km/h
1523 23-02-2009 16:45:45 5.9 C 5.19 g/m*3 5.9 C 0 km/h
1524 23-02-2009 16:57:45 5.9 C 5.05 g/m*3 5.9 C 0 km/h
1525 23-02-2009 17:09:45 5.9 C 5.05 g/m*3 5.9 C 0 km/h
Sensor: Nr:Datum:Temp:Abs-Feuchte:Windchill:Wind:
Aussen-T/F 1526 23-02-2009 17:21:44 5.7 C 5.05 g/m*3 5.7 C 0 km/h
1527 23-02-2009 17:33:45 5.7 C 4.98 g/m*3 5.7 C 0 km/h
1528 23-02-2009 17:45:44 5.7 C 4.91 g/m*3 5.7 C 0 km/h
1529 23-02-2009 17:57:44 5.7 C 4.91 g/m*3 5.7 C 0 km/h
1530 23-02-2009 18:09:03 5.7 C 4.84 g/m*3 5.7 C 0 km/h
1531 23-02-2009 18:21:02 5.6 C 4.88 g/m*3 5.6 C 0 km/h
1532 23-02-2009 18:33:02 5.4 C 4.81 g/m*3 5.4 C 0 km/h
1533 23-02-2009 18:45:02 5.3 C 4.85 g/m*3 5.3 C 0 km/h
1534 23-02-2009 18:57:02 5.3 C 4.85 g/m*3 5.3 C 0 km/h
1535 23-02-2009 19:09:02 5.4 C 4.88 g/m*3 5.4 C 0 km/h
1536 23-02-2009 19:21:01 5.4 C 4.88 g/m*3 5.4 C 0 km/h
1537 23-02-2009 19:33:02 5.4 C 4.6 g/m*3 5.4 C 0 km/h
1538 23-02-2009 19:45:01 5.6 C 4.45 g/m*3 5.6 C 0 km/h
1539 23-02-2009 19:57:01 5.6 C 4.31 g/m*3 5.6 C 0 km/h
1540 23-02-2009 20:09:01 5.6 C 4.31 g/m*3 5.6 C 0 km/h
1541 23-02-2009 20:21:01 5.6 C 4.17 g/m*3 5.6 C 0 km/h
1542 23-02-2009 20:33:01 5.6 C 4.1 g/m*3 5.6 C 0 km/h
1543 23-02-2009 20:45:00 5.6 C 4.1 g/m*3 5.6 C 0 km/h
1544 23-02-2009 20:57:00 5.6 C 4.03 g/m*3 5.6 C 0 km/h
1545 23-02-2009 21:09:01 5.6 C 4.03 g/m*3 5.6 C 0 km/h
1546 23-02-2009 21:21:00 5.7 C 3.99 g/m*3 5.7 C 0 km/h
1547 23-02-2009 21:34:01 5.5 C 4 g/m*3 5.5 C 0 km/h
1548 23-02-2009 21:46:01 5.6 C 4.03 g/m*3 5.6 C 0 km/h
1549 23-02-2009 21:58:01 5.5 C 4 g/m*3 5.5 C 0 km/h
1550 23-02-2009 22:10:01 5.3 C 4.09 g/m*3 5.3 C 0 km/h
Sensor: Nr:Datum:Temp:Abs-Feuchte:Windchill:Wind:
Aussen-T/F 1551 23-02-2009 22:22:01 5.1 C 4.17 g/m*3 5.1 C 0 km/h
1552 23-02-2009 22:34:01 5 C 4.28 g/m*3 5 C 0 km/h
1553 23-02-2009 22:46:01 4.9 C 4.39 g/m*3 4.9 C 0 km/h
1554 23-02-2009 22:58:01 4.6 C 4.5 g/m*3 4.6 C 0 km/h
1555 23-02-2009 23:10:01 4.6 C 4.57 g/m*3 4.6 C 0 km/h
1556 23-02-2009 23:22:01 4.6 C 4.57 g/m*3 4.6 C 0 km/h
1557 23-02-2009 23:34:01 4.6 C 4.57 g/m*3 4.6 C 0 km/h
1558 23-02-2009 23:46:01 4.6 C 4.5 g/m*3 4.6 C 0 km/h
1559 23-02-2009 23:58:01 4.7 C 4.53 g/m*3 4.7 C 0 km/h
1560 24-02-2009 00:10:01 4.7 C 4.53 g/m*3 4.7 C 0 km/h
1561 24-02-2009 00:22:01 4.7 C 4.46 g/m*3 4.7 C 0 km/h
1562 24-02-2009 00:34:01 4.7 C 4.53 g/m*3 4.7 C 0 km/h
1563 24-02-2009 00:46:01 4.7 C 4.46 g/m*3 4.7 C 0 km/h
1564 24-02-2009 00:58:01 4.7 C 4.46 g/m*3 4.7 C 0 km/h
1565 24-02-2009 01:10:02 4.6 C 4.43 g/m*3 4.6 C 0 km/h
1566 24-02-2009 01:22:02 4.6 C 4.43 g/m*3 4.6 C 0 km/h
1567 24-02-2009 01:34:02 4.5 C 4.47 g/m*3 4.5 C 0 km/h
1568 24-02-2009 01:46:02 4.5 C 4.47 g/m*3 4.5 C 0 km/h
1569 24-02-2009 01:58:02 4.5 C 4.47 g/m*3 4.5 C 0 km/h
1570 24-02-2009 02:10:02 4.4 C 4.51 g/m*3 4.4 C 0 km/h
1571 24-02-2009 02:22:02 4.3 C 4.61 g/m*3 4.3 C 0 km/h
1572 24-02-2009 02:34:02 4.2 C 4.64 g/m*3 4.2 C 0 km/h
1573 24-02-2009 02:46:02 4.3 C 4.67 g/m*3 4.3 C 0 km/h
1574 24-02-2009 02:58:02 4.3 C 4.61 g/m*3 4.3 C 0 km/h
1575 24-02-2009 03:10:02 4.2 C 4.57 g/m*3 4.2 C 0 km/h
Sensor: Nr:Datum:Temp:Abs-Feuchte:Windchill:Wind:
Aussen-T/F 1576 24-02-2009 03:22:02 4.2 C 4.57 g/m*3 4.2 C 0 km/h
1577 24-02-2009 03:34:02 4.2 C 4.57 g/m*3 4.2 C 0 km/h
1578 24-02-2009 03:46:02 4.1 C 4.54 g/m*3 4.1 C 0 km/h
1579 24-02-2009 03:58:02 4.1 C 4.54 g/m*3 4.1 C 0 km/h
1580 24-02-2009 04:10:02 4.2 C 4.51 g/m*3 4.2 C 0 km/h
1581 24-02-2009 04:22:02 4.1 C 4.48 g/m*3 4.1 C 0 km/h
1582 24-02-2009 04:34:02 4.1 C 4.42 g/m*3 4.1 C 0 km/h
1583 24-02-2009 04:46:02 4.1 C 4.42 g/m*3 4.1 C 0 km/h
1584 24-02-2009 04:58:02 4.1 C 4.35 g/m*3 4.1 C 0 km/h
1585 24-02-2009 05:10:03 4.1 C 4.35 g/m*3 4.1 C 0 km/h
1586 24-02-2009 05:22:03 4.1 C 4.35 g/m*3 4.1 C 0 km/h
1587 24-02-2009 05:34:03 4 C 4.32 g/m*3 4 C 0 km/h
1588 24-02-2009 05:46:03 4 C 4.32 g/m*3 4 C 0 km/h
1589 24-02-2009 05:58:03 4.1 C 4.35 g/m*3 4.1 C 0 km/h
1590 24-02-2009 06:10:03 4.1 C 4.35 g/m*3 4.1 C 0 km/h
1591 24-02-2009 06:22:03 4.1 C 4.35 g/m*3 4.1 C 0 km/h
1592 24-02-2009 06:34:03 4 C 4.32 g/m*3 4 C 0 km/h
1593 24-02-2009 06:46:03 4.1 C 4.29 g/m*3 4.1 C 0 km/h
1594 24-02-2009 06:58:03 4 C 4.32 g/m*3 4 C 0 km/h
1595 24-02-2009 07:10:01 4 C 4.32 g/m*3 4 C 0 km/h
1596 24-02-2009 07:22:01 4 C 4.32 g/m*3 4 C 0 km/h
1597 24-02-2009 07:34:01 4 C 4.32 g/m*3 4 C 0 km/h
1598 24-02-2009 07:46:01 4 C 4.32 g/m*3 4 C 0 km/h
1599 24-02-2009 07:58:01 4 C 4.26 g/m*3 4 C 0 km/h
1600 24-02-2009 08:10:00 4.1 C 4.29 g/m*3 4.1 C 0 km/h
Sensor: Nr:Datum:Temp:Abs-Feuchte:Windchill:Wind:
Aussen-T/F 1601 24-02-2009 08:22:01 4.1 C 4.29 g/m*3 4.1 C 0 km/h
1602 24-02-2009 08:34:00 4.1 C 4.29 g/m*3 4.1 C 0 km/h
1603 24-02-2009 08:46:00 4.2 C 4.32 g/m*3 4.2 C 0 km/h
1604 24-02-2009 08:58:01 4.2 C 4.32 g/m*3 4.2 C 0 km/h
1605 24-02-2009 09:09:59 4.3 C 4.35 g/m*3 4.3 C 0 km/h
1606 24-02-2009 09:22:00 4.4 C 4.31 g/m*3 4.4 C 0 km/h
1607 24-02-2009 09:34:59 4.6 C 4.3 g/m*3 4.6 C 0 km/h
1608 24-02-2009 09:46:00 4.8 C 4.36 g/m*3 4.8 C 0 km/h
1609 24-02-2009 09:58:00 4.7 C 4.26 g/m*3 4.7 C 0 km/h
1610 24-02-2009 10:10:59 4.9 C 4.25 g/m*3 4.9 C 0 km/h
1611 24-02-2009 10:22:59 5 C 4.21 g/m*3 5 C 0 km/h
1612 24-02-2009 10:34:59 5.1 C 4.24 g/m*3 5.1 C 0 km/h
1613 24-02-2009 10:46:59 5.3 C 4.3 g/m*3 5.3 C 0 km/h
1614 24-02-2009 10:59:00 5.1 C 4.24 g/m*3 5.1 C 0 km/h
1615 24-02-2009 11:10:58 5.1 C 4.24 g/m*3 5.1 C 0 km/h
1616 24-02-2009 11:22:59 5.4 C 4.4 g/m*3 5.4 C 0 km/h
1617 24-02-2009 11:34:59 5.4 C 4.26 g/m*3 5.4 C 0 km/h
1618 24-02-2009 11:46:58 5.7 C 4.34 g/m*3 5.7 C 0 km/h
1619 24-02-2009 11:58:58 5.9 C 3.97 g/m*3 5.9 C 0 km/h
1620 24-02-2009 12:10:59 6.1 C 3.8 g/m*3 6.1 C 0 km/h
1621 24-02-2009 12:22:58 6 C 3.7 g/m*3 6 C 0 km/h
1622 24-02-2009 12:34:58 6.1 C 3.8 g/m*3 6.1 C 0 km/h
1623 24-02-2009 12:46:58 6.3 C 4 g/m*3 6.3 C 0 km/h
1624 24-02-2009 12:58:58 6 C 3.85 g/m*3 6 C 0 km/h
1625 24-02-2009 13:10:58 6.2 C 3.82 g/m*3 6.2 C 0 km/h
Sensor: Nr:Datum:Temp:Abs-Feuchte:Windchill:Wind:
Aussen-T/F 1626 24-02-2009 13:22:57 6.3 C 3.78 g/m*3 6.3 C 0 km/h
1627 24-02-2009 13:34:57 6.4 C 3.8 g/m*3 6.4 C 0 km/h
1628 24-02-2009 13:46:57 6.7 C 3.8 g/m*3 6.7 C 0 km/h
1629 24-02-2009 13:58:57 6.8 C 3.67 g/m*3 6.8 C 0 km/h
1630 24-02-2009 14:10:57 6.9 C 3.54 g/m*3 6.9 C 0 km/h
1631 24-02-2009 14:22:57 6.4 C 3.65 g/m*3 6.4 C 0 km/h
1632 24-02-2009 14:34:57 6.7 C 3.72 g/m*3 6.7 C 0 km/h
1633 24-02-2009 14:46:56 6.9 C 3.77 g/m*3 6.9 C 0 km/h
1634 24-02-2009 14:58:56 7.1 C 3.59 g/m*3 7.1 C 0 km/h
1635 24-02-2009 15:10:56 7 C 3.41 g/m*3 7 C 0 km/h
1636 24-02-2009 15:22:57 6.9 C 3.39 g/m*3 6.9 C 0 km/h
1637 24-02-2009 15:34:56 6.9 C 3.31 g/m*3 6.9 C 0 km/h
1638 24-02-2009 15:46:56 7.5 C 3.44 g/m*3 7.5 C 0 km/h
1639 24-02-2009 15:58:56 7.6 C 3.3 g/m*3 7.6 C 0 km/h
1640 24-02-2009 16:10:56 8.1 C 3.25 g/m*3 8.1 C 0 km/h
1641 24-02-2009 16:22:56 8.1 C 3 g/m*3 8.1 C 0 km/h
1642 24-02-2009 16:34:55 7.9 C 3.04 g/m*3 7.9 C 0 km/h
1643 24-02-2009 16:46:56 8.4 C 3.05 g/m*3 8.4 C 0 km/h
1644 24-02-2009 16:58:57 7.8 C 3.1 g/m*3 7.8 C 0 km/h
1645 24-02-2009 17:10:55 7.2 C 3.14 g/m*3 7.2 C 0 km/h
1646 24-02-2009 17:22:55 6.6 C 3.17 g/m*3 6.6 C 0 km/h
1647 24-02-2009 17:34:55 6.5 C 3.15 g/m*3 6.5 C 0 km/h
1648 24-02-2009 17:46:55 6.5 C 3.37 g/m*3 6.5 C 0 km/h
1649 24-02-2009 17:58:55 6.3 C 3.41 g/m*3 6.3 C 0 km/h
1650 24-02-2009 18:10:55 6.2 C 3.24 g/m*3 6.2 C 0 km/h
Sensor: Nr:Datum:Temp:Abs-Feuchte:Windchill:Wind:
Aussen-T/F 1651 24-02-2009 18:22:54 6.1 C 3.29 g/m*3 6.1 C 0 km/h
1652 24-02-2009 18:34:55 5.9 C 3.53 g/m*3 5.9 C 0 km/h
1653 24-02-2009 18:46:54 5.8 C 3.58 g/m*3 5.8 C 0 km/h
1654 24-02-2009 18:58:54 5.6 C 3.68 g/m*3 5.6 C 0 km/h
1655 24-02-2009 19:10:54 5.4 C 3.77 g/m*3 5.4 C 0 km/h
1656 24-02-2009 19:22:54 5 C 3.67 g/m*3 5 C 0 km/h
1657 24-02-2009 19:34:54 4.4 C 3.72 g/m*3 4.4 C 0 km/h
1658 24-02-2009 19:46:53 3.9 C 3.6 g/m*3 3.9 C 0 km/h
1659 24-02-2009 19:58:53 3.5 C 3.63 g/m*3 3.5 C 0 km/h
1660 24-02-2009 20:10:54 3.4 C 3.6 g/m*3 3.4 C 0 km/h
1661 24-02-2009 20:22:54 3.4 C 3.73 g/m*3 3.4 C 0 km/h
1662 24-02-2009 20:34:53 3.5 C 3.94 g/m*3 3.5 C 0 km/h
1663 24-02-2009 20:46:54 3.4 C 4.09 g/m*3 3.4 C 0 km/h
1664 24-02-2009 20:58:54 3.3 C 4.13 g/m*3 3.3 C 0 km/h
1665 24-02-2009 21:10:53 3.1 C 4.13 g/m*3 3.1 C 0 km/h
1666 24-02-2009 21:22:53 2.8 C 4.16 g/m*3 2.8 C 0 km/h
1667 24-02-2009 21:34:52 2.7 C 4.2 g/m*3 2.7 C 0 km/h
1668 24-02-2009 21:46:53 2.8 C 4.28 g/m*3 2.8 C 0 km/h
1669 24-02-2009 21:58:53 2.7 C 4.2 g/m*3 2.7 C 0 km/h
1670 24-02-2009 22:10:52 3 C 4.34 g/m*3 3 C 0 km/h
1671 24-02-2009 22:22:52 2.8 C 4.22 g/m*3 2.8 C 0 km/h
1672 24-02-2009 22:34:53 2.6 C 4.22 g/m*3 2.6 C 0 km/h
1673 24-02-2009 22:46:53 2.6 C 4.22 g/m*3 2.6 C 0 km/h
1674 24-02-2009 22:58:53 2.6 C 4.28 g/m*3 2.6 C 0 km/h
1675 24-02-2009 23:10:53 2.6 C 4.22 g/m*3 2.6 C 0 km/h
Sensor: Nr:Datum:Temp:Abs-Feuchte:Windchill:Wind:
Aussen-T/F 1676 24-02-2009 23:22:53 2.4 C 4.23 g/m*3 2.4 C 0 km/h
1677 24-02-2009 23:34:53 2.3 C 4.2 g/m*3 2.3 C 0 km/h
1678 24-02-2009 23:46:53 2 C 4.17 g/m*3 2 C 0 km/h
1679 24-02-2009 23:58:53 1.8 C 4.17 g/m*3 1.8 C 0 km/h
1680 25-02-2009 00:10:53 1.7 C 4.19 g/m*3 1.7 C 0 km/h
1681 25-02-2009 00:22:52 1.7 C 4.19 g/m*3 1.7 C 0 km/h
1682 25-02-2009 00:34:52 1.5 C 4.19 g/m*3 1.5 C 0 km/h
1683 25-02-2009 00:46:51 1.3 C 4.19 g/m*3 1.3 C 0 km/h
1684 25-02-2009 00:58:51 1.1 C 4.13 g/m*3 1.1 C 0 km/h
1685 25-02-2009 01:10:52 1.1 C 4.18 g/m*3 1.1 C 0 km/h
1686 25-02-2009 01:22:52 0.9 C 4.18 g/m*3 0.9 C 0 km/h
1687 25-02-2009 01:34:51 0.7 C 4.17 g/m*3 0.7 C 0 km/h
1688 25-02-2009 01:46:51 0.7 C 4.17 g/m*3 0.7 C 0 km/h
1689 25-02-2009 01:58:51 0.6 C 4.19 g/m*3 0.6 C 0 km/h
1690 25-02-2009 02:10:51 0.5 C 4.16 g/m*3 0.5 C 0 km/h
1691 25-02-2009 02:22:51 0.2 C 4.08 g/m*3 0.2 C 0 km/h
1692 25-02-2009 02:34:50 0 C 4.02 g/m*3 0 C 0 km/h
1693 25-02-2009 02:47:53 -0.3 C 3.94 g/m*3 -0.3 C 0 km/h
1694 25-02-2009 02:59:53 -0.3 C 3.94 g/m*3 -0.3 C 0 km/h
1695 25-02-2009 03:11:52 -0.4 C 3.96 g/m*3 -0.4 C 0 km/h
1696 25-02-2009 03:23:52 -0.5 C 3.93 g/m*3 -0.5 C 0 km/h
1697 25-02-2009 03:35:52 -0.4 C 3.96 g/m*3 -0.4 C 0 km/h
1698 25-02-2009 03:47:52 -0.7 C 3.88 g/m*3 -0.7 C 0 km/h
1699 25-02-2009 03:59:52 -0.7 C 3.88 g/m*3 -0.7 C 0 km/h
1700 25-02-2009 04:11:52 -0.8 C 3.85 g/m*3 -0.8 C 0 km/h
Sensor: Nr:Datum:Temp:Abs-Feuchte:Windchill:Wind:
Aussen-T/F 1701 25-02-2009 04:23:52 -0.8 C 3.85 g/m*3 -0.8 C 0 km/h
1702 25-02-2009 04:35:51 -0.8 C 3.9 g/m*3 -0.8 C 0 km/h
1703 25-02-2009 04:47:51 -0.9 C 3.91 g/m*3 -0.9 C 0 km/h
1704 25-02-2009 04:59:51 -0.7 C 4.02 g/m*3 -0.7 C 0 km/h
1705 25-02-2009 05:11:51 -0.7 C 4.02 g/m*3 -0.7 C 0 km/h
1706 25-02-2009 05:23:52 -0.6 C 4.09 g/m*3 -0.6 C 0 km/h
1707 25-02-2009 05:35:51 -0.7 C 4.11 g/m*3 -0.7 C 0 km/h
1708 25-02-2009 05:47:51 -0.6 C 4.14 g/m*3 -0.6 C 0 km/h
1709 25-02-2009 05:59:51 -0.6 C 4.14 g/m*3 -0.6 C 0 km/h
1710 25-02-2009 06:11:51 -0.7 C 4.11 g/m*3 -0.7 C 0 km/h
1711 25-02-2009 06:23:50 -0.9 C 4.05 g/m*3 -0.9 C 0 km/h
1712 25-02-2009 06:35:51 -0.8 C 4.13 g/m*3 -0.8 C 0 km/h
1713 25-02-2009 06:47:50 -0.9 C 4.1 g/m*3 -0.9 C 0 km/h
1714 25-02-2009 06:59:50 -0.8 C 4.13 g/m*3 -0.8 C 0 km/h
1715 25-02-2009 07:11:50 -0.7 C 4.15 g/m*3 -0.7 C 0 km/h
1716 25-02-2009 07:23:50 -0.7 C 4.15 g/m*3 -0.7 C 0 km/h
1717 25-02-2009 07:35:50 -0.6 C 4.18 g/m*3 -0.6 C 0 km/h
1718 25-02-2009 07:47:49 -0.7 C 4.15 g/m*3 -0.7 C 0 km/h
1719 25-02-2009 07:59:49 -0.8 C 4.13 g/m*3 -0.8 C 0 km/h
1720 25-02-2009 08:11:50 -0.8 C 4.13 g/m*3 -0.8 C 0 km/h
1721 25-02-2009 08:23:50 -0.9 C 4.05 g/m*3 -0.9 C 0 km/h
1722 25-02-2009 08:35:49 -0.9 C 4.05 g/m*3 -0.9 C 0 km/h
1723 25-02-2009 08:47:49 -0.8 C 4.08 g/m*3 -0.8 C 0 km/h
1724 25-02-2009 08:59:49 -0.3 C 4.22 g/m*3 -0.3 C 0 km/h
1725 25-02-2009 09:11:49 -0.1 C 4.28 g/m*3 -0.1 C 0 km/h
Sensor: Nr:Datum:Temp:Abs-Feuchte:Windchill:Wind:
Aussen-T/F 1726 25-02-2009 09:23:49 -0.2 C 4.21 g/m*3 -0.2 C 0 km/h
1727 25-02-2009 09:35:48 -0.2 C 4.16 g/m*3 -0.2 C 0 km/h
1728 25-02-2009 09:47:49 -0.2 C 4.16 g/m*3 -0.2 C 0 km/h
1729 25-02-2009 09:59:49 -0.1 C 4.19 g/m*3 -0.1 C 0 km/h
1730 25-02-2009 10:11:48 0.1 C 4.24 g/m*3 0.1 C 0 km/h
1731 25-02-2009 10:23:48 0.3 C 4.3 g/m*3 0.3 C 0 km/h
1732 25-02-2009 10:35:49 1 C 4.46 g/m*3 1 C 0 km/h
1733 25-02-2009 10:47:48 1.1 C 4.34 g/m*3 1.1 C 0 km/h
1734 25-02-2009 10:59:48 1.4 C 4.37 g/m*3 1.4 C 0 km/h
1735 25-02-2009 11:11:48 2 C 4.45 g/m*3 2 C 0 km/h
1736 25-02-2009 11:23:48 1.7 C 4.25 g/m*3 1.7 C 0 km/h
1737 25-02-2009 11:35:48 2.3 C 4.37 g/m*3 2.3 C 0 km/h
1738 25-02-2009 11:47:47 3.2 C 4.46 g/m*3 3.2 C 0 km/h
1739 25-02-2009 11:59:47 3.5 C 4.49 g/m*3 3.5 C 0 km/h
1740 25-02-2009 12:11:48 3.9 C 4.55 g/m*3 3.9 C 0 km/h
1741 25-02-2009 12:23:47 4.8 C 4.69 g/m*3 4.8 C 0 km/h
1742 25-02-2009 12:35:47 5.8 C 4.51 g/m*3 5.8 C 0 km/h
1743 25-02-2009 12:47:47 6.4 C 3.95 g/m*3 6.4 C 0 km/h
1744 25-02-2009 12:59:47 6.9 C 3.46 g/m*3 6.9 C 0 km/h
1745 25-02-2009 13:11:47 7.4 C 3.18 g/m*3 7.4 C 0 km/h
1746 25-02-2009 13:23:46 7.5 C 3.2 g/m*3 7.5 C 0 km/h
1747 25-02-2009 13:35:46 7.6 C 3.22 g/m*3 7.6 C 0 km/h
1748 25-02-2009 13:47:47 7.8 C 3.1 g/m*3 7.8 C 0 km/h
1749 25-02-2009 13:59:47 7.9 C 3.12 g/m*3 7.9 C 0 km/h
1750 25-02-2009 14:11:46 8 C 3.14 g/m*3 8 C 0 km/h
Sensor: Nr:Datum:Temp:Abs-Feuchte:Windchill:Wind:
Aussen-T/F 1751 25-02-2009 14:23:46 8.1 C 3.16 g/m*3 8.1 C 0 km/h
1752 25-02-2009 14:35:46 8.4 C 3.14 g/m*3 8.4 C 0 km/h
1753 25-02-2009 14:47:46 8.7 C 3.11 g/m*3 8.7 C 0 km/h
1754 25-02-2009 14:59:46 8.6 C 3.01 g/m*3 8.6 C 0 km/h
1755 25-02-2009 15:11:45 8.6 C 3.09 g/m*3 8.6 C 0 km/h
1756 25-02-2009 15:23:46 8.7 C 3.11 g/m*3 8.7 C 0 km/h
1757 25-02-2009 15:35:46 8.9 C 3.07 g/m*3 8.9 C 0 km/h
1758 25-02-2009 15:47:45 8.6 C 3.09 g/m*3 8.6 C 0 km/h
1759 25-02-2009 15:59:45 8.4 C 3.14 g/m*3 8.4 C 0 km/h
1760 25-02-2009 16:11:46 8.5 C 3.24 g/m*3 8.5 C 0 km/h
1761 25-02-2009 16:23:45 8.6 C 3.35 g/m*3 8.6 C 0 km/h
1762 25-02-2009 16:35:45 8.6 C 3.27 g/m*3 8.6 C 0 km/h
1763 25-02-2009 16:47:44 8.4 C 3.39 g/m*3 8.4 C 0 km/h
1764 25-02-2009 16:59:44 8.1 C 3.33 g/m*3 8.1 C 0 km/h
1765 25-02-2009 17:11:45 7.8 C 3.43 g/m*3 7.8 C 0 km/h
1766 25-02-2009 17:23:44 7.5 C 3.6 g/m*3 7.5 C 0 km/h
1767 25-02-2009 17:35:44 7.2 C 3.53 g/m*3 7.2 C 0 km/h
1768 25-02-2009 17:47:44 6.9 C 3.62 g/m*3 6.9 C 0 km/h
1769 25-02-2009 17:59:44 6.6 C 3.55 g/m*3 6.6 C 0 km/h
1770 25-02-2009 18:11:44 6.4 C 3.5 g/m*3 6.4 C 0 km/h
1771 25-02-2009 18:23:44 6.2 C 3.6 g/m*3 6.2 C 0 km/h
1772 25-02-2009 18:35:43 6.2 C 3.68 g/m*3 6.2 C 0 km/h
1773 25-02-2009 18:47:44 6 C 3.63 g/m*3 6 C 0 km/h
1774 25-02-2009 18:59:44 5.8 C 3.65 g/m*3 5.8 C 0 km/h
1775 25-02-2009 19:11:43 5.6 C 3.61 g/m*3 5.6 C 0 km/h
Sensor: Nr:Datum:Temp:Abs-Feuchte:Windchill:Wind:
Aussen-T/F 1776 25-02-2009 19:23:43 5.4 C 3.56 g/m*3 5.4 C 0 km/h
1777 25-02-2009 19:35:43 5.4 C 3.56 g/m*3 5.4 C 0 km/h
1778 25-02-2009 19:47:43 5.4 C 3.56 g/m*3 5.4 C 0 km/h
1779 25-02-2009 19:59:43 5.3 C 3.53 g/m*3 5.3 C 0 km/h
1780 25-02-2009 20:11:42 5.1 C 3.56 g/m*3 5.1 C 0 km/h
1781 25-02-2009 20:23:43 5 C 3.53 g/m*3 5 C 0 km/h
1782 25-02-2009 20:35:43 5.2 C 3.58 g/m*3 5.2 C 0 km/h
1783 25-02-2009 20:47:42 5.3 C 3.53 g/m*3 5.3 C 0 km/h
1784 25-02-2009 20:59:42 5.3 C 3.6 g/m*3 5.3 C 0 km/h
1785 25-02-2009 21:11:42 5.5 C 3.51 g/m*3 5.5 C 0 km/h
1786 25-02-2009 21:23:42 5.6 C 3.53 g/m*3 5.6 C 0 km/h
1787 25-02-2009 21:35:42 5.5 C 3.51 g/m*3 5.5 C 0 km/h
1788 25-02-2009 21:47:42 5.5 C 3.51 g/m*3 5.5 C 0 km/h
1789 25-02-2009 21:59:42 5.6 C 3.53 g/m*3 5.6 C 0 km/h
1790 25-02-2009 22:11:41 5.7 C 3.49 g/m*3 5.7 C 0 km/h
1791 25-02-2009 22:23:42 5.7 C 3.49 g/m*3 5.7 C 0 km/h
1792 25-02-2009 22:36:43 5.7 C 3.49 g/m*3 5.7 C 0 km/h
1793 25-02-2009 22:48:43 5.7 C 3.49 g/m*3 5.7 C 0 km/h
1794 25-02-2009 23:00:43 5.7 C 3.49 g/m*3 5.7 C 0 km/h
1795 25-02-2009 23:12:43 5.7 C 3.49 g/m*3 5.7 C 0 km/h
1796 25-02-2009 23:24:43 5.8 C 3.51 g/m*3 5.8 C 0 km/h
1797 25-02-2009 23:36:43 5.7 C 3.49 g/m*3 5.7 C 0 km/h
1798 25-02-2009 23:48:43 5.6 C 3.53 g/m*3 5.6 C 0 km/h
1799 26-02-2009 00:00:43 5.6 C 3.53 g/m*3 5.6 C 0 km/h
1800 26-02-2009 00:12:43 5.5 C 3.58 g/m*3 5.5 C 0 km/h
Sensor: Nr:Datum:Temp:Abs-Feuchte:Windchill:Wind:
Aussen-T/F 1801 26-02-2009 00:24:43 5.6 C 3.61 g/m*3 5.6 C 0 km/h
1802 26-02-2009 00:36:43 5.6 C 3.68 g/m*3 5.6 C 0 km/h
1803 26-02-2009 00:48:43 5.6 C 3.68 g/m*3 5.6 C 0 km/h
1804 26-02-2009 01:00:43 5.6 C 3.68 g/m*3 5.6 C 0 km/h
1805 26-02-2009 01:12:43 5.4 C 3.7 g/m*3 5.4 C 0 km/h
1806 26-02-2009 01:24:43 5.3 C 3.67 g/m*3 5.3 C 0 km/h
1807 26-02-2009 01:36:43 5.3 C 3.67 g/m*3 5.3 C 0 km/h
1808 26-02-2009 01:48:44 5.2 C 3.72 g/m*3 5.2 C 0 km/h
1809 26-02-2009 02:00:44 5.2 C 3.79 g/m*3 5.2 C 0 km/h
1810 26-02-2009 02:12:44 5.2 C 3.79 g/m*3 5.2 C 0 km/h
1811 26-02-2009 02:24:44 5.2 C 3.86 g/m*3 5.2 C 0 km/h
1812 26-02-2009 02:36:44 5.2 C 3.86 g/m*3 5.2 C 0 km/h
1813 26-02-2009 02:48:44 5.1 C 3.83 g/m*3 5.1 C 0 km/h
1814 26-02-2009 03:00:44 5.1 C 3.9 g/m*3 5.1 C 0 km/h
1815 26-02-2009 03:12:44 5 C 3.87 g/m*3 5 C 0 km/h
1816 26-02-2009 03:24:44 5 C 3.94 g/m*3 5 C 0 km/h
1817 26-02-2009 03:36:44 5.1 C 3.97 g/m*3 5.1 C 0 km/h
1818 26-02-2009 03:48:44 5 C 3.94 g/m*3 5 C 0 km/h
1819 26-02-2009 04:00:44 5 C 3.94 g/m*3 5 C 0 km/h
1820 26-02-2009 04:12:44 5 C 3.94 g/m*3 5 C 0 km/h
1821 26-02-2009 04:24:44 5.2 C 4.13 g/m*3 5.2 C 0 km/h
1822 26-02-2009 04:36:44 5.3 C 4.3 g/m*3 5.3 C 0 km/h
1823 26-02-2009 04:48:44 5.4 C 4.33 g/m*3 5.4 C 0 km/h
1824 26-02-2009 05:00:44 5.5 C 4.35 g/m*3 5.5 C 0 km/h
1825 26-02-2009 05:12:44 5.5 C 4.35 g/m*3 5.5 C 0 km/h
Sensor: Nr:Datum:Temp:Abs-Feuchte:Windchill:Wind:
Aussen-T/F 1826 26-02-2009 05:24:44 5.4 C 4.33 g/m*3 5.4 C 0 km/h
1827 26-02-2009 05:36:44 5.4 C 4.33 g/m*3 5.4 C 0 km/h
1828 26-02-2009 05:48:45 5.4 C 4.33 g/m*3 5.4 C 0 km/h
1829 26-02-2009 06:00:45 5.4 C 4.33 g/m*3 5.4 C 0 km/h
1830 26-02-2009 06:12:45 5.4 C 4.33 g/m*3 5.4 C 0 km/h
1831 26-02-2009 06:24:45 5.3 C 4.3 g/m*3 5.3 C 0 km/h
1832 26-02-2009 06:36:45 5.2 C 4.34 g/m*3 5.2 C 0 km/h
1833 26-02-2009 06:48:45 5.2 C 4.41 g/m*3 5.2 C 0 km/h
1834 26-02-2009 07:00:42 5.2 C 4.41 g/m*3 5.2 C 0 km/h
1835 26-02-2009 07:12:42 5.2 C 4.48 g/m*3 5.2 C 0 km/h
1836 26-02-2009 07:24:42 5.2 C 4.48 g/m*3 5.2 C 0 km/h
1837 26-02-2009 07:36:42 5.3 C 4.51 g/m*3 5.3 C 0 km/h
1838 26-02-2009 07:48:41 5.3 C 4.51 g/m*3 5.3 C 0 km/h
1839 26-02-2009 08:00:42 5.3 C 4.57 g/m*3 5.3 C 0 km/h
1840 26-02-2009 08:12:42 5.3 C 4.57 g/m*3 5.3 C 0 km/h
1841 26-02-2009 08:24:41 5.3 C 4.64 g/m*3 5.3 C 0 km/h
1842 26-02-2009 08:36:41 5.4 C 4.67 g/m*3 5.4 C 0 km/h
1843 26-02-2009 08:48:41 5.4 C 4.67 g/m*3 5.4 C 0 km/h
1844 26-02-2009 09:00:41 5.5 C 4.71 g/m*3 5.5 C 0 km/h
1845 26-02-2009 09:12:41 5.6 C 4.81 g/m*3 5.6 C 0 km/h
1846 26-02-2009 09:24:41 5.6 C 4.88 g/m*3 5.6 C 0 km/h
1847 26-02-2009 09:36:41 5.5 C 5.06 g/m*3 5.5 C 0 km/h
1848 26-02-2009 09:48:41 5.4 C 5.16 g/m*3 5.4 C 0 km/h
1849 26-02-2009 10:00:40 5.3 C 5.27 g/m*3 5.3 C 0 km/h
1850 26-02-2009 10:12:40 5.4 C 5.37 g/m*3 5.4 C 0 km/h
Sensor: Nr:Datum:Temp:Abs-Feuchte:Windchill:Wind:
Aussen-T/F 1851 26-02-2009 10:24:40 5.4 C 5.3 g/m*3 5.4 C 0 km/h
1852 26-02-2009 10:36:40 5.5 C 5.34 g/m*3 5.5 C 0 km/h
1853 26-02-2009 10:48:40 5.6 C 5.3 g/m*3 5.6 C 0 km/h
1854 26-02-2009 11:00:39 5.7 C 5.34 g/m*3 5.7 C 0 km/h
1855 26-02-2009 11:12:39 5.9 C 5.34 g/m*3 5.9 C 0 km/h
1856 26-02-2009 11:24:40 6.3 C 5.33 g/m*3 6.3 C 0 km/h
1857 26-02-2009 11:36:40 6.8 C 5.2 g/m*3 6.8 C 0 km/h
1858 26-02-2009 11:48:39 7.1 C 5.07 g/m*3 7.1 C 0 km/h
1859 26-02-2009 12:00:40 7.3 C 5.06 g/m*3 7.3 C 0 km/h
1860 26-02-2009 12:12:40 7.8 C 5.06 g/m*3 7.8 C 0 km/h
1861 26-02-2009 12:24:39 7.8 C 4.9 g/m*3 7.8 C 0 km/h
1862 26-02-2009 12:36:39 8 C 4.8 g/m*3 8 C 0 km/h
1863 26-02-2009 12:48:39 8 C 4.8 g/m*3 8 C 0 km/h
1864 26-02-2009 13:00:39 7.9 C 4.85 g/m*3 7.9 C 0 km/h
1865 26-02-2009 13:12:40 7.9 C 4.93 g/m*3 7.9 C 0 km/h
1866 26-02-2009 13:24:38 8 C 4.88 g/m*3 8 C 0 km/h
1867 26-02-2009 13:36:38 8.2 C 4.86 g/m*3 8.2 C 0 km/h
1868 26-02-2009 13:48:38 8.3 C 4.89 g/m*3 8.3 C 0 km/h
1869 26-02-2009 14:00:38 8.6 C 4.9 g/m*3 8.6 C 0 km/h
1870 26-02-2009 14:12:38 8.9 C 4.73 g/m*3 8.9 C 0 km/h
1871 26-02-2009 14:24:38 8.8 C 4.53 g/m*3 8.8 C 0 km/h
1872 26-02-2009 14:36:38 9.2 C 3.93 g/m*3 9.2 C 0 km/h
1873 26-02-2009 14:48:38 9.6 C 3.66 g/m*3 9.6 C 0 km/h
1874 26-02-2009 15:00:37 9.5 C 3.64 g/m*3 9.5 C 0 km/h
1875 26-02-2009 15:12:37 9.5 C 3.64 g/m*3 9.5 C 0 km/h
Sensor: Nr:Datum:Temp:Abs-Feuchte:Windchill:Wind:
Aussen-T/F 1876 26-02-2009 15:24:38 9.6 C 3.57 g/m*3 9.6 C 0 km/h
1877 26-02-2009 15:36:37 9.4 C 3.44 g/m*3 9.4 C 0 km/h
1878 26-02-2009 15:48:37 9.4 C 3.62 g/m*3 9.4 C 0 km/h
1879 26-02-2009 16:00:37 9.3 C 3.5 g/m*3 9.3 C 0 km/h
1880 26-02-2009 16:12:37 9.4 C 3.71 g/m*3 9.4 C 0 km/h
1881 26-02-2009 16:24:37 9.2 C 3.66 g/m*3 9.2 C 0 km/h
1882 26-02-2009 16:36:37 9 C 3.61 g/m*3 9 C 0 km/h
1883 26-02-2009 16:48:37 9 C 3.61 g/m*3 9 C 0 km/h
1884 26-02-2009 17:00:37 8.8 C 3.57 g/m*3 8.8 C 0 km/h
1885 26-02-2009 17:12:37 8.6 C 3.61 g/m*3 8.6 C 0 km/h
1886 26-02-2009 17:24:36 8.6 C 3.69 g/m*3 8.6 C 0 km/h
1887 26-02-2009 17:36:36 8.3 C 3.71 g/m*3 8.3 C 0 km/h
1888 26-02-2009 17:48:36 8.2 C 3.77 g/m*3 8.2 C 0 km/h
1889 26-02-2009 18:00:36 8.1 C 3.74 g/m*3 8.1 C 0 km/h
1890 26-02-2009 18:12:36 8 C 3.8 g/m*3 8 C 0 km/h
1891 26-02-2009 18:24:35 7.9 C 3.78 g/m*3 7.9 C 0 km/h
1892 26-02-2009 18:36:02 7.8 C 3.84 g/m*3 7.8 C 0 km/h
1893 26-02-2009 18:48:01 7.8 C 3.84 g/m*3 7.8 C 0 km/h
1894 26-02-2009 19:00:01 7.7 C 3.89 g/m*3 7.7 C 0 km/h
1895 26-02-2009 19:12:01 7.6 C 3.87 g/m*3 7.6 C 0 km/h
1896 26-02-2009 19:24:01 7.6 C 3.95 g/m*3 7.6 C 0 km/h
1897 26-02-2009 19:36:01 7.5 C 4.08 g/m*3 7.5 C 0 km/h
1898 26-02-2009 19:48:00 7.5 C 4.24 g/m*3 7.5 C 0 km/h
1899 26-02-2009 20:00:00 7.4 C 4.29 g/m*3 7.4 C 0 km/h
1900 26-02-2009 20:12:01 7.4 C 4.37 g/m*3 7.4 C 0 km/h
Sensor: Nr:Datum:Temp:Abs-Feuchte:Windchill:Wind:
Aussen-T/F 1901 26-02-2009 20:24:00 7.5 C 4.24 g/m*3 7.5 C 0 km/h
1902 26-02-2009 20:36:00 7.5 C 4.24 g/m*3 7.5 C 0 km/h
1903 26-02-2009 20:48:00 7.4 C 4.29 g/m*3 7.4 C 0 km/h
1904 26-02-2009 21:00:00 7.3 C 4.35 g/m*3 7.3 C 0 km/h
1905 26-02-2009 21:12:00 7.2 C 4.32 g/m*3 7.2 C 0 km/h
1906 26-02-2009 21:24:00 7.2 C 4.32 g/m*3 7.2 C 0 km/h
1907 26-02-2009 21:36:00 7.2 C 4.32 g/m*3 7.2 C 0 km/h
1908 26-02-2009 22:00:00 7.2 C 4.32 g/m*3 7.2 C 0 km/h
1909 26-02-2009 22:00:00 7.2 C 4.24 g/m*3 7.2 C 0 km/h
1910 26-02-2009 22:00:00 7.2 C 4.32 g/m*3 7.2 C 0 km/h
1911 26-02-2009 22:00:00 7.2 C 4.24 g/m*3 7.2 C 0 km/h
1912 26-02-2009 22:12:00 7.2 C 4.32 g/m*3 7.2 C 0 km/h
1913 26-02-2009 22:25:00 7.2 C 4.32 g/m*3 7.2 C 0 km/h
1914 26-02-2009 22:37:00 7.1 C 4.21 g/m*3 7.1 C 0 km/h
1915 26-02-2009 22:49:00 7.1 C 4.21 g/m*3 7.1 C 0 km/h
1916 26-02-2009 23:01:00 7.2 C 4.24 g/m*3 7.2 C 0 km/h
1917 26-02-2009 23:13:00 7.2 C 4.16 g/m*3 7.2 C 0 km/h
1918 26-02-2009 23:25:00 7.2 C 4.24 g/m*3 7.2 C 0 km/h
1919 26-02-2009 23:37:01 7.1 C 4.21 g/m*3 7.1 C 0 km/h
1920 26-02-2009 23:49:01 7.3 C 4.11 g/m*3 7.3 C 0 km/h
1921 27-02-2009 00:01:01 7.2 C 4.08 g/m*3 7.2 C 0 km/h
1922 27-02-2009 00:13:01 7.2 C 4.16 g/m*3 7.2 C 0 km/h
1923 27-02-2009 00:25:01 7.2 C 4.08 g/m*3 7.2 C 0 km/h
1924 27-02-2009 00:37:01 7.2 C 4.16 g/m*3 7.2 C 0 km/h
1925 27-02-2009 00:49:01 7.2 C 4.16 g/m*3 7.2 C 0 km/h
Sensor: Nr:Datum:Temp:Abs-Feuchte:Windchill:Wind:
Aussen-T/F 1926 27-02-2009 01:01:01 7.2 C 4.24 g/m*3 7.2 C 0 km/h
1927 27-02-2009 01:13:01 7.2 C 4.24 g/m*3 7.2 C 0 km/h
1928 27-02-2009 01:25:01 7.3 C 4.27 g/m*3 7.3 C 0 km/h
1929 27-02-2009 01:37:01 7.2 C 4.32 g/m*3 7.2 C 0 km/h
1930 27-02-2009 01:49:01 7.2 C 4.32 g/m*3 7.2 C 0 km/h
1931 27-02-2009 02:01:01 7.2 C 4.32 g/m*3 7.2 C 0 km/h
1932 27-02-2009 02:13:01 7.1 C 4.52 g/m*3 7.1 C 0 km/h
1933 27-02-2009 02:25:01 7 C 4.57 g/m*3 7 C 0 km/h
1934 27-02-2009 02:37:01 7 C 4.65 g/m*3 7 C 0 km/h
1935 27-02-2009 02:49:01 7 C 4.65 g/m*3 7 C 0 km/h
1936 27-02-2009 03:01:01 7 C 4.65 g/m*3 7 C 0 km/h
1937 27-02-2009 03:13:02 7 C 4.65 g/m*3 7 C 0 km/h
1938 27-02-2009 03:25:02 6.9 C 4.85 g/m*3 6.9 C 0 km/h
1939 27-02-2009 03:37:02 6.4 C 5.22 g/m*3 6.4 C 0 km/h
1940 27-02-2009 03:49:02 6 C 5.37 g/m*3 6 C 0 km/h
1941 27-02-2009 04:01:02 5.9 C 5.62 g/m*3 5.9 C 0 km/h
1942 27-02-2009 04:13:02 6.1 C 5.63 g/m*3 6.1 C 0 km/h
1943 27-02-2009 04:25:02 5.9 C 5.7 g/m*3 5.9 C 0 km/h
1944 27-02-2009 04:37:02 5.9 C 5.77 g/m*3 5.9 C 0 km/h
1945 27-02-2009 04:49:02 5.9 C 5.84 g/m*3 5.9 C 0 km/h
1946 27-02-2009 05:01:02 5.7 C 5.84 g/m*3 5.7 C 0 km/h
1947 27-02-2009 05:13:02 5.6 C 5.94 g/m*3 5.6 C 0 km/h
1948 27-02-2009 05:25:02 5.6 C 6.01 g/m*3 5.6 C 0 km/h
1949 27-02-2009 05:37:02 5.6 C 6.08 g/m*3 5.6 C 0 km/h
1950 27-02-2009 05:49:02 5.6 C 6.08 g/m*3 5.6 C 0 km/h
Sensor: Nr:Datum:Temp:Abs-Feuchte:Windchill:Wind:
Aussen-T/F 1951 27-02-2009 06:01:02 5.6 C 6.08 g/m*3 5.6 C 0 km/h
1952 27-02-2009 06:13:02 5.6 C 6.01 g/m*3 5.6 C 0 km/h
1953 27-02-2009 06:25:02 5.6 C 6.01 g/m*3 5.6 C 0 km/h
1954 27-02-2009 06:37:02 5.6 C 5.94 g/m*3 5.6 C 0 km/h
1955 27-02-2009 06:49:02 5.6 C 5.94 g/m*3 5.6 C 0 km/h
1956 27-02-2009 07:01:00 5.6 C 5.87 g/m*3 5.6 C 0 km/h
1957 27-02-2009 07:13:00 5.7 C 5.84 g/m*3 5.7 C 0 km/h
1958 27-02-2009 07:25:00 5.9 C 5.77 g/m*3 5.9 C 0 km/h
1959 27-02-2009 07:37:00 6.1 C 5.63 g/m*3 6.1 C 0 km/h
1960 27-02-2009 07:49:00 6.1 C 5.48 g/m*3 6.1 C 0 km/h
1961 27-02-2009 08:01:59 6.2 C 5.37 g/m*3 6.2 C 0 km/h
1962 27-02-2009 08:13:59 6.4 C 5.29 g/m*3 6.4 C 0 km/h
1963 27-02-2009 08:25:00 6.5 C 5.17 g/m*3 6.5 C 0 km/h
1964 27-02-2009 08:37:00 6.6 C 5.13 g/m*3 6.6 C 0 km/h
1965 27-02-2009 08:49:59 6.7 C 5.09 g/m*3 6.7 C 0 km/h
1966 27-02-2009 09:00:59 6.8 C 5.05 g/m*3 6.8 C 0 km/h
1967 27-02-2009 09:12:59 6.9 C 5.08 g/m*3 6.9 C 0 km/h
1968 27-02-2009 09:25:59 7 C 4.96 g/m*3 7 C 0 km/h
1969 27-02-2009 09:37:59 7.2 C 4.95 g/m*3 7.2 C 0 km/h
1970 27-02-2009 09:49:58 7.7 C 4.95 g/m*3 7.7 C 0 km/h
1971 27-02-2009 10:01:59 7.9 C 4.85 g/m*3 7.9 C 0 km/h
1972 27-02-2009 10:13:59 8 C 4.71 g/m*3 8 C 0 km/h
1973 27-02-2009 10:25:58 8.1 C 4.66 g/m*3 8.1 C 0 km/h
1974 27-02-2009 10:37:58 8.6 C 4.81 g/m*3 8.6 C 0 km/h
1975 27-02-2009 10:49:58 8.6 C 4.55 g/m*3 8.6 C 0 km/h
Sensor: Nr:Datum:Temp:Abs-Feuchte:Windchill:Wind:
Aussen-T/F 1976 27-02-2009 11:01:58 8.7 C 4.58 g/m*3 8.7 C 0 km/h
1977 27-02-2009 11:13:58 8.7 C 4.5 g/m*3 8.7 C 0 km/h
1978 27-02-2009 11:25:57 8.7 C 4.67 g/m*3 8.7 C 0 km/h
1979 27-02-2009 11:37:58 8.5 C 4.7 g/m*3 8.5 C 0 km/h
1980 27-02-2009 11:49:58 8.3 C 4.97 g/m*3 8.3 C 0 km/h
1981 27-02-2009 12:01:57 8 C 5.13 g/m*3 8 C 0 km/h
1982 27-02-2009 12:13:57 7.7 C 5.43 g/m*3 7.7 C 0 km/h
1983 27-02-2009 12:25:58 7.4 C 5.57 g/m*3 7.4 C 0 km/h
1984 27-02-2009 12:37:57 7.2 C 5.73 g/m*3 7.2 C 0 km/h
1985 27-02-2009 12:49:57 7 C 5.97 g/m*3 7 C 0 km/h
1986 27-02-2009 13:01:56 6.8 C 6.12 g/m*3 6.8 C 0 km/h
1987 27-02-2009 13:13:56 6.8 C 6.27 g/m*3 6.8 C 0 km/h
1988 27-02-2009 13:25:57 7 C 6.35 g/m*3 7 C 0 km/h
1989 27-02-2009 13:37:56 7.1 C 6.4 g/m*3 7.1 C 0 km/h
1990 27-02-2009 13:49:56 7.1 C 6.24 g/m*3 7.1 C 0 km/h
1991 27-02-2009 14:01:57 7.1 C 6.16 g/m*3 7.1 C 0 km/h
1992 27-02-2009 14:13:57 7.3 C 6.16 g/m*3 7.3 C 0 km/h
1993 27-02-2009 14:25:56 7.5 C 6.24 g/m*3 7.5 C 0 km/h
1994 27-02-2009 14:37:56 7.5 C 6.24 g/m*3 7.5 C 0 km/h
1995 27-02-2009 14:49:56 7.7 C 6.24 g/m*3 7.7 C 0 km/h
1996 27-02-2009 15:01:56 7.5 C 5.92 g/m*3 7.5 C 0 km/h
1997 27-02-2009 15:13:56 7.6 C 5.88 g/m*3 7.6 C 0 km/h
1998 27-02-2009 15:25:56 7.5 C 5.76 g/m*3 7.5 C 0 km/h
1999 27-02-2009 15:37:55 7.7 C 5.76 g/m*3 7.7 C 0 km/h
2000 27-02-2009 15:49:56 7.9 C 5.75 g/m*3 7.9 C 0 km/h
Sensor: Nr:Datum:Temp:Abs-Feuchte:Windchill:Wind:
Aussen-T/F 2001 27-02-2009 16:01:55 8 C 5.54 g/m*3 8 C 0 km/h
2002 27-02-2009 16:13:55 8 C 5.46 g/m*3 8 C 0 km/h
2003 27-02-2009 16:25:55 8 C 5.46 g/m*3 8 C 0 km/h
2004 27-02-2009 16:37:55 8 C 5.29 g/m*3 8 C 0 km/h
2005 27-02-2009 16:49:54 7.9 C 5.42 g/m*3 7.9 C 0 km/h
2006 27-02-2009 17:01:54 7.9 C 5.42 g/m*3 7.9 C 0 km/h
2007 27-02-2009 17:13:54 7.9 C 5.42 g/m*3 7.9 C 0 km/h
2008 27-02-2009 17:25:55 7.8 C 5.55 g/m*3 7.8 C 0 km/h
2009 27-02-2009 17:37:54 7.6 C 5.64 g/m*3 7.6 C 0 km/h
2010 27-02-2009 17:49:54 7.5 C 5.68 g/m*3 7.5 C 0 km/h
2011 27-02-2009 18:01:54 7.5 C 5.68 g/m*3 7.5 C 0 km/h
2012 27-02-2009 18:13:54 7.6 C 5.72 g/m*3 7.6 C 0 km/h
2013 27-02-2009 18:25:54 7.6 C 5.64 g/m*3 7.6 C 0 km/h
2014 27-02-2009 18:37:53 7.6 C 5.64 g/m*3 7.6 C 0 km/h
2015 27-02-2009 18:49:54 7.6 C 5.64 g/m*3 7.6 C 0 km/h
2016 27-02-2009 19:01:53 7.6 C 5.56 g/m*3 7.6 C 0 km/h
2017 27-02-2009 19:13:53 7.7 C 5.59 g/m*3 7.7 C 0 km/h
2018 27-02-2009 19:25:53 7.8 C 5.63 g/m*3 7.8 C 0 km/h
2019 27-02-2009 19:37:54 7.8 C 5.55 g/m*3 7.8 C 0 km/h
2020 27-02-2009 19:49:53 7.9 C 5.59 g/m*3 7.9 C 0 km/h
2021 27-02-2009 20:01:53 7.8 C 5.55 g/m*3 7.8 C 0 km/h
2022 27-02-2009 20:13:53 7.8 C 5.55 g/m*3 7.8 C 0 km/h
2023 27-02-2009 20:25:53 7.7 C 5.68 g/m*3 7.7 C 0 km/h
2024 27-02-2009 20:37:53 7.7 C 5.68 g/m*3 7.7 C 0 km/h
2025 27-02-2009 20:49:52 7.5 C 5.76 g/m*3 7.5 C 0 km/h
Sensor: Nr:Datum:Temp:Abs-Feuchte:Windchill:Wind:
Aussen-T/F 2026 27-02-2009 21:01:53 7.2 C 5.89 g/m*3 7.2 C 0 km/h
2027 27-02-2009 21:13:54 7 C 6.04 g/m*3 7 C 0 km/h
2028 27-02-2009 21:25:52 7 C 6.2 g/m*3 7 C 0 km/h
2029 27-02-2009 21:37:52 6.9 C 6.31 g/m*3 6.9 C 0 km/h
2030 27-02-2009 21:49:52 6.8 C 6.42 g/m*3 6.8 C 0 km/h
2031 27-02-2009 22:01:52 6.7 C 6.38 g/m*3 6.7 C 0 km/h
2032 27-02-2009 22:13:52 6.7 C 6.46 g/m*3 6.7 C 0 km/h
2033 27-02-2009 22:25:52 6.8 C 6.42 g/m*3 6.8 C 0 km/h
2034 27-02-2009 22:37:51 6.9 C 6.47 g/m*3 6.9 C 0 km/h
2035 27-02-2009 22:49:52 6.9 C 6.39 g/m*3 6.9 C 0 km/h
2036 27-02-2009 23:01:51 6.9 C 6.31 g/m*3 6.9 C 0 km/h
2037 27-02-2009 23:13:51 6.9 C 6.24 g/m*3 6.9 C 0 km/h
2038 27-02-2009 23:25:51 6.9 C 6.31 g/m*3 6.9 C 0 km/h
2039 27-02-2009 23:37:51 6.8 C 6.27 g/m*3 6.8 C 0 km/h
2040 27-02-2009 23:50:52 6.9 C 6.31 g/m*3 6.9 C 0 km/h
2041 28-02-2009 00:02:52 6.9 C 6.31 g/m*3 6.9 C 0 km/h
2042 28-02-2009 00:14:52 6.9 C 6.24 g/m*3 6.9 C 0 km/h
2043 28-02-2009 00:26:53 6.9 C 6.24 g/m*3 6.9 C 0 km/h
2044 28-02-2009 00:38:53 6.9 C 6.16 g/m*3 6.9 C 0 km/h
2045 28-02-2009 00:50:53 6.9 C 6.16 g/m*3 6.9 C 0 km/h
2046 28-02-2009 01:02:53 6.9 C 6.08 g/m*3 6.9 C 0 km/h
2047 28-02-2009 01:14:53 6.9 C 6.08 g/m*3 6.9 C 0 km/h
2048 28-02-2009 01:26:53 6.9 C 6.08 g/m*3 6.9 C 0 km/h
2049 28-02-2009 01:38:53 7 C 5.97 g/m*3 7 C 0 km/h
2050 28-02-2009 01:50:53 7 C 5.97 g/m*3 7 C 0 km/h
Sensor: Nr:Datum:Temp:Abs-Feuchte:Windchill:Wind:
Aussen-T/F 2051 28-02-2009 02:02:53 7.1 C 5.93 g/m*3 7.1 C 0 km/h
2052 28-02-2009 02:14:53 7.1 C 5.93 g/m*3 7.1 C 0 km/h
2053 28-02-2009 02:26:53 7.3 C 5.93 g/m*3 7.3 C 0 km/h
2054 28-02-2009 02:38:53 7.4 C 5.88 g/m*3 7.4 C 0 km/h
2055 28-02-2009 02:50:53 7.5 C 5.84 g/m*3 7.5 C 0 km/h
2056 28-02-2009 03:02:53 7.5 C 5.84 g/m*3 7.5 C 0 km/h
2057 28-02-2009 03:14:53 7.5 C 5.84 g/m*3 7.5 C 0 km/h
2058 28-02-2009 03:26:53 7.5 C 5.84 g/m*3 7.5 C 0 km/h
2059 28-02-2009 03:38:53 7.5 C 5.84 g/m*3 7.5 C 0 km/h
2060 28-02-2009 03:50:53 7.5 C 5.84 g/m*3 7.5 C 0 km/h
2061 28-02-2009 04:02:54 7.6 C 5.88 g/m*3 7.6 C 0 km/h
2062 28-02-2009 04:14:54 7.6 C 5.88 g/m*3 7.6 C 0 km/h
2063 28-02-2009 04:26:54 7.6 C 5.8 g/m*3 7.6 C 0 km/h
2064 28-02-2009 04:38:54 7.6 C 5.8 g/m*3 7.6 C 0 km/h
2065 28-02-2009 04:50:54 7.7 C 5.84 g/m*3 7.7 C 0 km/h
2066 28-02-2009 05:02:54 7.7 C 5.84 g/m*3 7.7 C 0 km/h
2067 28-02-2009 05:14:54 7.8 C 5.79 g/m*3 7.8 C 0 km/h
2068 28-02-2009 05:26:54 7.8 C 5.79 g/m*3 7.8 C 0 km/h
2069 28-02-2009 05:38:54 7.8 C 5.79 g/m*3 7.8 C 0 km/h
2070 28-02-2009 05:50:54 7.7 C 5.76 g/m*3 7.7 C 0 km/h
2071 28-02-2009 06:02:54 7.6 C 5.8 g/m*3 7.6 C 0 km/h
2072 28-02-2009 06:14:54 7.6 C 5.8 g/m*3 7.6 C 0 km/h
2073 28-02-2009 06:26:54 7.5 C 5.76 g/m*3 7.5 C 0 km/h
2074 28-02-2009 06:38:54 7.5 C 5.84 g/m*3 7.5 C 0 km/h
2075 28-02-2009 06:50:54 7.4 C 5.81 g/m*3 7.4 C 0 km/h
Sensor: Nr:Datum:Temp:Abs-Feuchte:Windchill:Wind:
Aussen-T/F 2076 28-02-2009 07:02:54 7.4 C 5.81 g/m*3 7.4 C 0 km/h
2077 28-02-2009 07:14:54 7.4 C 5.88 g/m*3 7.4 C 0 km/h
2078 28-02-2009 07:26:54 7.3 C 5.85 g/m*3 7.3 C 0 km/h
2079 28-02-2009 07:38:54 7.3 C 5.93 g/m*3 7.3 C 0 km/h
2080 28-02-2009 07:50:55 7.4 C 5.96 g/m*3 7.4 C 0 km/h
2081 28-02-2009 08:02:51 7.5 C 5.92 g/m*3 7.5 C 0 km/h
2082 28-02-2009 08:14:51 7.6 C 5.96 g/m*3 7.6 C 0 km/h
2083 28-02-2009 08:26:51 7.6 C 5.88 g/m*3 7.6 C 0 km/h
2084 28-02-2009 08:38:51 7.9 C 6 g/m*3 7.9 C 0 km/h
2085 28-02-2009 08:50:51 8 C 5.95 g/m*3 8 C 0 km/h
2086 28-02-2009 09:02:51 8.1 C 5.91 g/m*3 8.1 C 0 km/h
2087 28-02-2009 09:14:51 8.2 C 5.95 g/m*3 8.2 C 0 km/h
2088 28-02-2009 09:26:51 9 C 5.91 g/m*3 9 C 0 km/h
2089 28-02-2009 09:38:51 9.5 C 5.83 g/m*3 9.5 C 0 km/h
2090 28-02-2009 09:50:51 9.3 C 5.75 g/m*3 9.3 C 0 km/h
2091 28-02-2009 10:02:51 9.3 C 5.75 g/m*3 9.3 C 0 km/h
2092 28-02-2009 10:14:50 9.7 C 5.81 g/m*3 9.7 C 0 km/h
2093 28-02-2009 10:26:50 9.8 C 5.75 g/m*3 9.8 C 0 km/h
2094 28-02-2009 10:38:50 9.7 C 5.81 g/m*3 9.7 C 0 km/h
2095 28-02-2009 10:50:50 9.8 C 5.75 g/m*3 9.8 C 0 km/h
2096 28-02-2009 11:02:50 9.9 C 5.79 g/m*3 9.9 C 0 km/h
2097 28-02-2009 11:14:49 10.1 C 5.77 g/m*3 10.1 C 0 km/h
2098 28-02-2009 11:26:49 10.8 C 5.83 g/m*3 10.8 C 0 km/h
2099 28-02-2009 11:38:50 11.2 C 5.78 g/m*3 11.2 C 0 km/h
2100 28-02-2009 11:50:49 10.7 C 5.8 g/m*3 10.7 C 0 km/h
Sensor: Nr:Datum:Temp:Abs-Feuchte:Windchill:Wind:
Aussen-T/F 2101 28-02-2009 12:02:49 10.3 C 5.75 g/m*3 10.3 C 0 km/h
2102 28-02-2009 12:14:50 10.3 C 5.84 g/m*3 10.3 C 0 km/h
2103 28-02-2009 12:26:50 11 C 5.81 g/m*3 11 C 0 km/h
2104 28-02-2009 12:38:49 11.4 C 5.75 g/m*3 11.4 C 0 km/h
2105 28-02-2009 12:50:49 12 C 5.75 g/m*3 12 C 0 km/h
2106 28-02-2009 13:02:49 12.2 C 5.61 g/m*3 12.2 C 0 km/h
2107 28-02-2009 13:14:49 12.4 C 5.46 g/m*3 12.4 C 0 km/h
2108 28-02-2009 13:26:49 12.7 C 5.57 g/m*3 12.7 C 0 km/h
2109 28-02-2009 13:38:49 13.5 C 5.5 g/m*3 13.5 C 0 km/h
2110 28-02-2009 13:50:49 13.9 C 5.39 g/m*3 13.9 C 0 km/h
2111 28-02-2009 14:02:48 14.2 C 5.13 g/m*3 14.2 C 0 km/h
2112 28-02-2009 14:14:48 14.3 C 5.16 g/m*3 14.3 C 0 km/h
2113 28-02-2009 14:26:49 14 C 5.19 g/m*3 14 C 0 km/h
2114 28-02-2009 14:38:47 14.2 C 5.01 g/m*3 14.2 C 0 km/h
2115 28-02-2009 14:50:48 14.9 C 4.84 g/m*3 14.9 C 0 km/h
2116 28-02-2009 15:02:47 15.3 C 4.7 g/m*3 15.3 C 0 km/h
2117 28-02-2009 15:14:47 16.1 C 4.8 g/m*3 16.1 C 0 km/h
2118 28-02-2009 15:26:47 16.8 C 4.86 g/m*3 16.8 C 0 km/h
2119 28-02-2009 15:38:48 18 C 4.76 g/m*3 18 C 0 km/h
2120 28-02-2009 15:50:47 18.1 C 4.79 g/m*3 18.1 C 0 km/h
2121 28-02-2009 16:02:47 17.6 C 4.95 g/m*3 17.6 C 0 km/h
2122 28-02-2009 16:14:47 16.8 C 5.15 g/m*3 16.8 C 0 km/h
2123 28-02-2009 16:26:47 16.6 C 5.23 g/m*3 16.6 C 0 km/h
2124 28-02-2009 16:38:47 16.1 C 5.21 g/m*3 16.1 C 0 km/h
2125 28-02-2009 16:50:47 15.6 C 5.32 g/m*3 15.6 C 0 km/h
Sensor: Nr:Datum:Temp:Abs-Feuchte:Windchill:Wind:
Aussen-T/F 2126 28-02-2009 17:02:48 15.2 C 5.32 g/m*3 15.2 C 0 km/h
2127 28-02-2009 17:14:46 15 C 5.39 g/m*3 15 C 0 km/h
2128 28-02-2009 17:26:46 14.7 C 5.79 g/m*3 14.7 C 0 km/h
2129 28-02-2009 17:38:47 14.3 C 5.77 g/m*3 14.3 C 0 km/h
2130 28-02-2009 17:50:46 13.8 C 5.84 g/m*3 13.8 C 0 km/h
2131 28-02-2009 18:02:46 13.4 C 5.81 g/m*3 13.4 C 0 km/h
2132 28-02-2009 18:14:46 12.9 C 5.86 g/m*3 12.9 C 0 km/h
2133 28-02-2009 18:26:46 12.2 C 5.83 g/m*3 12.2 C 0 km/h
2134 28-02-2009 18:38:46 12 C 5.86 g/m*3 12 C 0 km/h
2135 28-02-2009 18:50:45 11.7 C 5.86 g/m*3 11.7 C 0 km/h
2136 28-02-2009 19:02:45 11.6 C 5.82 g/m*3 11.6 C 0 km/h
2137 28-02-2009 19:14:46 11.4 C 5.75 g/m*3 11.4 C 0 km/h
2138 28-02-2009 19:26:46 11.2 C 5.78 g/m*3 11.2 C 0 km/h
2139 28-02-2009 19:38:45 11.1 C 5.74 g/m*3 11.1 C 0 km/h
2140 28-02-2009 19:50:44 11 C 5.71 g/m*3 11 C 0 km/h
2141 28-02-2009 20:02:45 10.7 C 5.8 g/m*3 10.7 C 0 km/h
2142 28-02-2009 20:14:45 10.2 C 5.71 g/m*3 10.2 C 0 km/h
2143 28-02-2009 20:26:45 10 C 5.73 g/m*3 10 C 0 km/h
2144 28-02-2009 20:38:44 9.7 C 5.81 g/m*3 9.7 C 0 km/h
2145 28-02-2009 20:50:45 9.6 C 5.77 g/m*3 9.6 C 0 km/h
2146 28-02-2009 21:02:44 9.5 C 5.83 g/m*3 9.5 C 0 km/h
2147 28-02-2009 21:14:45 9.4 C 5.88 g/m*3 9.4 C 0 km/h
2148 28-02-2009 21:26:45 9.2 C 5.8 g/m*3 9.2 C 0 km/h
2149 28-02-2009 21:38:44 9.1 C 5.86 g/m*3 9.1 C 0 km/h
2150 28-02-2009 21:50:44 8.8 C 5.83 g/m*3 8.8 C 0 km/h
Sensor: Nr:Datum:Temp:Abs-Feuchte:Windchill:Wind:
Aussen-T/F 2151 28-02-2009 22:02:44 8.7 C 5.88 g/m*3 8.7 C 0 km/h
2152 28-02-2009 22:14:44 8.7 C 5.97 g/m*3 8.7 C 0 km/h
2153 28-02-2009 22:26:44 8.7 C 5.97 g/m*3 8.7 C 0 km/h
2154 28-02-2009 22:38:43 8.4 C 5.85 g/m*3 8.4 C 0 km/h
2155 28-02-2009 22:51:44 8.2 C 5.86 g/m*3 8.2 C 0 km/h
2156 28-02-2009 23:03:44 7.9 C 5.91 g/m*3 7.9 C 0 km/h
2157 28-02-2009 23:15:44 7.7 C 5.84 g/m*3 7.7 C 0 km/h
2158 28-02-2009 23:27:44 7.5 C 5.84 g/m*3 7.5 C 0 km/h
2159 28-02-2009 23:39:44 7.4 C 5.88 g/m*3 7.4 C 0 km/h
2160 28-02-2009 23:51:45 7.2 C 5.81 g/m*3 7.2 C 0 km/h
2161 01-03-2009 00:03:45 7.1 C 5.85 g/m*3 7.1 C 0 km/h
2162 01-03-2009 00:15:45 7 C 5.81 g/m*3 7 C 0 km/h
2163 01-03-2009 00:27:45 7.4 C 6.12 g/m*3 7.4 C 0 km/h
2164 01-03-2009 00:39:45 7.7 C 6.16 g/m*3 7.7 C 0 km/h
2165 01-03-2009 00:51:45 7.7 C 6.08 g/m*3 7.7 C 0 km/h
2166 01-03-2009 01:03:45 7.5 C 5.92 g/m*3 7.5 C 0 km/h
2167 01-03-2009 01:15:45 7.6 C 5.96 g/m*3 7.6 C 0 km/h
2168 01-03-2009 01:27:45 7.7 C 6 g/m*3 7.7 C 0 km/h
2169 01-03-2009 01:39:45 7.8 C 6.04 g/m*3 7.8 C 0 km/h
2170 01-03-2009 01:51:45 7.9 C 6.08 g/m*3 7.9 C 0 km/h
2171 01-03-2009 02:03:45 7.8 C 5.96 g/m*3 7.8 C 0 km/h
2172 01-03-2009 02:15:45 7.8 C 5.96 g/m*3 7.8 C 0 km/h
2173 01-03-2009 02:27:45 7.9 C 6 g/m*3 7.9 C 0 km/h
2174 01-03-2009 02:39:45 7.7 C 5.92 g/m*3 7.7 C 0 km/h
2175 01-03-2009 02:51:45 7.6 C 5.88 g/m*3 7.6 C 0 km/h
Sensor: Nr:Datum:Temp:Abs-Feuchte:Windchill:Wind:
Aussen-T/F 2176 01-03-2009 03:03:45 7.5 C 5.84 g/m*3 7.5 C 0 km/h
2177 01-03-2009 03:15:45 7.2 C 5.81 g/m*3 7.2 C 0 km/h
2178 01-03-2009 03:27:45 6.8 C 5.74 g/m*3 6.8 C 0 km/h
2179 01-03-2009 03:39:46 6.7 C 5.85 g/m*3 6.7 C 0 km/h
2180 01-03-2009 03:51:46 6.5 C 5.85 g/m*3 6.5 C 0 km/h
2181 01-03-2009 04:03:46 6.5 C 5.85 g/m*3 6.5 C 0 km/h
2182 01-03-2009 04:15:46 6.3 C 5.77 g/m*3 6.3 C 0 km/h
2183 01-03-2009 04:27:46 6.2 C 5.74 g/m*3 6.2 C 0 km/h
2184 01-03-2009 04:39:46 6.2 C 5.81 g/m*3 6.2 C 0 km/h
2185 01-03-2009 04:51:46 6 C 5.66 g/m*3 6 C 0 km/h
2186 01-03-2009 05:03:46 6 C 5.73 g/m*3 6 C 0 km/h
2187 01-03-2009 05:15:46 6.4 C 5.96 g/m*3 6.4 C 0 km/h
2188 01-03-2009 05:27:46 6.4 C 5.96 g/m*3 6.4 C 0 km/h
2189 01-03-2009 05:39:46 6.4 C 5.89 g/m*3 6.4 C 0 km/h
2190 01-03-2009 05:51:46 6.3 C 5.77 g/m*3 6.3 C 0 km/h
2191 01-03-2009 06:03:46 6.3 C 5.85 g/m*3 6.3 C 0 km/h
2192 01-03-2009 06:15:46 6.5 C 5.92 g/m*3 6.5 C 0 km/h
2193 01-03-2009 06:27:46 6.6 C 5.96 g/m*3 6.6 C 0 km/h
2194 01-03-2009 06:39:46 6.7 C 6 g/m*3 6.7 C 0 km/h
2195 01-03-2009 06:51:46 6.8 C 6.04 g/m*3 6.8 C 0 km/h
2196 01-03-2009 07:03:46 6.8 C 6.04 g/m*3 6.8 C 0 km/h
2197 01-03-2009 07:15:46 6.9 C 6 g/m*3 6.9 C 0 km/h
2198 01-03-2009 07:27:47 6.8 C 5.97 g/m*3 6.8 C 0 km/h
2199 01-03-2009 07:39:47 6.9 C 6 g/m*3 6.9 C 0 km/h
2200 01-03-2009 07:51:47 7 C 5.97 g/m*3 7 C 0 km/h
Sensor: Nr:Datum:Temp:Abs-Feuchte:Windchill:Wind:
Aussen-T/F 2201 01-03-2009 08:03:47 7.2 C 6.04 g/m*3 7.2 C 0 km/h
2202 01-03-2009 08:15:47 7.4 C 6.04 g/m*3 7.4 C 0 km/h
2203 01-03-2009 08:27:47 7.6 C 6.04 g/m*3 7.6 C 0 km/h
2204 01-03-2009 08:39:47 7.8 C 6.12 g/m*3 7.8 C 0 km/h
2205 01-03-2009 08:51:47 7.9 C 6 g/m*3 7.9 C 0 km/h
2206 01-03-2009 09:03:43 8 C 5.87 g/m*3 8 C 0 km/h
2207 01-03-2009 09:15:44 8.1 C 5.74 g/m*3 8.1 C 0 km/h
2208 01-03-2009 09:27:44 8.4 C 5.85 g/m*3 8.4 C 0 km/h
2209 01-03-2009 09:39:44 8.6 C 5.76 g/m*3 8.6 C 0 km/h
2210 01-03-2009 09:51:43 8.7 C 5.62 g/m*3 8.7 C 0 km/h
2211 01-03-2009 10:03:43 9.1 C 5.68 g/m*3 9.1 C 0 km/h
2212 01-03-2009 10:15:43 9.3 C 5.66 g/m*3 9.3 C 0 km/h
2213 01-03-2009 10:27:43 9.6 C 5.59 g/m*3 9.6 C 0 km/h
2214 01-03-2009 10:39:43 10 C 5.45 g/m*3 10 C 0 km/h
2215 01-03-2009 10:51:43 10.1 C 5.48 g/m*3 10.1 C 0 km/h
2216 01-03-2009 11:03:43 10.7 C 5.4 g/m*3 10.7 C 0 km/h
2217 01-03-2009 11:15:42 10.5 C 5.43 g/m*3 10.5 C 0 km/h
2218 01-03-2009 11:27:42 10.6 C 5.37 g/m*3 10.6 C 0 km/h
2219 01-03-2009 11:39:42 10.9 C 5.37 g/m*3 10.9 C 0 km/h
2220 01-03-2009 11:51:42 11.5 C 5.47 g/m*3 11.5 C 0 km/h
2221 01-03-2009 12:03:42 11.7 C 5.33 g/m*3 11.7 C 0 km/h
2222 01-03-2009 12:15:42 11.8 C 5.26 g/m*3 11.8 C 0 km/h
2223 01-03-2009 12:27:42 11.6 C 5.2 g/m*3 11.6 C 0 km/h
2224 01-03-2009 12:39:42 12.1 C 5.15 g/m*3 12.1 C 0 km/h
2225 01-03-2009 12:51:42 12.8 C 5.15 g/m*3 12.8 C 0 km/h
Sensor: Nr:Datum:Temp:Abs-Feuchte:Windchill:Wind:
Aussen-T/F 2226 01-03-2009 13:03:41 13.3 C 5.08 g/m*3 13.3 C 0 km/h
2227 01-03-2009 13:15:42 13.5 C 5.03 g/m*3 13.5 C 0 km/h
2228 01-03-2009 13:27:42 13.8 C 5.12 g/m*3 13.8 C 0 km/h
2229 01-03-2009 13:39:41 13.3 C 4.97 g/m*3 13.3 C 0 km/h
2230 01-03-2009 13:51:41 13.6 C 5.06 g/m*3 13.6 C 0 km/h
2231 01-03-2009 14:03:41 13.9 C 5.15 g/m*3 13.9 C 0 km/h
2232 01-03-2009 14:15:41 13.9 C 5.04 g/m*3 13.9 C 0 km/h
2233 01-03-2009 14:27:41 13.9 C 5.04 g/m*3 13.9 C 0 km/h
2234 01-03-2009 14:39:41 13.9 C 5.04 g/m*3 13.9 C 0 km/h
2235 01-03-2009 14:51:41 14.2 C 5.01 g/m*3 14.2 C 0 km/h
2236 01-03-2009 15:03:41 14.5 C 5.1 g/m*3 14.5 C 0 km/h
2237 01-03-2009 15:15:40 14.4 C 5.07 g/m*3 14.4 C 0 km/h
2238 01-03-2009 15:27:40 15.1 C 5.03 g/m*3 15.1 C 0 km/h
2239 01-03-2009 15:39:40 15.2 C 5.06 g/m*3 15.2 C 0 km/h
2240 01-03-2009 15:51:40 14.8 C 5.07 g/m*3 14.8 C 0 km/h
2241 01-03-2009 16:03:40 14.5 C 4.97 g/m*3 14.5 C 0 km/h
2242 01-03-2009 16:15:39 14.1 C 4.85 g/m*3 14.1 C 0 km/h
2243 01-03-2009 16:27:39 13.7 C 4.86 g/m*3 13.7 C 0 km/h
2244 01-03-2009 16:39:40 13.5 C 4.91 g/m*3 13.5 C 0 km/h
2245 01-03-2009 16:51:39 13.3 C 4.97 g/m*3 13.3 C 0 km/h
2246 01-03-2009 17:03:39 13.2 C 5.05 g/m*3 13.2 C 0 km/h
2247 01-03-2009 17:15:40 13 C 4.99 g/m*3 13 C 0 km/h
2248 01-03-2009 17:27:40 12.8 C 5.15 g/m*3 12.8 C 0 km/h
2249 01-03-2009 17:39:39 12.5 C 5.06 g/m*3 12.5 C 0 km/h
2250 01-03-2009 17:51:39 12.4 C 5.24 g/m*3 12.4 C 0 km/h
Sensor: Nr:Datum:Temp:Abs-Feuchte:Windchill:Wind:
Aussen-T/F 2251 01-03-2009 18:03:38 11.8 C 5.58 g/m*3 11.8 C 0 km/h
2252 01-03-2009 18:15:39 11.4 C 5.65 g/m*3 11.4 C 0 km/h
2253 01-03-2009 18:27:39 11.2 C 5.68 g/m*3 11.2 C 0 km/h
2254 01-03-2009 18:39:38 11.1 C 5.54 g/m*3 11.1 C 0 km/h
2255 01-03-2009 18:51:38 10.9 C 5.67 g/m*3 10.9 C 0 km/h
2256 01-03-2009 19:03:38 10.9 C 5.77 g/m*3 10.9 C 0 km/h
2257 01-03-2009 19:15:38 11 C 5.61 g/m*3 11 C 0 km/h
2258 01-03-2009 19:27:38 11 C 5.61 g/m*3 11 C 0 km/h
2259 01-03-2009 19:39:38 11.2 C 5.57 g/m*3 11.2 C 0 km/h
2260 01-03-2009 19:51:38 11.5 C 5.37 g/m*3 11.5 C 0 km/h
2261 01-03-2009 20:03:38 11.9 C 5.3 g/m*3 11.9 C 0 km/h
2262 01-03-2009 20:15:37 12 C 5.12 g/m*3 12 C 0 km/h
2263 01-03-2009 20:27:37 12 C 5.12 g/m*3 12 C 0 km/h
2264 01-03-2009 20:39:37 11.8 C 5.16 g/m*3 11.8 C 0 km/h
2265 01-03-2009 20:51:37 11.8 C 5.16 g/m*3 11.8 C 0 km/h
2266 01-03-2009 21:03:37 11.7 C 5.12 g/m*3 11.7 C 0 km/h
2267 01-03-2009 21:15:37 11.8 C 5.16 g/m*3 11.8 C 0 km/h
2268 01-03-2009 21:27:37 11.6 C 5.2 g/m*3 11.6 C 0 km/h
2269 01-03-2009 21:39:37 11.4 C 5.23 g/m*3 11.4 C 0 km/h
2270 01-03-2009 21:51:36 11.4 C 5.23 g/m*3 11.4 C 0 km/h
2271 01-03-2009 22:03:36 11.1 C 5.54 g/m*3 11.1 C 0 km/h
2272 01-03-2009 22:15:37 10.5 C 6.01 g/m*3 10.5 C 0 km/h
2273 01-03-2009 22:27:37 10.1 C 6.34 g/m*3 10.1 C 0 km/h
2274 01-03-2009 22:40:37 9.8 C 6.49 g/m*3 9.8 C 0 km/h
2275 01-03-2009 22:52:37 9.7 C 6.45 g/m*3 9.7 C 0 km/h
Sensor: Nr:Datum:Temp:Abs-Feuchte:Windchill:Wind:
Aussen-T/F 2276 01-03-2009 23:04:37 9.5 C 6.55 g/m*3 9.5 C 0 km/h
2277 01-03-2009 23:16:37 9.5 C 6.64 g/m*3 9.5 C 0 km/h
2278 01-03-2009 23:28:37 9.6 C 6.5 g/m*3 9.6 C 0 km/h
2279 01-03-2009 23:40:37 9.8 C 6.31 g/m*3 9.8 C 0 km/h
2280 01-03-2009 23:52:37 9.8 C 6.31 g/m*3 9.8 C 0 km/h
2281 02-03-2009 00:04:37 9.8 C 6.22 g/m*3 9.8 C 0 km/h
2282 02-03-2009 00:16:38 9.8 C 6.31 g/m*3 9.8 C 0 km/h
2283 02-03-2009 00:28:38 9.5 C 6.46 g/m*3 9.5 C 0 km/h
2284 02-03-2009 00:40:38 9.2 C 6.52 g/m*3 9.2 C 0 km/h
2285 02-03-2009 00:52:38 9.1 C 6.57 g/m*3 9.1 C 0 km/h
2286 02-03-2009 01:04:38 9.1 C 6.57 g/m*3 9.1 C 0 km/h
2287 02-03-2009 01:16:38 9.1 C 6.57 g/m*3 9.1 C 0 km/h
2288 02-03-2009 01:28:38 9.1 C 6.57 g/m*3 9.1 C 0 km/h
2289 02-03-2009 01:40:38 9.1 C 6.48 g/m*3 9.1 C 0 km/h
2290 02-03-2009 01:52:38 9 C 6.61 g/m*3 9 C 0 km/h
2291 02-03-2009 02:04:38 8.9 C 6.66 g/m*3 8.9 C 0 km/h
2292 02-03-2009 02:16:38 8.8 C 6.7 g/m*3 8.8 C 0 km/h
2293 02-03-2009 02:28:38 8.7 C 6.75 g/m*3 8.7 C 0 km/h
2294 02-03-2009 02:40:38 8.6 C 6.7 g/m*3 8.6 C 0 km/h
2295 02-03-2009 02:52:38 8.6 C 6.79 g/m*3 8.6 C 0 km/h
2296 02-03-2009 03:04:38 8.7 C 6.92 g/m*3 8.7 C 0 km/h
2297 02-03-2009 03:16:38 8.5 C 7 g/m*3 8.5 C 0 km/h
2298 02-03-2009 03:28:38 8.5 C 7 g/m*3 8.5 C 0 km/h
2299 02-03-2009 03:40:38 8.5 C 7.09 g/m*3 8.5 C 0 km/h
2300 02-03-2009 03:52:38 8.4 C 7.04 g/m*3 8.4 C 0 km/h
Sensor: Nr:Datum:Temp:Abs-Feuchte:Windchill:Wind:
Aussen-T/F 2301 02-03-2009 04:04:39 8.4 C 7.13 g/m*3 8.4 C 0 km/h
2302 02-03-2009 04:16:39 8.4 C 7.21 g/m*3 8.4 C 0 km/h
2303 02-03-2009 04:28:39 8.3 C 7.25 g/m*3 8.3 C 0 km/h
2304 02-03-2009 04:40:39 8.3 C 7.25 g/m*3 8.3 C 0 km/h
2305 02-03-2009 04:52:39 8.3 C 7.33 g/m*3 8.3 C 0 km/h
2306 02-03-2009 05:04:39 8.2 C 7.29 g/m*3 8.2 C 0 km/h
2307 02-03-2009 05:16:39 8.2 C 7.29 g/m*3 8.2 C 0 km/h
2308 02-03-2009 05:28:39 8.2 C 7.29 g/m*3 8.2 C 0 km/h
2309 02-03-2009 05:40:39 8.1 C 7.24 g/m*3 8.1 C 0 km/h
2310 02-03-2009 05:52:39 8.1 C 7.16 g/m*3 8.1 C 0 km/h
2311 02-03-2009 06:04:39 8.2 C 7.2 g/m*3 8.2 C 0 km/h
2312 02-03-2009 06:16:39 8.2 C 7.12 g/m*3 8.2 C 0 km/h
2313 02-03-2009 06:28:39 8.2 C 7.12 g/m*3 8.2 C 0 km/h
2314 02-03-2009 06:40:39 8.1 C 7.07 g/m*3 8.1 C 0 km/h
2315 02-03-2009 06:52:39 8.2 C 7.12 g/m*3 8.2 C 0 km/h
2316 02-03-2009 07:04:37 8.2 C 7.2 g/m*3 8.2 C 0 km/h
2317 02-03-2009 07:16:37 8.4 C 7.21 g/m*3 8.4 C 0 km/h
2318 02-03-2009 07:28:37 8.4 C 7.13 g/m*3 8.4 C 0 km/h
2319 02-03-2009 07:40:37 8.4 C 7.04 g/m*3 8.4 C 0 km/h
2320 02-03-2009 07:52:38 8.3 C 6.91 g/m*3 8.3 C 0 km/h
2321 02-03-2009 08:04:37 8.3 C 7 g/m*3 8.3 C 0 km/h
2322 02-03-2009 08:16:36 8.3 C 7 g/m*3 8.3 C 0 km/h
2323 02-03-2009 08:28:37 8.2 C 7.03 g/m*3 8.2 C 0 km/h
2324 02-03-2009 08:40:36 8.2 C 7.03 g/m*3 8.2 C 0 km/h
2325 02-03-2009 08:52:36 8.1 C 6.99 g/m*3 8.1 C 0 km/h
Sensor: Nr:Datum:Temp:Abs-Feuchte:Windchill:Wind:
Aussen-T/F 2326 02-03-2009 09:04:36 8.1 C 7.07 g/m*3 8.1 C 0 km/h
2327 02-03-2009 09:16:35 8.1 C 7.07 g/m*3 8.1 C 0 km/h
2328 02-03-2009 09:28:35 8.1 C 7.07 g/m*3 8.1 C 0 km/h
2329 02-03-2009 09:40:36 8.1 C 7.16 g/m*3 8.1 C 0 km/h
2330 02-03-2009 09:52:35 8.1 C 7.16 g/m*3 8.1 C 0 km/h
2331 02-03-2009 10:04:35 8.1 C 7.24 g/m*3 8.1 C 0 km/h
2332 02-03-2009 10:16:36 8.2 C 7.29 g/m*3 8.2 C 0 km/h
2333 02-03-2009 10:28:36 8 C 7.19 g/m*3 8 C 0 km/h
2334 02-03-2009 10:40:35 8.1 C 7.07 g/m*3 8.1 C 0 km/h
2335 02-03-2009 10:52:35 8.2 C 7.03 g/m*3 8.2 C 0 km/h
2336 02-03-2009 11:04:35 8.2 C 6.95 g/m*3 8.2 C 0 km/h
2337 02-03-2009 11:16:35 8.1 C 6.82 g/m*3 8.1 C 0 km/h
2338 02-03-2009 11:28:35 8 C 6.7 g/m*3 8 C 0 km/h
2339 02-03-2009 11:40:34 8 C 6.7 g/m*3 8 C 0 km/h
2340 02-03-2009 11:52:35 8.2 C 6.87 g/m*3 8.2 C 0 km/h
2341 02-03-2009 12:04:34 8.6 C 6.96 g/m*3 8.6 C 0 km/h
2342 02-03-2009 12:16:34 8.8 C 6.7 g/m*3 8.8 C 0 km/h
2343 02-03-2009 12:28:34 8.9 C 6.31 g/m*3 8.9 C 0 km/h
2344 02-03-2009 12:40:34 8.7 C 6.05 g/m*3 8.7 C 0 km/h
2345 02-03-2009 12:52:34 9.5 C 6.1 g/m*3 9.5 C 0 km/h
2346 02-03-2009 13:04:34 9.2 C 5.45 g/m*3 9.2 C 0 km/h
2347 02-03-2009 13:16:33 9 C 5.2 g/m*3 9 C 0 km/h
2348 02-03-2009 13:28:33 9.3 C 5.3 g/m*3 9.3 C 0 km/h
2349 02-03-2009 13:40:34 9.8 C 5.38 g/m*3 9.8 C 0 km/h
2350 02-03-2009 13:52:33 10.6 C 5.08 g/m*3 10.6 C 0 km/h
Sensor: Nr:Datum:Temp:Abs-Feuchte:Windchill:Wind:
Aussen-T/F 2351 02-03-2009 14:04:33 10.1 C 4.54 g/m*3 10.1 C 0 km/h
2352 02-03-2009 14:16:33 10.2 C 4.57 g/m*3 10.2 C 0 km/h
2353 02-03-2009 14:28:33 10.7 C 4.62 g/m*3 10.7 C 0 km/h
2354 02-03-2009 14:40:33 10.4 C 4.43 g/m*3 10.4 C 0 km/h
2355 02-03-2009 14:52:32 10.4 C 4.53 g/m*3 10.4 C 0 km/h
2356 02-03-2009 15:04:33 10.3 C 4.31 g/m*3 10.3 C 0 km/h
2357 02-03-2009 15:16:33 10.3 C 4.31 g/m*3 10.3 C 0 km/h
2358 02-03-2009 15:28:33 10.2 C 4.28 g/m*3 10.2 C 0 km/h
2359 02-03-2009 15:40:32 10.8 C 4.45 g/m*3 10.8 C 0 km/h
2360 02-03-2009 15:52:32 10.7 C 4.42 g/m*3 10.7 C 0 km/h
2361 02-03-2009 16:04:32 10.5 C 4.27 g/m*3 10.5 C 0 km/h
2362 02-03-2009 16:16:32 10.3 C 4.31 g/m*3 10.3 C 0 km/h
2363 02-03-2009 16:28:33 10 C 4.32 g/m*3 10 C 0 km/h
2364 02-03-2009 16:40:31 10 C 4.32 g/m*3 10 C 0 km/h
2365 02-03-2009 16:52:32 9.8 C 4.36 g/m*3 9.8 C 0 km/h
2366 02-03-2009 17:04:31 9.7 C 4.61 g/m*3 9.7 C 0 km/h
2367 02-03-2009 17:16:31 9.5 C 4.55 g/m*3 9.5 C 0 km/h
2368 02-03-2009 17:28:31 9.2 C 4.46 g/m*3 9.2 C 0 km/h
2369 02-03-2009 17:40:32 8.9 C 4.56 g/m*3 8.9 C 0 km/h
2370 02-03-2009 17:52:31 8.5 C 4.53 g/m*3 8.5 C 0 km/h
2371 02-03-2009 18:04:31 8.3 C 4.55 g/m*3 8.3 C 0 km/h
2372 02-03-2009 18:16:31 8.1 C 4.66 g/m*3 8.1 C 0 km/h
2373 02-03-2009 18:28:31 7.8 C 4.65 g/m*3 7.8 C 0 km/h
2374 02-03-2009 18:40:30 7.8 C 4.65 g/m*3 7.8 C 0 km/h
2375 02-03-2009 18:52:31 7.5 C 4.64 g/m*3 7.5 C 0 km/h
Sensor: Nr:Datum:Temp:Abs-Feuchte:Windchill:Wind:
Aussen-T/F 2376 02-03-2009 19:04:30 7.6 C 4.59 g/m*3 7.6 C 0 km/h
2377 02-03-2009 19:16:30 7.5 C 4.48 g/m*3 7.5 C 0 km/h
2378 02-03-2009 19:28:30 7.3 C 4.5 g/m*3 7.3 C 0 km/h
2379 02-03-2009 19:40:30 7.1 C 4.52 g/m*3 7.1 C 0 km/h
2380 02-03-2009 19:52:30 6.8 C 4.51 g/m*3 6.8 C 0 km/h
2381 02-03-2009 20:04:29 6.4 C 4.47 g/m*3 6.4 C 0 km/h
2382 02-03-2009 20:16:30 6 C 4.43 g/m*3 6 C 0 km/h
2383 02-03-2009 20:28:30 5.8 C 4.51 g/m*3 5.8 C 0 km/h
2384 02-03-2009 20:40:30 5.4 C 4.4 g/m*3 5.4 C 0 km/h
2385 02-03-2009 20:52:29 5.1 C 4.45 g/m*3 5.1 C 0 km/h
2386 02-03-2009 21:04:29 4.8 C 4.49 g/m*3 4.8 C 0 km/h
2387 02-03-2009 21:16:29 4.6 C 4.5 g/m*3 4.6 C 0 km/h
2388 02-03-2009 21:28:29 4.4 C 4.51 g/m*3 4.4 C 0 km/h
2389 02-03-2009 21:40:29 4.1 C 4.48 g/m*3 4.1 C 0 km/h
2390 02-03-2009 21:52:29 3.9 C 4.55 g/m*3 3.9 C 0 km/h
2391 02-03-2009 22:04:29 3.7 C 4.55 g/m*3 3.7 C 0 km/h
2392 02-03-2009 22:16:28 3.7 C 4.55 g/m*3 3.7 C 0 km/h
2393 02-03-2009 22:28:28 3.5 C 4.55 g/m*3 3.5 C 0 km/h
2394 02-03-2009 22:40:29 3.4 C 4.52 g/m*3 3.4 C 0 km/h
2395 02-03-2009 22:53:29 3 C 4.52 g/m*3 3 C 0 km/h
2396 02-03-2009 23:05:29 2.8 C 4.58 g/m*3 2.8 C 0 km/h
2397 02-03-2009 23:17:29 2.7 C 4.54 g/m*3 2.7 C 0 km/h
2398 02-03-2009 23:29:29 2.9 C 4.72 g/m*3 2.9 C 0 km/h
2399 02-03-2009 23:41:29 3.1 C 4.73 g/m*3 3.1 C 0 km/h
2400 02-03-2009 23:53:29 2.8 C 4.63 g/m*3 2.8 C 0 km/h
Sensor: Nr:Datum:Temp:Abs-Feuchte:Windchill:Wind:
Aussen-T/F 2401 03-03-2009 00:05:29 2.6 C 4.57 g/m*3 2.6 C 0 km/h
2402 03-03-2009 00:17:30 2.9 C 4.67 g/m*3 2.9 C 0 km/h
2403 03-03-2009 00:29:30 3.1 C 4.61 g/m*3 3.1 C 0 km/h
2404 03-03-2009 00:41:30 3 C 4.52 g/m*3 3 C 0 km/h
2405 03-03-2009 00:53:30 2.9 C 4.55 g/m*3 2.9 C 0 km/h
2406 03-03-2009 01:05:30 3 C 4.52 g/m*3 3 C 0 km/h
2407 03-03-2009 01:17:30 3 C 4.46 g/m*3 3 C 0 km/h
2408 03-03-2009 01:29:30 3.1 C 4.43 g/m*3 3.1 C 0 km/h
2409 03-03-2009 01:41:30 3 C 4.4 g/m*3 3 C 0 km/h
2410 03-03-2009 01:53:30 2.8 C 4.4 g/m*3 2.8 C 0 km/h
2411 03-03-2009 02:05:30 2.6 C 4.34 g/m*3 2.6 C 0 km/h
2412 03-03-2009 02:17:30 2.4 C 4.28 g/m*3 2.4 C 0 km/h
2413 03-03-2009 02:29:30 2.3 C 4.31 g/m*3 2.3 C 0 km/h
2414 03-03-2009 02:41:30 2.2 C 4.28 g/m*3 2.2 C 0 km/h
2415 03-03-2009 02:53:30 2.1 C 4.36 g/m*3 2.1 C 0 km/h
2416 03-03-2009 03:05:30 1.9 C 4.42 g/m*3 1.9 C 0 km/h
2417 03-03-2009 03:17:30 1.6 C 4.27 g/m*3 1.6 C 0 km/h
2418 03-03-2009 03:29:30 1.5 C 4.3 g/m*3 1.5 C 0 km/h
2419 03-03-2009 03:41:30 1.5 C 4.35 g/m*3 1.5 C 0 km/h
2420 03-03-2009 03:53:30 1.2 C 4.31 g/m*3 1.2 C 0 km/h
2421 03-03-2009 04:05:31 1.2 C 4.31 g/m*3 1.2 C 0 km/h
2422 03-03-2009 04:17:31 1.5 C 4.46 g/m*3 1.5 C 0 km/h
2423 03-03-2009 04:29:31 1.4 C 4.43 g/m*3 1.4 C 0 km/h
2424 03-03-2009 04:41:31 1.3 C 4.4 g/m*3 1.3 C 0 km/h
2425 03-03-2009 04:53:31 1 C 4.26 g/m*3 1 C 0 km/h
Sensor: Nr:Datum:Temp:Abs-Feuchte:Windchill:Wind:
Aussen-T/F 2426 03-03-2009 05:05:31 0.7 C 4.22 g/m*3 0.7 C 0 km/h
2427 03-03-2009 05:17:31 0.5 C 4.16 g/m*3 0.5 C 0 km/h
2428 03-03-2009 05:29:31 0.3 C 4.11 g/m*3 0.3 C 0 km/h
2429 03-03-2009 05:41:31 0.3 C 4.11 g/m*3 0.3 C 0 km/h
2430 03-03-2009 05:53:31 0.1 C 4.1 g/m*3 0.1 C 0 km/h
2431 03-03-2009 06:05:31 0 C 4.07 g/m*3 0 C 0 km/h
2432 03-03-2009 06:17:31 -0.1 C 4.04 g/m*3 -0.1 C 0 km/h
2433 03-03-2009 06:29:31 0 C 4.07 g/m*3 0 C 0 km/h
2434 03-03-2009 06:41:31 -0.1 C 4.04 g/m*3 -0.1 C 0 km/h
2435 03-03-2009 06:53:31 -0.2 C 4.01 g/m*3 -0.2 C 0 km/h
2436 03-03-2009 07:05:29 -0.3 C 3.99 g/m*3 -0.3 C 0 km/h
2437 03-03-2009 07:17:28 -0.4 C 3.96 g/m*3 -0.4 C 0 km/h
2438 03-03-2009 07:29:28 -0.4 C 3.96 g/m*3 -0.4 C 0 km/h
2439 03-03-2009 07:41:29 -0.4 C 4.01 g/m*3 -0.4 C 0 km/h
2440 03-03-2009 07:53:28 -0.4 C 4.01 g/m*3 -0.4 C 0 km/h
2441 03-03-2009 08:05:28 -0.3 C 4.03 g/m*3 -0.3 C 0 km/h
2442 03-03-2009 08:17:28 -0.2 C 4.11 g/m*3 -0.2 C 0 km/h
2443 03-03-2009 08:29:28 -0.1 C 4.14 g/m*3 -0.1 C 0 km/h
2444 03-03-2009 08:41:28 0.1 C 4.24 g/m*3 0.1 C 0 km/h
2445 03-03-2009 08:53:27 0.4 C 4.33 g/m*3 0.4 C 0 km/h
2446 03-03-2009 09:05:28 0.9 C 4.48 g/m*3 0.9 C 0 km/h
2447 03-03-2009 09:17:27 1.2 C 4.47 g/m*3 1.2 C 0 km/h
2448 03-03-2009 09:29:27 1.2 C 4.42 g/m*3 1.2 C 0 km/h
2449 03-03-2009 09:41:28 1.3 C 4.4 g/m*3 1.3 C 0 km/h
2450 03-03-2009 09:53:27 1.7 C 4.52 g/m*3 1.7 C 0 km/h
Sensor: Nr:Datum:Temp:Abs-Feuchte:Windchill:Wind:
Aussen-T/F 2451 03-03-2009 10:05:27 2.1 C 4.59 g/m*3 2.1 C 0 km/h
2452 03-03-2009 10:17:27 2.6 C 4.69 g/m*3 2.6 C 0 km/h
2453 03-03-2009 10:29:27 3.1 C 4.79 g/m*3 3.1 C 0 km/h
2454 03-03-2009 10:41:27 3.7 C 4.8 g/m*3 3.7 C 0 km/h
2455 03-03-2009 10:53:27 4.3 C 4.8 g/m*3 4.3 C 0 km/h
2456 03-03-2009 11:05:26 5 C 4.62 g/m*3 5 C 0 km/h
2457 03-03-2009 11:17:27 5.3 C 4.71 g/m*3 5.3 C 0 km/h
2458 03-03-2009 11:29:27 6.4 C 4.4 g/m*3 6.4 C 0 km/h
2459 03-03-2009 11:41:26 6.7 C 4.41 g/m*3 6.7 C 0 km/h
2460 03-03-2009 11:53:26 7.2 C 4.32 g/m*3 7.2 C 0 km/h
2461 03-03-2009 12:05:26 7.6 C 4.27 g/m*3 7.6 C 0 km/h
2462 03-03-2009 12:17:27 8 C 4.13 g/m*3 8 C 0 km/h
2463 03-03-2009 12:29:27 8.2 C 3.85 g/m*3 8.2 C 0 km/h
2464 03-03-2009 12:41:26 8.7 C 3.89 g/m*3 8.7 C 0 km/h
2465 03-03-2009 12:53:26 9 C 3.61 g/m*3 9 C 0 km/h
2466 03-03-2009 13:05:26 9.3 C 3.5 g/m*3 9.3 C 0 km/h
2467 03-03-2009 13:17:25 9.6 C 3.21 g/m*3 9.6 C 0 km/h
2468 03-03-2009 13:29:25 9.8 C 3.06 g/m*3 9.8 C 0 km/h
2469 03-03-2009 13:41:25 10.5 C 3.01 g/m*3 10.5 C 0 km/h
2470 03-03-2009 13:53:25 10.8 C 2.97 g/m*3 10.8 C 0 km/h
2471 03-03-2009 14:05:25 11.1 C 2.82 g/m*3 11.1 C 0 km/h
2472 03-03-2009 14:17:24 11 C 2.7 g/m*3 11 C 0 km/h
2473 03-03-2009 14:29:24 10.7 C 2.55 g/m*3 10.7 C 0 km/h
2474 03-03-2009 14:41:25 11 C 2.5 g/m*3 11 C 0 km/h
2475 03-03-2009 14:53:24 11.8 C 2.53 g/m*3 11.8 C 0 km/h
Sensor: Nr:Datum:Temp:Abs-Feuchte:Windchill:Wind:
Aussen-T/F 2476 03-03-2009 15:05:24 11.3 C 2.24 g/m*3 11.3 C 0 km/h
2477 03-03-2009 15:17:24 11 C 2.6 g/m*3 11 C 0 km/h
2478 03-03-2009 15:29:24 11.5 C 2.79 g/m*3 11.5 C 0 km/h
2479 03-03-2009 15:41:24 11.6 C 2.6 g/m*3 11.6 C 0 km/h
2480 03-03-2009 15:53:24 11.2 C 2.33 g/m*3 11.2 C 0 km/h
2481 03-03-2009 16:05:23 10.6 C 2.44 g/m*3 10.6 C 0 km/h
2482 03-03-2009 16:17:24 10.4 C 2.51 g/m*3 10.4 C 0 km/h
2483 03-03-2009 16:29:24 10.5 C 2.52 g/m*3 10.5 C 0 km/h
2484 03-03-2009 16:41:23 10.6 C 2.54 g/m*3 10.6 C 0 km/h
2485 03-03-2009 16:53:23 10.1 C 2.36 g/m*3 10.1 C 0 km/h
2486 03-03-2009 17:05:24 9.9 C 2.61 g/m*3 9.9 C 0 km/h
2487 03-03-2009 17:17:23 10.2 C 2.66 g/m*3 10.2 C 0 km/h
2488 03-03-2009 17:29:23 10.5 C 2.62 g/m*3 10.5 C 0 km/h
2489 03-03-2009 17:41:23 10.2 C 2.47 g/m*3 10.2 C 0 km/h
2490 03-03-2009 17:53:23 9.7 C 2.58 g/m*3 9.7 C 0 km/h
2491 03-03-2009 18:05:23 9.1 C 2.75 g/m*3 9.1 C 0 km/h
2492 03-03-2009 18:17:22 8.2 C 2.93 g/m*3 8.2 C 0 km/h
2493 03-03-2009 18:29:22 7.5 C 3.04 g/m*3 7.5 C 0 km/h
2494 03-03-2009 18:41:23 6.9 C 3.16 g/m*3 6.9 C 0 km/h
2495 03-03-2009 18:53:22 6.6 C 3.25 g/m*3 6.6 C 0 km/h
2496 03-03-2009 19:05:22 6.4 C 3.2 g/m*3 6.4 C 0 km/h
2497 03-03-2009 19:17:22 6.5 C 3.37 g/m*3 6.5 C 0 km/h
2498 03-03-2009 19:29:22 6.8 C 3.21 g/m*3 6.8 C 0 km/h
2499 03-03-2009 19:41:22 6.7 C 3.27 g/m*3 6.7 C 0 km/h
2500 03-03-2009 19:53:22 6.5 C 3.3 g/m*3 6.5 C 0 km/h
Sensor: Nr:Datum:Temp:Abs-Feuchte:Windchill:Wind:
Aussen-T/F 2501 03-03-2009 20:05:21 6.4 C 3.28 g/m*3 6.4 C 0 km/h
2502 03-03-2009 20:17:22 6.4 C 3.2 g/m*3 6.4 C 0 km/h
2503 03-03-2009 20:29:22 6.3 C 3.11 g/m*3 6.3 C 0 km/h
2504 03-03-2009 20:41:21 6.1 C 3.14 g/m*3 6.1 C 0 km/h
2505 03-03-2009 20:53:21 6.2 C 3.09 g/m*3 6.2 C 0 km/h
2506 03-03-2009 21:05:21 6.4 C 3.05 g/m*3 6.4 C 0 km/h
2507 03-03-2009 21:17:21 6 C 2.9 g/m*3 6 C 0 km/h
2508 03-03-2009 21:29:21 5.9 C 2.96 g/m*3 5.9 C 0 km/h
2509 03-03-2009 21:41:20 5.8 C 2.94 g/m*3 5.8 C 0 km/h
2510 03-03-2009 21:53:21 5.8 C 2.87 g/m*3 5.8 C 0 km/h
2511 03-03-2009 22:05:20 5.7 C 3.13 g/m*3 5.7 C 0 km/h
2512 03-03-2009 22:17:20 5.8 C 3.01 g/m*3 5.8 C 0 km/h
2513 03-03-2009 22:29:20 6 C 2.98 g/m*3 6 C 0 km/h
2514 03-03-2009 22:41:20 5.9 C 3.03 g/m*3 5.9 C 0 km/h
2515 03-03-2009 22:54:21 6 C 2.98 g/m*3 6 C 0 km/h
2516 03-03-2009 23:06:22 6.2 C 2.94 g/m*3 6.2 C 0 km/h
2517 03-03-2009 23:18:22 6.4 C 3.05 g/m*3 6.4 C 0 km/h
2518 03-03-2009 23:30:22 6.2 C 3.09 g/m*3 6.2 C 0 km/h
2519 03-03-2009 23:42:22 6.4 C 3.13 g/m*3 6.4 C 0 km/h
2520 03-03-2009 23:54:22 5.9 C 3.24 g/m*3 5.9 C 0 km/h
2521 04-03-2009 00:06:22 5.5 C 3.23 g/m*3 5.5 C 0 km/h
2522 04-03-2009 00:18:22 5 C 3.26 g/m*3 5 C 0 km/h
2523 04-03-2009 00:30:22 4.5 C 3.48 g/m*3 4.5 C 0 km/h
2524 04-03-2009 00:42:22 4.4 C 3.53 g/m*3 4.4 C 0 km/h
2525 04-03-2009 00:54:22 4.2 C 3.61 g/m*3 4.2 C 0 km/h
Sensor: Nr:Datum:Temp:Abs-Feuchte:Windchill:Wind:
Aussen-T/F 2526 04-03-2009 01:06:22 4.3 C 3.63 g/m*3 4.3 C 0 km/h
2527 04-03-2009 01:18:22 4.1 C 3.71 g/m*3 4.1 C 0 km/h
2528 04-03-2009 01:30:22 3.9 C 3.79 g/m*3 3.9 C 0 km/h
2529 04-03-2009 01:42:22 3.7 C 3.8 g/m*3 3.7 C 0 km/h
2530 04-03-2009 01:54:22 3.6 C 3.78 g/m*3 3.6 C 0 km/h
2531 04-03-2009 02:06:22 3.4 C 3.79 g/m*3 3.4 C 0 km/h
2532 04-03-2009 02:18:22 3.3 C 3.88 g/m*3 3.3 C 0 km/h
2533 04-03-2009 02:30:22 3.2 C 3.86 g/m*3 3.2 C 0 km/h
2534 04-03-2009 02:42:22 3.2 C 3.92 g/m*3 3.2 C 0 km/h
2535 04-03-2009 02:54:22 3.1 C 3.95 g/m*3 3.1 C 0 km/h
2536 04-03-2009 03:06:23 2.9 C 3.9 g/m*3 2.9 C 0 km/h
2537 04-03-2009 03:18:23 2.7 C 3.9 g/m*3 2.7 C 0 km/h
2538 04-03-2009 03:30:23 2.7 C 3.96 g/m*3 2.7 C 0 km/h
2539 04-03-2009 03:42:23 2.8 C 4.05 g/m*3 2.8 C 0 km/h
2540 04-03-2009 03:54:23 2.8 C 4.05 g/m*3 2.8 C 0 km/h
2541 04-03-2009 04:06:23 2.8 C 4.11 g/m*3 2.8 C 0 km/h
2542 04-03-2009 04:18:23 2.6 C 4.05 g/m*3 2.6 C 0 km/h
2543 04-03-2009 04:30:23 2.5 C 4.02 g/m*3 2.5 C 0 km/h
2544 04-03-2009 04:42:23 2.5 C 4.08 g/m*3 2.5 C 0 km/h
2545 04-03-2009 04:54:23 2.4 C 4.05 g/m*3 2.4 C 0 km/h
2546 04-03-2009 05:06:23 2.5 C 4.14 g/m*3 2.5 C 0 km/h
2547 04-03-2009 05:18:23 2.7 C 4.14 g/m*3 2.7 C 0 km/h
2548 04-03-2009 05:30:23 3 C 4.1 g/m*3 3 C 0 km/h
2549 04-03-2009 05:42:23 3.1 C 4.07 g/m*3 3.1 C 0 km/h
2550 04-03-2009 05:54:23 3.2 C 4.04 g/m*3 3.2 C 0 km/h
Sensor: Nr:Datum:Temp:Abs-Feuchte:Windchill:Wind:
Aussen-T/F 2551 04-03-2009 06:06:23 3.4 C 4.03 g/m*3 3.4 C 0 km/h
2552 04-03-2009 06:18:23 3.5 C 4.06 g/m*3 3.5 C 0 km/h
2553 04-03-2009 06:30:23 3.5 C 4 g/m*3 3.5 C 0 km/h
2554 04-03-2009 06:42:23 3.4 C 4.03 g/m*3 3.4 C 0 km/h
2555 04-03-2009 06:54:23 3.5 C 4 g/m*3 3.5 C 0 km/h
2556 04-03-2009 07:06:20 3.6 C 4.02 g/m*3 3.6 C 0 km/h
2557 04-03-2009 07:18:21 3.7 C 4.05 g/m*3 3.7 C 0 km/h
2558 04-03-2009 07:30:21 3.8 C 4.02 g/m*3 3.8 C 0 km/h
2559 04-03-2009 07:42:21 3.7 C 4.05 g/m*3 3.7 C 0 km/h
2560 04-03-2009 07:54:20 3.8 C 4.08 g/m*3 3.8 C 0 km/h
2561 04-03-2009 08:06:21 3.9 C 4.04 g/m*3 3.9 C 0 km/h
2562 04-03-2009 08:18:20 4 C 4.07 g/m*3 4 C 0 km/h
2563 04-03-2009 08:30:20 4.1 C 4.03 g/m*3 4.1 C 0 km/h
2564 04-03-2009 08:42:20 4.2 C 4.06 g/m*3 4.2 C 0 km/h
2565 04-03-2009 08:54:19 4.2 C 4.06 g/m*3 4.2 C 0 km/h
2566 04-03-2009 09:06:20 4.2 C 4.06 g/m*3 4.2 C 0 km/h
2567 04-03-2009 09:18:19 4 C 3.94 g/m*3 4 C 0 km/h
2568 04-03-2009 09:30:20 4.1 C 3.97 g/m*3 4.1 C 0 km/h
2569 04-03-2009 09:42:21 4.3 C 3.96 g/m*3 4.3 C 0 km/h
2570 04-03-2009 09:54:19 4.9 C 3.98 g/m*3 4.9 C 0 km/h
2571 04-03-2009 10:06:19 5.4 C 3.91 g/m*3 5.4 C 0 km/h
2572 04-03-2009 10:18:18 5.9 C 3.89 g/m*3 5.9 C 0 km/h
2573 04-03-2009 10:30:19 6.1 C 3.87 g/m*3 6.1 C 0 km/h
2574 04-03-2009 10:42:19 6.8 C 3.82 g/m*3 6.8 C 0 km/h
2575 04-03-2009 10:54:18 7.5 C 3.76 g/m*3 7.5 C 0 km/h
Sensor: Nr:Datum:Temp:Abs-Feuchte:Windchill:Wind:
Aussen-T/F 2576 04-03-2009 11:06:18 8 C 3.64 g/m*3 8 C 0 km/h
2577 04-03-2009 11:18:19 8.3 C 3.62 g/m*3 8.3 C 0 km/h
2578 04-03-2009 11:30:18 8.6 C 3.61 g/m*3 8.6 C 0 km/h
2579 04-03-2009 11:42:18 8.8 C 3.66 g/m*3 8.8 C 0 km/h
2580 04-03-2009 11:54:18 9.1 C 3.73 g/m*3 9.1 C 0 km/h
2581 04-03-2009 12:06:18 9.4 C 3.71 g/m*3 9.4 C 0 km/h
2582 04-03-2009 12:18:18 9.9 C 3.73 g/m*3 9.9 C 0 km/h
2583 04-03-2009 12:30:18 10.3 C 3.54 g/m*3 10.3 C 0 km/h
2584 04-03-2009 12:42:18 10.7 C 3.63 g/m*3 10.7 C 0 km/h
2585 04-03-2009 12:54:18 11.1 C 3.63 g/m*3 11.1 C 0 km/h
2586 04-03-2009 13:06:18 11.8 C 3.37 g/m*3 11.8 C 0 km/h
2587 04-03-2009 13:18:17 12.2 C 3.02 g/m*3 12.2 C 0 km/h
2588 04-03-2009 13:30:17 12.2 C 3.24 g/m*3 12.2 C 0 km/h
2589 04-03-2009 13:42:17 11.5 C 3.41 g/m*3 11.5 C 0 km/h
2590 04-03-2009 13:54:17 11.7 C 3.45 g/m*3 11.7 C 0 km/h
2591 04-03-2009 14:06:17 12 C 3.41 g/m*3 12 C 0 km/h
2592 04-03-2009 14:18:16 12.4 C 3.39 g/m*3 12.4 C 0 km/h
2593 04-03-2009 14:30:17 12.3 C 3.26 g/m*3 12.3 C 0 km/h
2594 04-03-2009 14:42:17 12.7 C 3.34 g/m*3 12.7 C 0 km/h
2595 04-03-2009 14:54:16 12.9 C 3.38 g/m*3 12.9 C 0 km/h
2596 04-03-2009 15:06:16 13 C 3.18 g/m*3 13 C 0 km/h
2597 04-03-2009 15:18:17 13.3 C 3.23 g/m*3 13.3 C 0 km/h
2598 04-03-2009 15:30:16 12.9 C 3.16 g/m*3 12.9 C 0 km/h
2599 04-03-2009 15:42:16 12.3 C 3.26 g/m*3 12.3 C 0 km/h
2600 04-03-2009 15:54:16 11.9 C 3.39 g/m*3 11.9 C 0 km/h
Sensor: Nr:Datum:Temp:Abs-Feuchte:Windchill:Wind:
Aussen-T/F 2601 04-03-2009 16:06:16 11.9 C 3.39 g/m*3 11.9 C 0 km/h
2602 04-03-2009 16:18:16 12.7 C 3.23 g/m*3 12.7 C 0 km/h
2603 04-03-2009 16:30:15 12.3 C 3.37 g/m*3 12.3 C 0 km/h
2604 04-03-2009 16:42:15 12.2 C 3.24 g/m*3 12.2 C 0 km/h
2605 04-03-2009 16:54:15 11.9 C 3.39 g/m*3 11.9 C 0 km/h
2606 04-03-2009 17:06:15 11.7 C 3.24 g/m*3 11.7 C 0 km/h
2607 04-03-2009 17:18:15 11.6 C 3.22 g/m*3 11.6 C 0 km/h
2608 04-03-2009 17:30:15 11.4 C 3.18 g/m*3 11.4 C 0 km/h
2609 04-03-2009 17:42:15 11.3 C 3.16 g/m*3 11.3 C 0 km/h
2610 04-03-2009 17:54:15 11.1 C 3.12 g/m*3 11.1 C 0 km/h
2611 04-03-2009 18:06:15 11 C 3.2 g/m*3 11 C 0 km/h
2612 04-03-2009 18:18:14 10.8 C 3.26 g/m*3 10.8 C 0 km/h
2613 04-03-2009 18:30:14 10.3 C 3.35 g/m*3 10.3 C 0 km/h
2614 04-03-2009 18:42:15 9.7 C 3.6 g/m*3 9.7 C 0 km/h
2615 04-03-2009 18:54:14 9 C 3.7 g/m*3 9 C 0 km/h
2616 04-03-2009 19:06:14 8.9 C 3.77 g/m*3 8.9 C 0 km/h
2617 04-03-2009 19:18:13 8.7 C 3.89 g/m*3 8.7 C 0 km/h
2618 04-03-2009 19:30:14 8.8 C 3.74 g/m*3 8.8 C 0 km/h
2619 04-03-2009 19:42:14 8.6 C 3.87 g/m*3 8.6 C 0 km/h
2620 04-03-2009 19:54:13 8.9 C 3.85 g/m*3 8.9 C 0 km/h
2621 04-03-2009 20:06:13 8.9 C 3.94 g/m*3 8.9 C 0 km/h
2622 04-03-2009 20:18:14 9 C 3.97 g/m*3 9 C 0 km/h
2623 04-03-2009 20:30:13 9 C 4.06 g/m*3 9 C 0 km/h
2624 04-03-2009 20:42:13 8.9 C 4.2 g/m*3 8.9 C 0 km/h
2625 04-03-2009 20:54:13 8.8 C 4.26 g/m*3 8.8 C 0 km/h
Sensor: Nr:Datum:Temp:Abs-Feuchte:Windchill:Wind:
Aussen-T/F 2626 04-03-2009 21:06:13 8.6 C 4.38 g/m*3 8.6 C 0 km/h
2627 04-03-2009 21:18:13 8.5 C 4.44 g/m*3 8.5 C 0 km/h
2628 04-03-2009 21:30:13 8.4 C 4.41 g/m*3 8.4 C 0 km/h
2629 04-03-2009 21:42:13 8.4 C 4.33 g/m*3 8.4 C 0 km/h
2630 04-03-2009 21:54:13 8.5 C 4.35 g/m*3 8.5 C 0 km/h
2631 04-03-2009 22:06:12 8.5 C 4.27 g/m*3 8.5 C 0 km/h
2632 04-03-2009 22:19:15 8.6 C 4.3 g/m*3 8.6 C 0 km/h
2633 04-03-2009 22:31:15 8.4 C 4.33 g/m*3 8.4 C 0 km/h
2634 04-03-2009 22:43:15 8.7 C 4.15 g/m*3 8.7 C 0 km/h
2635 04-03-2009 22:55:15 8.7 C 4.32 g/m*3 8.7 C 0 km/h
2636 04-03-2009 23:07:15 8.6 C 4.3 g/m*3 8.6 C 0 km/h
2637 04-03-2009 23:19:15 8.4 C 4.33 g/m*3 8.4 C 0 km/h
2638 04-03-2009 23:31:15 8.3 C 4.38 g/m*3 8.3 C 0 km/h
2639 04-03-2009 23:43:15 8.1 C 4.41 g/m*3 8.1 C 0 km/h
2640 04-03-2009 23:55:15 8 C 4.55 g/m*3 8 C 0 km/h
2641 05-03-2009 00:07:15 7.9 C 4.6 g/m*3 7.9 C 0 km/h
2642 05-03-2009 00:19:15 7.9 C 4.68 g/m*3 7.9 C 0 km/h
2643 05-03-2009 00:31:15 7.8 C 4.9 g/m*3 7.8 C 0 km/h
2644 05-03-2009 00:43:15 7.6 C 4.99 g/m*3 7.6 C 0 km/h
2645 05-03-2009 00:55:15 7.5 C 5.12 g/m*3 7.5 C 0 km/h
2646 05-03-2009 01:07:15 7.6 C 5.08 g/m*3 7.6 C 0 km/h
2647 05-03-2009 01:19:15 7.6 C 4.99 g/m*3 7.6 C 0 km/h
2648 05-03-2009 01:31:16 7.6 C 4.91 g/m*3 7.6 C 0 km/h
2649 05-03-2009 01:43:16 7.6 C 4.91 g/m*3 7.6 C 0 km/h
2650 05-03-2009 01:55:16 7.6 C 4.91 g/m*3 7.6 C 0 km/h
Sensor: Nr:Datum:Temp:Abs-Feuchte:Windchill:Wind:
Aussen-T/F 2651 05-03-2009 02:07:16 7.6 C 4.91 g/m*3 7.6 C 0 km/h
2652 05-03-2009 02:19:16 7.6 C 4.91 g/m*3 7.6 C 0 km/h
2653 05-03-2009 02:31:16 7.6 C 4.91 g/m*3 7.6 C 0 km/h
2654 05-03-2009 02:43:16 7.6 C 4.91 g/m*3 7.6 C 0 km/h
2655 05-03-2009 02:55:16 7.5 C 4.96 g/m*3 7.5 C 0 km/h
2656 05-03-2009 03:07:16 7.5 C 4.88 g/m*3 7.5 C 0 km/h
2657 05-03-2009 03:19:16 7.6 C 4.91 g/m*3 7.6 C 0 km/h
2658 05-03-2009 03:31:16 7.6 C 4.91 g/m*3 7.6 C 0 km/h
2659 05-03-2009 03:43:16 7.5 C 4.88 g/m*3 7.5 C 0 km/h
2660 05-03-2009 03:55:16 7.4 C 4.93 g/m*3 7.4 C 0 km/h
2661 05-03-2009 04:07:16 7.3 C 4.98 g/m*3 7.3 C 0 km/h
2662 05-03-2009 04:19:16 7.1 C 5.07 g/m*3 7.1 C 0 km/h
2663 05-03-2009 04:31:16 7.1 C 5.15 g/m*3 7.1 C 0 km/h
2664 05-03-2009 04:43:16 7 C 5.11 g/m*3 7 C 0 km/h
2665 05-03-2009 04:55:16 6.7 C 5.24 g/m*3 6.7 C 0 km/h
2666 05-03-2009 05:07:16 6.4 C 5.29 g/m*3 6.4 C 0 km/h
2667 05-03-2009 05:19:16 6.1 C 5.33 g/m*3 6.1 C 0 km/h
2668 05-03-2009 05:31:17 6 C 5.37 g/m*3 6 C 0 km/h
2669 05-03-2009 05:43:17 5.7 C 5.48 g/m*3 5.7 C 0 km/h
2670 05-03-2009 05:55:17 5.5 C 5.62 g/m*3 5.5 C 0 km/h
2671 05-03-2009 06:07:17 5.4 C 5.65 g/m*3 5.4 C 0 km/h
2672 05-03-2009 06:19:17 5.2 C 5.58 g/m*3 5.2 C 0 km/h
2673 05-03-2009 06:31:17 5.1 C 5.54 g/m*3 5.1 C 0 km/h
2674 05-03-2009 06:43:17 5 C 5.57 g/m*3 5 C 0 km/h
2675 05-03-2009 06:55:17 4.9 C 5.67 g/m*3 4.9 C 0 km/h
Sensor: Nr:Datum:Temp:Abs-Feuchte:Windchill:Wind:
Aussen-T/F 2676 05-03-2009 07:07:14 4.9 C 5.74 g/m*3 4.9 C 0 km/h
2677 05-03-2009 07:19:14 4.8 C 5.7 g/m*3 4.8 C 0 km/h
2678 05-03-2009 07:31:14 4.7 C 5.73 g/m*3 4.7 C 0 km/h
2679 05-03-2009 07:43:14 4.7 C 5.73 g/m*3 4.7 C 0 km/h
2680 05-03-2009 07:55:14 4.6 C 5.69 g/m*3 4.6 C 0 km/h
2681 05-03-2009 08:07:13 4.6 C 5.69 g/m*3 4.6 C 0 km/h
2682 05-03-2009 08:19:14 4.4 C 5.62 g/m*3 4.4 C 0 km/h
2683 05-03-2009 08:31:14 4.2 C 5.48 g/m*3 4.2 C 0 km/h
2684 05-03-2009 08:43:14 3.9 C 5.37 g/m*3 3.9 C 0 km/h
2685 05-03-2009 08:55:13 3.6 C 5.26 g/m*3 3.6 C 0 km/h
2686 05-03-2009 09:07:14 3.4 C 5.19 g/m*3 3.4 C 0 km/h
2687 05-03-2009 09:19:13 3.4 C 5.19 g/m*3 3.4 C 0 km/h
2688 05-03-2009 09:31:13 3.5 C 5.29 g/m*3 3.5 C 0 km/h
2689 05-03-2009 09:43:13 3.2 C 5.18 g/m*3 3.2 C 0 km/h
2690 05-03-2009 09:55:13 3.2 C 5.18 g/m*3 3.2 C 0 km/h
2691 05-03-2009 10:07:13 3.1 C 5.15 g/m*3 3.1 C 0 km/h
2692 05-03-2009 10:19:12 3 C 5.11 g/m*3 3 C 0 km/h
2693 05-03-2009 10:31:12 3.1 C 5.15 g/m*3 3.1 C 0 km/h
2694 05-03-2009 10:43:12 3.1 C 5.21 g/m*3 3.1 C 0 km/h
2695 05-03-2009 10:55:12 2.7 C 5.07 g/m*3 2.7 C 0 km/h
2696 05-03-2009 11:07:12 2.7 C 5.07 g/m*3 2.7 C 0 km/h
2697 05-03-2009 11:19:12 2.6 C 5.03 g/m*3 2.6 C 0 km/h
2698 05-03-2009 11:31:12 2.6 C 5.03 g/m*3 2.6 C 0 km/h
2699 05-03-2009 11:43:12 2.5 C 5 g/m*3 2.5 C 0 km/h
2700 05-03-2009 11:55:12 2.6 C 5.03 g/m*3 2.6 C 0 km/h
Sensor: Nr:Datum:Temp:Abs-Feuchte:Windchill:Wind:
Aussen-T/F 2701 05-03-2009 12:07:11 2.6 C 5.09 g/m*3 2.6 C 0 km/h
2702 05-03-2009 12:19:12 2.8 C 5.16 g/m*3 2.8 C 0 km/h
2703 05-03-2009 12:31:11 2.6 C 5.09 g/m*3 2.6 C 0 km/h
2704 05-03-2009 12:43:11 2.8 C 5.16 g/m*3 2.8 C 0 km/h
2705 05-03-2009 12:55:11 3.1 C 5.27 g/m*3 3.1 C 0 km/h
2706 05-03-2009 13:07:11 2.9 C 5.2 g/m*3 2.9 C 0 km/h
2707 05-03-2009 13:19:11 2.9 C 5.2 g/m*3 2.9 C 0 km/h
2708 05-03-2009 13:31:11 2.9 C 5.2 g/m*3 2.9 C 0 km/h
2709 05-03-2009 13:43:11 3 C 5.17 g/m*3 3 C 0 km/h
2710 05-03-2009 13:55:10 3 C 5.17 g/m*3 3 C 0 km/h
2711 05-03-2009 14:07:11 3 C 5.17 g/m*3 3 C 0 km/h
2712 05-03-2009 14:19:10 2.9 C 5.2 g/m*3 2.9 C 0 km/h
2713 05-03-2009 14:31:10 3 C 5.23 g/m*3 3 C 0 km/h
2714 05-03-2009 14:43:10 3 C 5.23 g/m*3 3 C 0 km/h
2715 05-03-2009 14:55:10 3.1 C 5.27 g/m*3 3.1 C 0 km/h
2716 05-03-2009 15:07:10 3 C 5.23 g/m*3 3 C 0 km/h
2717 05-03-2009 15:19:10 3.1 C 5.27 g/m*3 3.1 C 0 km/h
2718 05-03-2009 15:31:09 3 C 5.23 g/m*3 3 C 0 km/h
2719 05-03-2009 15:43:09 3.1 C 5.27 g/m*3 3.1 C 0 km/h
2720 05-03-2009 15:55:09 3.2 C 5.36 g/m*3 3.2 C 0 km/h
2721 05-03-2009 16:07:09 3.3 C 5.4 g/m*3 3.3 C 0 km/h
2722 05-03-2009 16:19:10 3.2 C 5.36 g/m*3 3.2 C 0 km/h
2723 05-03-2009 16:31:09 3.3 C 5.4 g/m*3 3.3 C 0 km/h
2724 05-03-2009 16:43:09 3.4 C 5.44 g/m*3 3.4 C 0 km/h
2725 05-03-2009 16:55:09 3.5 C 5.47 g/m*3 3.5 C 0 km/h
Sensor: Nr:Datum:Temp:Abs-Feuchte:Windchill:Wind:
Aussen-T/F 2726 05-03-2009 17:07:08 3.6 C 5.51 g/m*3 3.6 C 0 km/h
2727 05-03-2009 17:19:09 3.6 C 5.51 g/m*3 3.6 C 0 km/h
2728 05-03-2009 17:31:09 3.6 C 5.51 g/m*3 3.6 C 0 km/h
2729 05-03-2009 17:43:09 3.7 C 5.55 g/m*3 3.7 C 0 km/h
2730 05-03-2009 17:55:08 3.7 C 5.55 g/m*3 3.7 C 0 km/h
2731 05-03-2009 18:07:08 4 C 5.53 g/m*3 4 C 0 km/h
2732 05-03-2009 18:19:09 4 C 5.53 g/m*3 4 C 0 km/h
2733 05-03-2009 18:31:08 4 C 5.53 g/m*3 4 C 0 km/h
2734 05-03-2009 18:43:08 3.9 C 5.56 g/m*3 3.9 C 0 km/h
2735 05-03-2009 18:55:08 4 C 5.59 g/m*3 4 C 0 km/h
2736 05-03-2009 19:07:08 4 C 5.59 g/m*3 4 C 0 km/h
2737 05-03-2009 19:19:07 4 C 5.66 g/m*3 4 C 0 km/h
2738 05-03-2009 19:31:08 4 C 5.66 g/m*3 4 C 0 km/h
2739 05-03-2009 19:43:08 3.8 C 5.65 g/m*3 3.8 C 0 km/h
2740 05-03-2009 19:55:07 3.8 C 5.65 g/m*3 3.8 C 0 km/h
2741 05-03-2009 20:07:07 3.7 C 5.61 g/m*3 3.7 C 0 km/h
2742 05-03-2009 20:19:07 3.7 C 5.55 g/m*3 3.7 C 0 km/h
2743 05-03-2009 20:31:07 3.6 C 5.51 g/m*3 3.6 C 0 km/h
2744 05-03-2009 20:43:07 3.6 C 5.57 g/m*3 3.6 C 0 km/h
2745 05-03-2009 20:55:06 3.6 C 5.57 g/m*3 3.6 C 0 km/h
2746 05-03-2009 21:07:07 3.5 C 5.53 g/m*3 3.5 C 0 km/h
2747 05-03-2009 21:19:06 3.5 C 5.53 g/m*3 3.5 C 0 km/h
2748 05-03-2009 21:31:06 3.5 C 5.53 g/m*3 3.5 C 0 km/h
2749 05-03-2009 21:43:07 3.4 C 5.5 g/m*3 3.4 C 0 km/h
2750 05-03-2009 21:55:06 3.4 C 5.56 g/m*3 3.4 C 0 km/h
Sensor: Nr:Datum:Temp:Abs-Feuchte:Windchill:Wind:
Aussen-T/F 2751 05-03-2009 22:07:06 3.4 C 5.56 g/m*3 3.4 C 0 km/h
2752 05-03-2009 22:19:05 3.4 C 5.56 g/m*3 3.4 C 0 km/h
2753 05-03-2009 22:32:06 3.3 C 5.46 g/m*3 3.3 C 0 km/h
2754 05-03-2009 22:44:06 3.2 C 5.42 g/m*3 3.2 C 0 km/h
2755 05-03-2009 22:56:07 3.1 C 5.39 g/m*3 3.1 C 0 km/h
2756 05-03-2009 23:08:07 3 C 5.35 g/m*3 3 C 0 km/h
2757 05-03-2009 23:20:07 3 C 5.35 g/m*3 3 C 0 km/h
2758 05-03-2009 23:32:07 2.8 C 5.28 g/m*3 2.8 C 0 km/h
2759 05-03-2009 23:44:07 2.8 C 5.28 g/m*3 2.8 C 0 km/h
2760 05-03-2009 23:56:07 2.8 C 5.28 g/m*3 2.8 C 0 km/h
2761 06-03-2009 00:08:07 2.9 C 5.37 g/m*3 2.9 C 0 km/h
2762 06-03-2009 00:20:07 3 C 5.35 g/m*3 3 C 0 km/h
2763 06-03-2009 00:32:07 3 C 5.35 g/m*3 3 C 0 km/h
2764 06-03-2009 00:44:07 3 C 5.35 g/m*3 3 C 0 km/h
2765 06-03-2009 00:56:07 3 C 5.41 g/m*3 3 C 0 km/h
2766 06-03-2009 01:08:07 3.1 C 5.45 g/m*3 3.1 C 0 km/h
2767 06-03-2009 01:20:07 3.1 C 5.45 g/m*3 3.1 C 0 km/h
2768 06-03-2009 01:32:07 3.2 C 5.48 g/m*3 3.2 C 0 km/h
2769 06-03-2009 01:44:07 3.2 C 5.48 g/m*3 3.2 C 0 km/h
2770 06-03-2009 01:56:07 3.2 C 5.48 g/m*3 3.2 C 0 km/h
2771 06-03-2009 02:08:07 3.2 C 5.48 g/m*3 3.2 C 0 km/h
2772 06-03-2009 02:20:07 3.3 C 5.52 g/m*3 3.3 C 0 km/h
2773 06-03-2009 02:32:07 3.3 C 5.52 g/m*3 3.3 C 0 km/h
2774 06-03-2009 02:44:07 3.3 C 5.52 g/m*3 3.3 C 0 km/h
2775 06-03-2009 02:56:08 3.4 C 5.56 g/m*3 3.4 C 0 km/h
Sensor: Nr:Datum:Temp:Abs-Feuchte:Windchill:Wind:
Aussen-T/F 2776 06-03-2009 03:08:08 3.4 C 5.56 g/m*3 3.4 C 0 km/h
2777 06-03-2009 03:20:08 3.4 C 5.56 g/m*3 3.4 C 0 km/h
2778 06-03-2009 03:32:08 3.4 C 5.56 g/m*3 3.4 C 0 km/h
2779 06-03-2009 03:44:08 3.5 C 5.6 g/m*3 3.5 C 0 km/h
2780 06-03-2009 03:56:08 3.5 C 5.6 g/m*3 3.5 C 0 km/h
2781 06-03-2009 04:08:08 3.5 C 5.6 g/m*3 3.5 C 0 km/h
2782 06-03-2009 04:20:08 3.4 C 5.56 g/m*3 3.4 C 0 km/h
2783 06-03-2009 04:32:08 3.4 C 5.56 g/m*3 3.4 C 0 km/h
2784 06-03-2009 04:44:08 3.3 C 5.46 g/m*3 3.3 C 0 km/h
2785 06-03-2009 04:56:08 3.3 C 5.46 g/m*3 3.3 C 0 km/h
2786 06-03-2009 05:08:08 3.3 C 5.46 g/m*3 3.3 C 0 km/h
2787 06-03-2009 05:20:08 3.3 C 5.52 g/m*3 3.3 C 0 km/h
2788 06-03-2009 05:32:08 3.3 C 5.52 g/m*3 3.3 C 0 km/h
2789 06-03-2009 05:44:08 3.3 C 5.52 g/m*3 3.3 C 0 km/h
2790 06-03-2009 05:56:08 3.4 C 5.62 g/m*3 3.4 C 0 km/h
2791 06-03-2009 06:08:08 3.5 C 5.66 g/m*3 3.5 C 0 km/h
2792 06-03-2009 06:20:08 3.6 C 5.69 g/m*3 3.6 C 0 km/h
2793 06-03-2009 06:32:08 3.5 C 5.66 g/m*3 3.5 C 0 km/h
2794 06-03-2009 06:44:08 3.6 C 5.69 g/m*3 3.6 C 0 km/h
2795 06-03-2009 06:56:08 3.6 C 5.69 g/m*3 3.6 C 0 km/h
2796 06-03-2009 07:08:06 3.5 C 5.66 g/m*3 3.5 C 0 km/h
2797 06-03-2009 07:20:06 3.5 C 5.66 g/m*3 3.5 C 0 km/h
2798 06-03-2009 07:32:06 3.3 C 5.52 g/m*3 3.3 C 0 km/h
2799 06-03-2009 07:44:06 3.3 C 5.58 g/m*3 3.3 C 0 km/h
2800 06-03-2009 07:56:06 3.3 C 5.58 g/m*3 3.3 C 0 km/h
Sensor: Nr:Datum:Temp:Abs-Feuchte:Windchill:Wind:
Aussen-T/F 2801 06-03-2009 08:08:05 3.3 C 5.52 g/m*3 3.3 C 0 km/h
2802 06-03-2009 08:20:05 3.3 C 5.52 g/m*3 3.3 C 0 km/h
2803 06-03-2009 08:32:05 3.3 C 5.52 g/m*3 3.3 C 0 km/h
2804 06-03-2009 08:44:05 3.2 C 5.42 g/m*3 3.2 C 0 km/h
2805 06-03-2009 08:56:05 3.3 C 5.46 g/m*3 3.3 C 0 km/h
2806 06-03-2009 09:08:05 3.3 C 5.46 g/m*3 3.3 C 0 km/h
2807 06-03-2009 09:20:05 3.4 C 5.5 g/m*3 3.4 C 0 km/h
2808 06-03-2009 09:32:05 3.4 C 5.44 g/m*3 3.4 C 0 km/h
2809 06-03-2009 09:44:05 3.5 C 5.47 g/m*3 3.5 C 0 km/h
2810 06-03-2009 09:56:05 3.6 C 5.51 g/m*3 3.6 C 0 km/h
2811 06-03-2009 10:08:05 3.6 C 5.51 g/m*3 3.6 C 0 km/h
2812 06-03-2009 10:20:04 3.7 C 5.48 g/m*3 3.7 C 0 km/h
2813 06-03-2009 10:32:04 3.9 C 5.56 g/m*3 3.9 C 0 km/h
2814 06-03-2009 10:44:04 3.8 C 5.52 g/m*3 3.8 C 0 km/h
2815 06-03-2009 10:56:04 3.8 C 5.52 g/m*3 3.8 C 0 km/h
2816 06-03-2009 11:08:04 3.9 C 5.62 g/m*3 3.9 C 0 km/h
2817 06-03-2009 11:20:03 4 C 5.59 g/m*3 4 C 0 km/h
2818 06-03-2009 11:32:04 4.1 C 5.63 g/m*3 4.1 C 0 km/h
2819 06-03-2009 11:44:03 4.1 C 5.63 g/m*3 4.1 C 0 km/h
2820 06-03-2009 11:56:03 4.2 C 5.67 g/m*3 4.2 C 0 km/h
2821 06-03-2009 12:08:03 4.2 C 5.61 g/m*3 4.2 C 0 km/h
2822 06-03-2009 12:20:04 4.3 C 5.71 g/m*3 4.3 C 0 km/h
2823 06-03-2009 12:32:03 4.3 C 5.71 g/m*3 4.3 C 0 km/h
2824 06-03-2009 12:44:03 4.4 C 5.68 g/m*3 4.4 C 0 km/h
2825 06-03-2009 12:56:03 4.4 C 5.68 g/m*3 4.4 C 0 km/h
Sensor: Nr:Datum:Temp:Abs-Feuchte:Windchill:Wind:
Aussen-T/F 2826 06-03-2009 13:08:03 4.5 C 5.65 g/m*3 4.5 C 0 km/h
2827 06-03-2009 13:20:03 4.6 C 5.62 g/m*3 4.6 C 0 km/h
2828 06-03-2009 13:32:02 5 C 5.57 g/m*3 5 C 0 km/h
2829 06-03-2009 13:44:02 5 C 5.57 g/m*3 5 C 0 km/h
2830 06-03-2009 13:56:03 4.8 C 5.57 g/m*3 4.8 C 0 km/h
2831 06-03-2009 14:08:02 4.7 C 5.6 g/m*3 4.7 C 0 km/h
2832 06-03-2009 14:20:02 4.7 C 5.6 g/m*3 4.7 C 0 km/h
2833 06-03-2009 14:32:02 4.8 C 5.57 g/m*3 4.8 C 0 km/h
2834 06-03-2009 14:44:02 4.9 C 5.54 g/m*3 4.9 C 0 km/h
2835 06-03-2009 14:56:02 4.9 C 5.6 g/m*3 4.9 C 0 km/h
2836 06-03-2009 15:08:02 4.8 C 5.5 g/m*3 4.8 C 0 km/h
2837 06-03-2009 15:20:01 4.8 C 5.5 g/m*3 4.8 C 0 km/h
2838 06-03-2009 15:32:01 4.9 C 5.54 g/m*3 4.9 C 0 km/h
2839 06-03-2009 15:44:01 4.9 C 5.54 g/m*3 4.9 C 0 km/h
2840 06-03-2009 15:56:01 4.7 C 5.46 g/m*3 4.7 C 0 km/h
2841 06-03-2009 16:08:01 4.7 C 5.46 g/m*3 4.7 C 0 km/h
2842 06-03-2009 16:20:00 4.6 C 5.43 g/m*3 4.6 C 0 km/h
2843 06-03-2009 16:32:01 4.6 C 5.43 g/m*3 4.6 C 0 km/h
2844 06-03-2009 16:44:00 4.5 C 5.46 g/m*3 4.5 C 0 km/h
2845 06-03-2009 16:56:00 4.4 C 5.48 g/m*3 4.4 C 0 km/h
2846 06-03-2009 17:08:00 4.4 C 5.48 g/m*3 4.4 C 0 km/h
2847 06-03-2009 17:20:01 4.3 C 5.45 g/m*3 4.3 C 0 km/h
2848 06-03-2009 17:32:00 4.2 C 5.35 g/m*3 4.2 C 0 km/h
2849 06-03-2009 17:44:00 4.2 C 5.35 g/m*3 4.2 C 0 km/h
2850 06-03-2009 17:56:00 4.2 C 5.41 g/m*3 4.2 C 0 km/h
Sensor: Nr:Datum:Temp:Abs-Feuchte:Windchill:Wind:
Aussen-T/F 2851 06-03-2009 18:08:00 4.2 C 5.35 g/m*3 4.2 C 0 km/h
2852 06-03-2009 18:20:00 4.1 C 5.25 g/m*3 4.1 C 0 km/h
2853 06-03-2009 18:32:00 4 C 5.28 g/m*3 4 C 0 km/h
2854 06-03-2009 18:44:00 4 C 5.34 g/m*3 4 C 0 km/h
2855 06-03-2009 18:56:00 3.9 C 5.37 g/m*3 3.9 C 0 km/h
2856 06-03-2009 19:08:00 3.9 C 5.31 g/m*3 3.9 C 0 km/h
2857 06-03-2009 19:20:59 4 C 5.21 g/m*3 4 C 0 km/h
2858 06-03-2009 19:32:59 4 C 5.21 g/m*3 4 C 0 km/h
2859 06-03-2009 19:44:59 4 C 5.28 g/m*3 4 C 0 km/h
2860 06-03-2009 19:56:59 3.9 C 5.31 g/m*3 3.9 C 0 km/h
2861 06-03-2009 20:08:59 3.8 C 5.27 g/m*3 3.8 C 0 km/h
2862 06-03-2009 20:20:58 3.8 C 5.27 g/m*3 3.8 C 0 km/h
2863 06-03-2009 20:32:59 3.8 C 5.21 g/m*3 3.8 C 0 km/h
2864 06-03-2009 20:44:58 4 C 5.09 g/m*3 4 C 0 km/h
2865 06-03-2009 20:56:58 3.9 C 5.12 g/m*3 3.9 C 0 km/h
2866 06-03-2009 21:08:59 3.8 C 5.02 g/m*3 3.8 C 0 km/h
2867 06-03-2009 21:20:58 3.7 C 4.86 g/m*3 3.7 C 0 km/h
2868 06-03-2009 21:32:58 3.7 C 4.74 g/m*3 3.7 C 0 km/h
2869 06-03-2009 21:44:58 3.8 C 4.52 g/m*3 3.8 C 0 km/h
2870 06-03-2009 21:56:58 3.8 C 4.39 g/m*3 3.8 C 0 km/h
2871 06-03-2009 22:08:58 3.8 C 4.27 g/m*3 3.8 C 0 km/h
2872 06-03-2009 22:21:57 3.7 C 4.24 g/m*3 3.7 C 0 km/h
2873 06-03-2009 22:33:57 3.8 C 4.2 g/m*3 3.8 C 0 km/h
2874 06-03-2009 22:45:57 3.8 C 4.27 g/m*3 3.8 C 0 km/h
2875 06-03-2009 22:57:57 3.8 C 4.2 g/m*3 3.8 C 0 km/h
Sensor: Nr:Datum:Temp:Abs-Feuchte:Windchill:Wind:
Aussen-T/F 2876 06-03-2009 23:09:57 3.8 C 4.14 g/m*3 3.8 C 0 km/h
2877 06-03-2009 23:21:57 3.7 C 4.11 g/m*3 3.7 C 0 km/h
2878 06-03-2009 23:33:57 3.8 C 4.08 g/m*3 3.8 C 0 km/h
2879 06-03-2009 23:45:57 3.8 C 4.08 g/m*3 3.8 C 0 km/h
2880 06-03-2009 23:57:57 3.8 C 4.02 g/m*3 3.8 C 0 km/h
2881 07-03-2009 00:09:58 3.7 C 3.99 g/m*3 3.7 C 0 km/h
2882 07-03-2009 00:21:58 3.8 C 3.89 g/m*3 3.8 C 0 km/h
2883 07-03-2009 00:33:58 3.8 C 3.83 g/m*3 3.8 C 0 km/h
2884 07-03-2009 00:45:58 3.8 C 3.76 g/m*3 3.8 C 0 km/h
2885 07-03-2009 00:57:58 3.7 C 3.8 g/m*3 3.7 C 0 km/h
2886 07-03-2009 01:09:58 3.6 C 3.9 g/m*3 3.6 C 0 km/h
2887 07-03-2009 01:21:58 3.6 C 3.84 g/m*3 3.6 C 0 km/h
2888 07-03-2009 01:33:58 3.6 C 3.84 g/m*3 3.6 C 0 km/h
2889 07-03-2009 01:45:58 3.5 C 3.81 g/m*3 3.5 C 0 km/h
2890 07-03-2009 01:57:58 3.4 C 3.85 g/m*3 3.4 C 0 km/h
2891 07-03-2009 02:09:58 3.4 C 3.85 g/m*3 3.4 C 0 km/h
2892 07-03-2009 02:21:58 3.4 C 3.85 g/m*3 3.4 C 0 km/h
2893 07-03-2009 02:33:58 3.3 C 3.82 g/m*3 3.3 C 0 km/h
2894 07-03-2009 02:45:58 3.3 C 3.88 g/m*3 3.3 C 0 km/h
2895 07-03-2009 02:57:58 3.2 C 3.86 g/m*3 3.2 C 0 km/h
2896 07-03-2009 03:09:58 3.1 C 3.89 g/m*3 3.1 C 0 km/h
2897 07-03-2009 03:21:58 3.2 C 3.86 g/m*3 3.2 C 0 km/h
2898 07-03-2009 03:33:58 3.2 C 3.86 g/m*3 3.2 C 0 km/h
2899 07-03-2009 03:45:58 3.2 C 3.86 g/m*3 3.2 C 0 km/h
2900 07-03-2009 03:57:58 3.2 C 3.86 g/m*3 3.2 C 0 km/h
Sensor: Nr:Datum:Temp:Abs-Feuchte:Windchill:Wind:
Aussen-T/F 2901 07-03-2009 04:09:59 3.2 C 3.86 g/m*3 3.2 C 0 km/h
2902 07-03-2009 04:21:59 3.2 C 3.86 g/m*3 3.2 C 0 km/h
2903 07-03-2009 04:33:59 3.1 C 3.83 g/m*3 3.1 C 0 km/h
2904 07-03-2009 04:45:59 3.1 C 3.83 g/m*3 3.1 C 0 km/h
2905 07-03-2009 04:57:59 3.2 C 3.8 g/m*3 3.2 C 0 km/h
2906 07-03-2009 05:09:59 3.2 C 3.8 g/m*3 3.2 C 0 km/h
2907 07-03-2009 05:21:59 3.2 C 3.74 g/m*3 3.2 C 0 km/h
2908 07-03-2009 05:33:59 3.1 C 3.77 g/m*3 3.1 C 0 km/h
2909 07-03-2009 05:45:59 3 C 3.75 g/m*3 3 C 0 km/h
2910 07-03-2009 05:57:59 3 C 3.69 g/m*3 3 C 0 km/h
2911 07-03-2009 06:09:59 3 C 3.63 g/m*3 3 C 0 km/h
2912 07-03-2009 06:21:58 3 C 3.57 g/m*3 3 C 0 km/h
2913 07-03-2009 06:33:57 3 C 3.63 g/m*3 3 C 0 km/h
2914 07-03-2009 06:45:57 3 C 3.63 g/m*3 3 C 0 km/h
2915 07-03-2009 06:57:57 3 C 3.63 g/m*3 3 C 0 km/h
2916 07-03-2009 07:09:57 2.9 C 3.66 g/m*3 2.9 C 0 km/h
2917 07-03-2009 07:21:57 2.9 C 3.72 g/m*3 2.9 C 0 km/h
2918 07-03-2009 07:33:57 2.7 C 3.73 g/m*3 2.7 C 0 km/h
2919 07-03-2009 07:45:57 2.6 C 3.76 g/m*3 2.6 C 0 km/h
2920 07-03-2009 07:57:57 2.7 C 3.79 g/m*3 2.7 C 0 km/h
2921 07-03-2009 08:09:57 2.7 C 3.73 g/m*3 2.7 C 0 km/h
2922 07-03-2009 08:21:56 2.7 C 3.73 g/m*3 2.7 C 0 km/h
2923 07-03-2009 08:33:56 2.6 C 3.65 g/m*3 2.6 C 0 km/h
2924 07-03-2009 08:45:56 2.6 C 3.65 g/m*3 2.6 C 0 km/h
2925 07-03-2009 08:57:56 2.7 C 3.67 g/m*3 2.7 C 0 km/h
Sensor: Nr:Datum:Temp:Abs-Feuchte:Windchill:Wind:
Aussen-T/F 2926 07-03-2009 09:09:56 2.7 C 3.67 g/m*3 2.7 C 0 km/h
2927 07-03-2009 09:21:56 3 C 3.69 g/m*3 3 C 0 km/h
2928 07-03-2009 09:33:56 3.3 C 3.7 g/m*3 3.3 C 0 km/h
2929 07-03-2009 09:45:56 3.2 C 3.62 g/m*3 3.2 C 0 km/h
2930 07-03-2009 09:57:56 3.1 C 3.71 g/m*3 3.1 C 0 km/h
2931 07-03-2009 10:09:56 3.2 C 3.8 g/m*3 3.2 C 0 km/h
2932 07-03-2009 10:21:55 3.5 C 3.87 g/m*3 3.5 C 0 km/h
2933 07-03-2009 10:33:55 3.9 C 3.85 g/m*3 3.9 C 0 km/h
2934 07-03-2009 10:45:55 4.5 C 3.94 g/m*3 4.5 C 0 km/h
2935 07-03-2009 10:57:55 5 C 3.87 g/m*3 5 C 0 km/h
2936 07-03-2009 11:09:55 5.1 C 3.97 g/m*3 5.1 C 0 km/h
2937 07-03-2009 11:21:54 5.9 C 3.97 g/m*3 5.9 C 0 km/h
2938 07-03-2009 11:33:55 6.6 C 3.85 g/m*3 6.6 C 0 km/h
2939 07-03-2009 11:45:54 7.2 C 3.77 g/m*3 7.2 C 0 km/h
2940 07-03-2009 11:57:54 7.4 C 3.9 g/m*3 7.4 C 0 km/h
2941 07-03-2009 12:09:54 7.5 C 3.76 g/m*3 7.5 C 0 km/h
2942 07-03-2009 12:21:55 7.6 C 3.63 g/m*3 7.6 C 0 km/h
2943 07-03-2009 12:33:54 7.8 C 3.59 g/m*3 7.8 C 0 km/h
2944 07-03-2009 12:45:54 8.2 C 3.43 g/m*3 8.2 C 0 km/h
2945 07-03-2009 12:57:54 7.9 C 3.37 g/m*3 7.9 C 0 km/h
2946 07-03-2009 13:09:54 8.5 C 3.24 g/m*3 8.5 C 0 km/h
2947 07-03-2009 13:21:54 8.4 C 3.22 g/m*3 8.4 C 0 km/h
2948 07-03-2009 13:33:54 9 C 3.26 g/m*3 9 C 0 km/h
2949 07-03-2009 13:45:53 8.5 C 3.07 g/m*3 8.5 C 0 km/h
2950 07-03-2009 13:57:53 9.4 C 3.26 g/m*3 9.4 C 0 km/h
Sensor: Nr:Datum:Temp:Abs-Feuchte:Windchill:Wind:
Aussen-T/F 2951 07-03-2009 14:09:54 10 C 3.01 g/m*3 10 C 0 km/h
2952 07-03-2009 14:21:53 10.8 C 3.06 g/m*3 10.8 C 0 km/h
2953 07-03-2009 14:33:53 11.3 C 2.96 g/m*3 11.3 C 0 km/h
2954 07-03-2009 14:45:53 11.4 C 2.77 g/m*3 11.4 C 0 km/h
2955 07-03-2009 14:57:53 11.3 C 2.86 g/m*3 11.3 C 0 km/h
2956 07-03-2009 15:09:53 11.8 C 2.74 g/m*3 11.8 C 0 km/h
2957 07-03-2009 15:21:52 11.9 C 2.65 g/m*3 11.9 C 0 km/h
2958 07-03-2009 15:33:52 11 C 3.2 g/m*3 11 C 0 km/h
2959 07-03-2009 15:45:52 10.8 C 3.36 g/m*3 10.8 C 0 km/h
2960 07-03-2009 15:57:52 11 C 3 g/m*3 11 C 0 km/h
2961 07-03-2009 16:09:52 10.7 C 2.75 g/m*3 10.7 C 0 km/h
2962 07-03-2009 16:21:52 10.2 C 2.85 g/m*3 10.2 C 0 km/h
2963 07-03-2009 16:33:52 10.4 C 2.89 g/m*3 10.4 C 0 km/h
2964 07-03-2009 16:45:52 10.6 C 2.73 g/m*3 10.6 C 0 km/h
2965 07-03-2009 16:57:52 10.4 C 2.6 g/m*3 10.4 C 0 km/h
2966 07-03-2009 17:09:51 9.6 C 3.57 g/m*3 9.6 C 0 km/h
2967 07-03-2009 17:21:52 9.2 C 3.75 g/m*3 9.2 C 0 km/h
2968 07-03-2009 17:33:51 8.7 C 3.89 g/m*3 8.7 C 0 km/h
2969 07-03-2009 17:45:51 8.4 C 3.99 g/m*3 8.4 C 0 km/h
2970 07-03-2009 17:57:51 8 C 4.05 g/m*3 8 C 0 km/h
2971 07-03-2009 18:09:51 7.8 C 4.08 g/m*3 7.8 C 0 km/h
2972 07-03-2009 18:21:51 7.5 C 4.16 g/m*3 7.5 C 0 km/h
2973 07-03-2009 18:33:51 7.2 C 4.16 g/m*3 7.2 C 0 km/h
2974 07-03-2009 18:45:50 6.8 C 4.21 g/m*3 6.8 C 0 km/h
2975 07-03-2009 18:57:50 6.4 C 4.17 g/m*3 6.4 C 0 km/h
Sensor: Nr:Datum:Temp:Abs-Feuchte:Windchill:Wind:
Aussen-T/F 2976 07-03-2009 19:09:51 6.2 C 4.27 g/m*3 6.2 C 0 km/h
2977 07-03-2009 19:21:50 5.8 C 4.3 g/m*3 5.8 C 0 km/h
2978 07-03-2009 19:33:50 5.6 C 4.31 g/m*3 5.6 C 0 km/h
2979 07-03-2009 19:45:50 5.3 C 4.23 g/m*3 5.3 C 0 km/h
2980 07-03-2009 19:57:50 5.3 C 4.3 g/m*3 5.3 C 0 km/h
2981 07-03-2009 20:09:50 5.2 C 4.27 g/m*3 5.2 C 0 km/h
2982 07-03-2009 20:21:49 5.6 C 4.38 g/m*3 5.6 C 0 km/h
2983 07-03-2009 20:33:50 6 C 4.28 g/m*3 6 C 0 km/h
2984 07-03-2009 20:45:50 6 C 4.21 g/m*3 6 C 0 km/h
2985 07-03-2009 20:57:50 5.9 C 4.25 g/m*3 5.9 C 0 km/h
2986 07-03-2009 21:09:50 5.9 C 4.25 g/m*3 5.9 C 0 km/h
2987 07-03-2009 21:21:49 5.9 C 4.25 g/m*3 5.9 C 0 km/h
2988 07-03-2009 21:33:49 6 C 4.14 g/m*3 6 C 0 km/h
2989 07-03-2009 21:45:49 6.1 C 4.09 g/m*3 6.1 C 0 km/h
2990 07-03-2009 21:57:49 6.2 C 4.04 g/m*3 6.2 C 0 km/h
2991 07-03-2009 22:09:49 6.4 C 4.1 g/m*3 6.4 C 0 km/h
2992 07-03-2009 22:21:48 6.2 C 4.04 g/m*3 6.2 C 0 km/h
2993 07-03-2009 22:33:49 6.4 C 4.1 g/m*3 6.4 C 0 km/h
2994 07-03-2009 22:46:50 6.4 C 4.17 g/m*3 6.4 C 0 km/h
2995 07-03-2009 22:58:50 6.2 C 4.19 g/m*3 6.2 C 0 km/h
2996 07-03-2009 23:10:50 6.3 C 4.22 g/m*3 6.3 C 0 km/h
2997 07-03-2009 23:22:50 6.3 C 4.29 g/m*3 6.3 C 0 km/h
2998 07-03-2009 23:34:50 6.5 C 4.12 g/m*3 6.5 C 0 km/h
2999 07-03-2009 23:46:50 6.5 C 4.2 g/m*3 6.5 C 0 km/h
3000 07-03-2009 23:58:50 6.4 C 4.25 g/m*3 6.4 C 0 km/h
Sensor: Nr:Datum:Temp:Abs-Feuchte:Windchill:Wind:
Aussen-T/F 3001 08-03-2009 00:10:50 6.3 C 4.22 g/m*3 6.3 C 0 km/h
3002 08-03-2009 00:22:50 6.4 C 4.25 g/m*3 6.4 C 0 km/h
3003 08-03-2009 00:34:50 6.3 C 4.22 g/m*3 6.3 C 0 km/h
3004 08-03-2009 00:46:50 6.3 C 4.29 g/m*3 6.3 C 0 km/h
3005 08-03-2009 00:58:51 6.1 C 4.31 g/m*3 6.1 C 0 km/h
3006 08-03-2009 01:10:51 5.9 C 4.4 g/m*3 5.9 C 0 km/h
3007 08-03-2009 01:22:51 6.1 C 4.38 g/m*3 6.1 C 0 km/h
3008 08-03-2009 01:34:51 6.3 C 4.44 g/m*3 6.3 C 0 km/h
3009 08-03-2009 01:46:51 6.3 C 4.44 g/m*3 6.3 C 0 km/h
3010 08-03-2009 01:58:51 6.5 C 4.35 g/m*3 6.5 C 0 km/h
3011 08-03-2009 02:10:51 6.4 C 4.4 g/m*3 6.4 C 0 km/h
3012 08-03-2009 02:22:51 6.4 C 4.4 g/m*3 6.4 C 0 km/h
3013 08-03-2009 02:34:51 6.4 C 4.4 g/m*3 6.4 C 0 km/h
3014 08-03-2009 02:46:51 6.5 C 4.57 g/m*3 6.5 C 0 km/h
3015 08-03-2009 02:58:51 6.7 C 4.64 g/m*3 6.7 C 0 km/h
3016 08-03-2009 03:10:51 6.6 C 4.6 g/m*3 6.6 C 0 km/h
3017 08-03-2009 03:22:51 6.6 C 4.68 g/m*3 6.6 C 0 km/h
3018 08-03-2009 03:34:51 6.7 C 4.71 g/m*3 6.7 C 0 km/h
3019 08-03-2009 03:46:51 6.9 C 4.77 g/m*3 6.9 C 0 km/h
3020 08-03-2009 03:58:51 7 C 4.65 g/m*3 7 C 0 km/h
3021 08-03-2009 04:10:51 7.1 C 4.76 g/m*3 7.1 C 0 km/h
3022 08-03-2009 04:22:51 7.1 C 4.76 g/m*3 7.1 C 0 km/h
3023 08-03-2009 04:34:51 7.1 C 4.76 g/m*3 7.1 C 0 km/h
3024 08-03-2009 04:46:52 7.2 C 4.79 g/m*3 7.2 C 0 km/h
3025 08-03-2009 04:58:52 7.2 C 4.79 g/m*3 7.2 C 0 km/h
Sensor: Nr:Datum:Temp:Abs-Feuchte:Windchill:Wind:
Aussen-T/F 3026 08-03-2009 05:10:52 7.2 C 4.71 g/m*3 7.2 C 0 km/h
3027 08-03-2009 05:22:52 7.3 C 4.74 g/m*3 7.3 C 0 km/h
3028 08-03-2009 05:34:52 7.2 C 4.71 g/m*3 7.2 C 0 km/h
3029 08-03-2009 05:46:52 7.3 C 4.74 g/m*3 7.3 C 0 km/h
3030 08-03-2009 05:58:52 7.3 C 4.74 g/m*3 7.3 C 0 km/h
3031 08-03-2009 06:10:52 7.2 C 4.79 g/m*3 7.2 C 0 km/h
3032 08-03-2009 06:22:52 7.2 C 4.71 g/m*3 7.2 C 0 km/h
3033 08-03-2009 06:34:52 7.3 C 4.82 g/m*3 7.3 C 0 km/h
3034 08-03-2009 06:46:52 7.3 C 4.82 g/m*3 7.3 C 0 km/h
3035 08-03-2009 06:58:52 7.3 C 4.9 g/m*3 7.3 C 0 km/h
3036 08-03-2009 07:10:52 7.3 C 4.9 g/m*3 7.3 C 0 km/h
3037 08-03-2009 07:22:52 7.3 C 4.98 g/m*3 7.3 C 0 km/h
3038 08-03-2009 07:34:52 7.3 C 4.98 g/m*3 7.3 C 0 km/h
3039 08-03-2009 07:46:49 7.3 C 5.06 g/m*3 7.3 C 0 km/h
3040 08-03-2009 07:58:49 7.4 C 5.17 g/m*3 7.4 C 0 km/h
3041 08-03-2009 08:10:50 7.5 C 5.2 g/m*3 7.5 C 0 km/h
3042 08-03-2009 08:22:50 7.8 C 5.3 g/m*3 7.8 C 0 km/h
3043 08-03-2009 08:34:49 8 C 5.21 g/m*3 8 C 0 km/h
3044 08-03-2009 08:46:49 8.1 C 5.16 g/m*3 8.1 C 0 km/h
3045 08-03-2009 08:58:49 8 C 5.21 g/m*3 8 C 0 km/h
3046 08-03-2009 09:10:49 8 C 5.21 g/m*3 8 C 0 km/h
3047 08-03-2009 09:22:49 8.2 C 5.28 g/m*3 8.2 C 0 km/h
3048 08-03-2009 09:34:48 8.2 C 5.28 g/m*3 8.2 C 0 km/h
3049 08-03-2009 09:46:49 8.2 C 5.28 g/m*3 8.2 C 0 km/h
3050 08-03-2009 09:58:49 8.2 C 5.28 g/m*3 8.2 C 0 km/h
Sensor: Nr:Datum:Temp:Abs-Feuchte:Windchill:Wind:
Aussen-T/F 3051 08-03-2009 10:10:48 8.3 C 5.31 g/m*3 8.3 C 0 km/h
3052 08-03-2009 10:22:48 8.3 C 5.31 g/m*3 8.3 C 0 km/h
3053 08-03-2009 10:34:48 8.3 C 5.39 g/m*3 8.3 C 0 km/h
3054 08-03-2009 10:46:48 8.5 C 5.46 g/m*3 8.5 C 0 km/h
3055 08-03-2009 10:58:48 8.5 C 5.55 g/m*3 8.5 C 0 km/h
3056 08-03-2009 11:10:47 8.5 C 5.64 g/m*3 8.5 C 0 km/h
3057 08-03-2009 11:22:48 8.5 C 5.64 g/m*3 8.5 C 0 km/h
3058 08-03-2009 11:34:48 8.7 C 5.71 g/m*3 8.7 C 0 km/h
3059 08-03-2009 11:46:47 8.6 C 5.67 g/m*3 8.6 C 0 km/h
3060 08-03-2009 11:58:47 8.6 C 5.76 g/m*3 8.6 C 0 km/h
3061 08-03-2009 12:10:48 8.8 C 5.83 g/m*3 8.8 C 0 km/h
3062 08-03-2009 12:22:47 9.1 C 5.68 g/m*3 9.1 C 0 km/h
3063 08-03-2009 12:34:47 9.3 C 5.66 g/m*3 9.3 C 0 km/h
3064 08-03-2009 12:46:46 9.3 C 5.57 g/m*3 9.3 C 0 km/h
3065 08-03-2009 12:58:46 9.1 C 5.77 g/m*3 9.1 C 0 km/h
3066 08-03-2009 13:10:47 8.9 C 6.13 g/m*3 8.9 C 0 km/h
3067 08-03-2009 13:22:46 8.7 C 6.31 g/m*3 8.7 C 0 km/h
3068 08-03-2009 13:34:46 8.9 C 6.48 g/m*3 8.9 C 0 km/h
3069 08-03-2009 13:46:47 9.6 C 6.32 g/m*3 9.6 C 0 km/h
3070 08-03-2009 13:58:47 10.2 C 6.09 g/m*3 10.2 C 0 km/h
3071 08-03-2009 14:10:46 10.2 C 6 g/m*3 10.2 C 0 km/h
3072 08-03-2009 14:22:46 10.1 C 5.96 g/m*3 10.1 C 0 km/h
3073 08-03-2009 14:34:46 10.4 C 5.98 g/m*3 10.4 C 0 km/h
3074 08-03-2009 14:46:46 10.5 C 5.92 g/m*3 10.5 C 0 km/h
3075 08-03-2009 14:58:46 10.3 C 5.94 g/m*3 10.3 C 0 km/h
Sensor: Nr:Datum:Temp:Abs-Feuchte:Windchill:Wind:
Aussen-T/F 3076 08-03-2009 15:10:45 10.2 C 5.9 g/m*3 10.2 C 0 km/h
3077 08-03-2009 15:22:46 9.9 C 6.16 g/m*3 9.9 C 0 km/h
3078 08-03-2009 15:34:45 9.7 C 6.36 g/m*3 9.7 C 0 km/h
3079 08-03-2009 15:46:45 10.1 C 6.24 g/m*3 10.1 C 0 km/h
3080 08-03-2009 15:58:45 9.8 C 6.31 g/m*3 9.8 C 0 km/h
3081 08-03-2009 16:10:45 9.3 C 6.56 g/m*3 9.3 C 0 km/h
3082 08-03-2009 16:22:45 9 C 6.88 g/m*3 9 C 0 km/h
3083 08-03-2009 16:34:45 8.7 C 7.09 g/m*3 8.7 C 0 km/h
3084 08-03-2009 16:46:44 8.5 C 6.92 g/m*3 8.5 C 0 km/h
3085 08-03-2009 16:58:44 8.5 C 6.92 g/m*3 8.5 C 0 km/h
3086 08-03-2009 17:10:45 8.5 C 6.83 g/m*3 8.5 C 0 km/h
3087 08-03-2009 17:22:44 8.4 C 6.87 g/m*3 8.4 C 0 km/h
3088 08-03-2009 17:34:45 8.3 C 6.91 g/m*3 8.3 C 0 km/h
3089 08-03-2009 17:46:44 8.4 C 7.04 g/m*3 8.4 C 0 km/h
3090 08-03-2009 17:58:44 8.3 C 7.08 g/m*3 8.3 C 0 km/h
3091 08-03-2009 18:10:44 8.2 C 7.03 g/m*3 8.2 C 0 km/h
3092 08-03-2009 18:22:44 8.1 C 6.99 g/m*3 8.1 C 0 km/h
3093 08-03-2009 18:34:44 8.1 C 7.07 g/m*3 8.1 C 0 km/h
3094 08-03-2009 18:46:43 8.2 C 6.45 g/m*3 8.2 C 0 km/h
3095 08-03-2009 18:58:43 8.1 C 6.24 g/m*3 8.1 C 0 km/h
3096 08-03-2009 19:10:44 8.1 C 6.32 g/m*3 8.1 C 0 km/h
3097 08-03-2009 19:22:43 7.7 C 6.24 g/m*3 7.7 C 0 km/h
3098 08-03-2009 19:34:43 7.1 C 6.16 g/m*3 7.1 C 0 km/h
3099 08-03-2009 19:46:43 6.9 C 6.31 g/m*3 6.9 C 0 km/h
3100 08-03-2009 19:58:43 7 C 6.43 g/m*3 7 C 0 km/h
Sensor: Nr:Datum:Temp:Abs-Feuchte:Windchill:Wind:
Aussen-T/F 3101 08-03-2009 20:10:43 6.9 C 6.47 g/m*3 6.9 C 0 km/h
3102 08-03-2009 20:22:43 6.9 C 6.54 g/m*3 6.9 C 0 km/h
3103 08-03-2009 20:34:42 6.6 C 6.34 g/m*3 6.6 C 0 km/h
3104 08-03-2009 20:46:43 6.2 C 6.1 g/m*3 6.2 C 0 km/h
3105 08-03-2009 20:58:43 5.8 C 6.02 g/m*3 5.8 C 0 km/h
3106 08-03-2009 21:10:43 5.4 C 5.86 g/m*3 5.4 C 0 km/h
3107 08-03-2009 21:22:42 5.2 C 5.78 g/m*3 5.2 C 0 km/h
3108 08-03-2009 21:34:42 5.1 C 5.75 g/m*3 5.1 C 0 km/h
3109 08-03-2009 21:46:42 5.1 C 5.75 g/m*3 5.1 C 0 km/h
3110 08-03-2009 21:58:42 5 C 5.71 g/m*3 5 C 0 km/h
3111 08-03-2009 22:10:42 4.8 C 5.63 g/m*3 4.8 C 0 km/h
3112 08-03-2009 22:22:41 4.7 C 5.6 g/m*3 4.7 C 0 km/h
3113 08-03-2009 22:34:41 4.6 C 5.56 g/m*3 4.6 C 0 km/h
3114 08-03-2009 22:46:41 4.8 C 5.5 g/m*3 4.8 C 0 km/h
3115 08-03-2009 22:58:41 5.3 C 4.92 g/m*3 5.3 C 0 km/h
3116 08-03-2009 23:10:41 5.3 C 4.71 g/m*3 5.3 C 0 km/h
3117 08-03-2009 23:23:43 4.7 C 4.8 g/m*3 4.7 C 0 km/h
3118 08-03-2009 23:35:43 4.6 C 4.83 g/m*3 4.6 C 0 km/h
3119 08-03-2009 23:47:43 4.5 C 4.8 g/m*3 4.5 C 0 km/h
3120 08-03-2009 23:59:43 4.4 C 4.77 g/m*3 4.4 C 0 km/h
3121 09-03-2009 00:11:43 4.4 C 4.83 g/m*3 4.4 C 0 km/h
3122 09-03-2009 00:23:43 4.8 C 4.96 g/m*3 4.8 C 0 km/h
3123 09-03-2009 00:35:43 5.1 C 4.79 g/m*3 5.1 C 0 km/h
3124 09-03-2009 00:47:43 5 C 4.69 g/m*3 5 C 0 km/h
3125 09-03-2009 00:59:43 5 C 4.69 g/m*3 5 C 0 km/h
Sensor: Nr:Datum:Temp:Abs-Feuchte:Windchill:Wind:
Aussen-T/F 3126 09-03-2009 01:11:43 4.7 C 4.73 g/m*3 4.7 C 0 km/h
3127 09-03-2009 01:23:43 4.7 C 4.2 g/m*3 4.7 C 0 km/h
3128 09-03-2009 01:35:43 4.7 C 4.46 g/m*3 4.7 C 0 km/h
3129 09-03-2009 01:47:43 4.7 C 4.46 g/m*3 4.7 C 0 km/h
3130 09-03-2009 01:59:44 4.7 C 4.06 g/m*3 4.7 C 0 km/h
3131 09-03-2009 02:11:44 4.7 C 3.73 g/m*3 4.7 C 0 km/h
3132 09-03-2009 02:23:44 4.7 C 3.66 g/m*3 4.7 C 0 km/h
3133 09-03-2009 02:35:44 4.3 C 3.63 g/m*3 4.3 C 0 km/h
3134 09-03-2009 02:47:44 3.9 C 3.79 g/m*3 3.9 C 0 km/h
3135 09-03-2009 02:59:44 3.7 C 3.74 g/m*3 3.7 C 0 km/h
3136 09-03-2009 03:11:44 3.6 C 3.71 g/m*3 3.6 C 0 km/h
3137 09-03-2009 03:23:44 3.5 C 3.75 g/m*3 3.5 C 0 km/h
3138 09-03-2009 03:35:44 3.3 C 3.76 g/m*3 3.3 C 0 km/h
3139 09-03-2009 03:47:44 3.3 C 3.94 g/m*3 3.3 C 0 km/h
3140 09-03-2009 03:59:44 3.4 C 4.03 g/m*3 3.4 C 0 km/h
3141 09-03-2009 04:11:44 3.4 C 4.09 g/m*3 3.4 C 0 km/h
3142 09-03-2009 04:23:44 3.6 C 4.15 g/m*3 3.6 C 0 km/h
3143 09-03-2009 04:35:44 3.7 C 4.3 g/m*3 3.7 C 0 km/h
3144 09-03-2009 04:47:44 3.3 C 4.49 g/m*3 3.3 C 0 km/h
3145 09-03-2009 04:59:44 3.2 C 4.64 g/m*3 3.2 C 0 km/h
3146 09-03-2009 05:11:44 3.1 C 4.67 g/m*3 3.1 C 0 km/h
3147 09-03-2009 05:23:44 3.1 C 4.73 g/m*3 3.1 C 0 km/h
3148 09-03-2009 05:35:44 3 C 4.64 g/m*3 3 C 0 km/h
3149 09-03-2009 05:47:45 3.2 C 4.64 g/m*3 3.2 C 0 km/h
3150 09-03-2009 05:59:45 3.3 C 4.61 g/m*3 3.3 C 0 km/h
Sensor: Nr:Datum:Temp:Abs-Feuchte:Windchill:Wind:
Aussen-T/F 3151 09-03-2009 06:11:45 3.1 C 4.67 g/m*3 3.1 C 0 km/h
3152 09-03-2009 06:23:45 2.5 C 4.66 g/m*3 2.5 C 0 km/h
3153 09-03-2009 06:35:45 2.3 C 4.71 g/m*3 2.3 C 0 km/h
3154 09-03-2009 06:47:45 2.1 C 4.7 g/m*3 2.1 C 0 km/h
3155 09-03-2009 06:59:42 2.2 C 4.79 g/m*3 2.2 C 0 km/h
3156 09-03-2009 07:11:42 2.2 C 4.73 g/m*3 2.2 C 0 km/h
3157 09-03-2009 07:23:42 2.1 C 4.42 g/m*3 2.1 C 0 km/h
3158 09-03-2009 07:35:41 2.1 C 4.2 g/m*3 2.1 C 0 km/h
3159 09-03-2009 07:47:42 2 C 3.95 g/m*3 2 C 0 km/h
3160 09-03-2009 07:59:41 2.1 C 3.92 g/m*3 2.1 C 0 km/h
3161 09-03-2009 08:11:41 2.2 C 3.89 g/m*3 2.2 C 0 km/h
3162 09-03-2009 08:23:41 2.6 C 3.82 g/m*3 2.6 C 0 km/h
3163 09-03-2009 08:35:42 2.5 C 3.91 g/m*3 2.5 C 0 km/h
3164 09-03-2009 08:47:41 3 C 3.92 g/m*3 3 C 0 km/h
3165 09-03-2009 08:59:41 3.4 C 3.97 g/m*3 3.4 C 0 km/h
3166 09-03-2009 09:11:41 3.5 C 4 g/m*3 3.5 C 0 km/h
3167 09-03-2009 09:23:40 3.3 C 4 g/m*3 3.3 C 0 km/h
3168 09-03-2009 09:35:41 3.7 C 4.11 g/m*3 3.7 C 0 km/h
3169 09-03-2009 09:47:40 4.2 C 3.99 g/m*3 4.2 C 0 km/h
3170 09-03-2009 09:59:40 4.5 C 4.01 g/m*3 4.5 C 0 km/h
3171 09-03-2009 10:11:41 4.7 C 4.13 g/m*3 4.7 C 0 km/h
3172 09-03-2009 10:23:40 5.1 C 3.97 g/m*3 5.1 C 0 km/h
3173 09-03-2009 10:35:40 5.3 C 4.02 g/m*3 5.3 C 0 km/h
3174 09-03-2009 10:47:39 5.6 C 4.03 g/m*3 5.6 C 0 km/h
3175 09-03-2009 10:59:40 5.6 C 3.96 g/m*3 5.6 C 0 km/h
Sensor: Nr:Datum:Temp:Abs-Feuchte:Windchill:Wind:
Aussen-T/F 3176 09-03-2009 11:11:40 6 C 3.92 g/m*3 6 C 0 km/h
3177 09-03-2009 11:23:40 5.8 C 3.94 g/m*3 5.8 C 0 km/h
3178 09-03-2009 11:35:39 6.4 C 3.95 g/m*3 6.4 C 0 km/h
3179 09-03-2009 11:47:40 6.1 C 3.8 g/m*3 6.1 C 0 km/h
3180 09-03-2009 11:59:39 6.5 C 3.97 g/m*3 6.5 C 0 km/h
3181 09-03-2009 12:11:39 7.2 C 3.92 g/m*3 7.2 C 0 km/h
3182 09-03-2009 12:23:39 7 C 3.56 g/m*3 7 C 0 km/h
3183 09-03-2009 12:35:38 7 C 3.64 g/m*3 7 C 0 km/h
3184 09-03-2009 12:47:39 7.2 C 3.69 g/m*3 7.2 C 0 km/h
3185 09-03-2009 12:59:39 7.7 C 3.49 g/m*3 7.7 C 0 km/h
3186 09-03-2009 13:11:39 7.7 C 3.49 g/m*3 7.7 C 0 km/h
3187 09-03-2009 13:23:38 7.4 C 3.42 g/m*3 7.4 C 0 km/h
3188 09-03-2009 13:35:39 7.5 C 3.52 g/m*3 7.5 C 0 km/h
3189 09-03-2009 13:47:38 7.7 C 3.24 g/m*3 7.7 C 0 km/h
3190 09-03-2009 13:59:38 8 C 3.22 g/m*3 8 C 0 km/h
3191 09-03-2009 14:11:38 7.7 C 3.24 g/m*3 7.7 C 0 km/h
3192 09-03-2009 14:23:38 8.2 C 3.35 g/m*3 8.2 C 0 km/h
3193 09-03-2009 14:35:38 8.4 C 3.48 g/m*3 8.4 C 0 km/h
3194 09-03-2009 14:47:37 8.3 C 3.46 g/m*3 8.3 C 0 km/h
3195 09-03-2009 14:59:38 7.2 C 3.69 g/m*3 7.2 C 0 km/h
3196 09-03-2009 15:11:38 6.3 C 4 g/m*3 6.3 C 0 km/h
3197 09-03-2009 15:23:37 6.9 C 4.16 g/m*3 6.9 C 0 km/h
3198 09-03-2009 15:35:37 8.1 C 3.83 g/m*3 8.1 C 0 km/h
3199 09-03-2009 15:47:38 8.7 C 3.63 g/m*3 8.7 C 0 km/h
3200 09-03-2009 15:59:37 8.6 C 3.52 g/m*3 8.6 C 0 km/h
Sensor: Nr:Datum:Temp:Abs-Feuchte:Windchill:Wind:
Aussen-T/F 3201 09-03-2009 16:11:37 9.5 C 3.55 g/m*3 9.5 C 0 km/h
3202 09-03-2009 16:23:37 8.7 C 3.55 g/m*3 8.7 C 0 km/h
3203 09-03-2009 16:35:36 8.7 C 3.72 g/m*3 8.7 C 0 km/h
3204 09-03-2009 16:47:37 8.8 C 3.74 g/m*3 8.8 C 0 km/h
3205 09-03-2009 16:59:36 9.1 C 3.37 g/m*3 9.1 C 0 km/h
3206 09-03-2009 17:11:36 8.3 C 3.37 g/m*3 8.3 C 0 km/h
3207 09-03-2009 17:23:36 8 C 3.47 g/m*3 8 C 0 km/h
3208 09-03-2009 17:35:37 7.9 C 3.61 g/m*3 7.9 C 0 km/h
3209 09-03-2009 17:47:36 7.5 C 3.68 g/m*3 7.5 C 0 km/h
3210 09-03-2009 17:59:36 7.4 C 3.66 g/m*3 7.4 C 0 km/h
3211 09-03-2009 18:11:36 7.4 C 3.74 g/m*3 7.4 C 0 km/h
3212 09-03-2009 18:23:36 7.3 C 3.71 g/m*3 7.3 C 0 km/h
3213 09-03-2009 18:35:36 7 C 3.87 g/m*3 7 C 0 km/h
3214 09-03-2009 18:47:35 6.7 C 4.1 g/m*3 6.7 C 0 km/h
3215 09-03-2009 18:59:35 6.4 C 4.17 g/m*3 6.4 C 0 km/h
3216 09-03-2009 19:11:35 6.4 C 4.1 g/m*3 6.4 C 0 km/h
3217 09-03-2009 19:23:35 6.2 C 3.82 g/m*3 6.2 C 0 km/h
3218 09-03-2009 19:35:35 6 C 3.85 g/m*3 6 C 0 km/h
3219 09-03-2009 19:47:34 5.8 C 4.01 g/m*3 5.8 C 0 km/h
3220 09-03-2009 19:59:35 5.8 C 4.08 g/m*3 5.8 C 0 km/h
3221 09-03-2009 20:11:35 5.8 C 4.23 g/m*3 5.8 C 0 km/h
3222 09-03-2009 20:23:35 5.5 C 4.28 g/m*3 5.5 C 0 km/h
3223 09-03-2009 20:35:34 5.2 C 4.34 g/m*3 5.2 C 0 km/h
3224 09-03-2009 20:47:35 4.9 C 4.46 g/m*3 4.9 C 0 km/h
3225 09-03-2009 20:59:34 4.8 C 4.56 g/m*3 4.8 C 0 km/h
Sensor: Nr:Datum:Temp:Abs-Feuchte:Windchill:Wind:
Aussen-T/F 3226 09-03-2009 21:11:34 4.6 C 4.57 g/m*3 4.6 C 0 km/h
3227 09-03-2009 21:23:34 4.4 C 4.64 g/m*3 4.4 C 0 km/h
3228 09-03-2009 21:35:34 4 C 4.77 g/m*3 4 C 0 km/h
3229 09-03-2009 21:48:35 3.8 C 4.89 g/m*3 3.8 C 0 km/h
3230 09-03-2009 22:00:35 3.8 C 4.89 g/m*3 3.8 C 0 km/h
3231 09-03-2009 22:12:35 4.1 C 4.86 g/m*3 4.1 C 0 km/h
3232 09-03-2009 22:24:35 3.7 C 4.8 g/m*3 3.7 C 0 km/h
3233 09-03-2009 22:36:35 4 C 4.58 g/m*3 4 C 0 km/h
3234 09-03-2009 22:48:35 3.9 C 4.61 g/m*3 3.9 C 0 km/h
3235 09-03-2009 23:00:35 3.7 C 4.61 g/m*3 3.7 C 0 km/h
3236 09-03-2009 23:12:35 3.5 C 4.61 g/m*3 3.5 C 0 km/h
3237 09-03-2009 23:24:35 3.3 C 4.67 g/m*3 3.3 C 0 km/h
3238 09-03-2009 23:36:35 3.2 C 4.7 g/m*3 3.2 C 0 km/h
3239 09-03-2009 23:48:35 3.4 C 4.83 g/m*3 3.4 C 0 km/h
3240 10-03-2009 00:00:35 3.4 C 4.83 g/m*3 3.4 C 0 km/h
3241 10-03-2009 00:12:35 3.3 C 4.79 g/m*3 3.3 C 0 km/h
3242 10-03-2009 00:24:35 3.4 C 4.89 g/m*3 3.4 C 0 km/h
3243 10-03-2009 00:36:35 3.7 C 4.92 g/m*3 3.7 C